Darstellungsparameter: Aktuell verwendete Einstellungen:
Skalierung der Graphiken ... ?
xyx+y,   Skalierungsfaktor:      Skalierung: Modus: x, Faktor: 1
Darstellungszeitraum ... ?
Vom - - bis: - -   Zeitraum: 25.02.2011 - 24.03.2011
Min/Max/Avg-Anzeige ... ?
Zeige MMA aktuell
Zeige MMA Monat
Zeige MMA alles
Zeige --A aktuell
Zeige --A Monat
Zeige --A alles
Keine MMA-Anzeige
MMA:
Average (ber die Originaldaten)
MMA-Basis: 25.02.2011 - 24.03.2011
Quicknavigation für Darstellung... ?
Tage:      1T, 2T, 3T, 5T -1T -2T -3T -5T +1T +2T +3T +5T
Wochen: 1W, 2W, 3W -1W -2W -3W +1W +2W +3W
Monate: 1M, 3M, 6M -1M -3M -6M +1M +3M +6M
Jahre:    1J, 3J, 5J, 10J -1J -3J -5J -10J +1J +3J +5J +10J
Nutze für die Darstellung ... ?
Originaldaten oder Mittelwerte auf ...
Stundenbasis Tagesbasis Wochenbasis
Monatsbasis Jahresbasis      Datenbasis: Original-Daten
Darstellen als:
Statistik (Auto) Statistik J:M      Darstellung:
Zur Graphik,    zurück zur Übersicht aller Sensoren.
 
Tabellarische Datenbersicht: ?
 
Sensor: Nr:Datum:Temp:Abs-Feuchte:Windchill:Wind:
Aussen-T/F 1 25-02-2011 00:09:03 1.4 C 4.75 g/m*3 1.4 C 0 km/h
2 25-02-2011 00:21:03 1.4 C 4.75 g/m*3 1.4 C 0 km/h
3 25-02-2011 00:33:04 1.5 C 4.78 g/m*3 1.5 C 0 km/h
4 25-02-2011 00:45:04 1.5 C 4.78 g/m*3 1.5 C 0 km/h
5 25-02-2011 00:57:04 1.4 C 4.75 g/m*3 1.4 C 0 km/h
6 25-02-2011 01:09:04 1.4 C 4.75 g/m*3 1.4 C 0 km/h
7 25-02-2011 01:21:04 1.5 C 4.78 g/m*3 1.5 C 0 km/h
8 25-02-2011 01:33:04 1.4 C 4.8 g/m*3 1.4 C 0 km/h
9 25-02-2011 01:45:04 1.4 C 4.8 g/m*3 1.4 C 0 km/h
10 25-02-2011 01:57:04 1.5 C 4.83 g/m*3 1.5 C 0 km/h
11 25-02-2011 02:09:04 1.4 C 4.8 g/m*3 1.4 C 0 km/h
12 25-02-2011 02:21:04 1.4 C 4.8 g/m*3 1.4 C 0 km/h
13 25-02-2011 02:33:04 1.4 C 4.8 g/m*3 1.4 C 0 km/h
14 25-02-2011 02:45:04 1.4 C 4.8 g/m*3 1.4 C 0 km/h
15 25-02-2011 02:57:04 1.5 C 4.83 g/m*3 1.5 C 0 km/h
16 25-02-2011 03:09:04 1.5 C 4.83 g/m*3 1.5 C 0 km/h
17 25-02-2011 03:21:04 1.5 C 4.83 g/m*3 1.5 C 0 km/h
18 25-02-2011 03:33:04 1.6 C 4.87 g/m*3 1.6 C 0 km/h
19 25-02-2011 03:45:04 1.5 C 4.83 g/m*3 1.5 C 0 km/h
20 25-02-2011 03:57:04 1.4 C 4.8 g/m*3 1.4 C 0 km/h
21 25-02-2011 04:09:04 1.5 C 4.83 g/m*3 1.5 C 0 km/h
22 25-02-2011 04:21:04 1.4 C 4.8 g/m*3 1.4 C 0 km/h
23 25-02-2011 04:33:04 1.5 C 4.83 g/m*3 1.5 C 0 km/h
24 25-02-2011 04:45:05 1.5 C 4.83 g/m*3 1.5 C 0 km/h
25 25-02-2011 04:57:05 1.5 C 4.83 g/m*3 1.5 C 0 km/h
Sensor: Nr:Datum:Temp:Abs-Feuchte:Windchill:Wind:
Aussen-T/F 26 25-02-2011 05:09:05 1.6 C 4.92 g/m*3 1.6 C 0 km/h
27 25-02-2011 05:21:05 1.6 C 4.92 g/m*3 1.6 C 0 km/h
28 25-02-2011 05:33:05 1.6 C 4.92 g/m*3 1.6 C 0 km/h
29 25-02-2011 05:45:05 1.7 C 4.95 g/m*3 1.7 C 0 km/h
30 25-02-2011 05:57:05 1.7 C 4.95 g/m*3 1.7 C 0 km/h
31 25-02-2011 06:09:05 1.7 C 4.95 g/m*3 1.7 C 0 km/h
32 25-02-2011 06:21:05 1.6 C 4.92 g/m*3 1.6 C 0 km/h
33 25-02-2011 06:33:05 1.7 C 4.95 g/m*3 1.7 C 0 km/h
34 25-02-2011 06:45:05 1.7 C 4.95 g/m*3 1.7 C 0 km/h
35 25-02-2011 06:57:05 1.8 C 4.99 g/m*3 1.8 C 0 km/h
36 25-02-2011 07:09:05 1.8 C 4.99 g/m*3 1.8 C 0 km/h
37 25-02-2011 07:21:03 1.9 C 5.02 g/m*3 1.9 C 0 km/h
38 25-02-2011 07:33:02 1.9 C 5.02 g/m*3 1.9 C 0 km/h
39 25-02-2011 07:45:03 1.7 C 4.95 g/m*3 1.7 C 0 km/h
40 25-02-2011 07:57:03 1.8 C 4.99 g/m*3 1.8 C 0 km/h
41 25-02-2011 08:09:02 1.8 C 4.99 g/m*3 1.8 C 0 km/h
42 25-02-2011 08:21:02 2 C 5 g/m*3 2 C 0 km/h
43 25-02-2011 08:33:02 2.2 C 5.07 g/m*3 2.2 C 0 km/h
44 25-02-2011 08:45:02 2.4 C 5.2 g/m*3 2.4 C 0 km/h
45 25-02-2011 08:57:03 2.6 C 5.27 g/m*3 2.6 C 0 km/h
46 25-02-2011 09:09:01 2.6 C 5.21 g/m*3 2.6 C 0 km/h
47 25-02-2011 09:21:02 2.7 C 5.24 g/m*3 2.7 C 0 km/h
48 25-02-2011 09:33:02 2.7 C 5.24 g/m*3 2.7 C 0 km/h
49 25-02-2011 09:45:02 3.3 C 5.46 g/m*3 3.3 C 0 km/h
50 25-02-2011 09:57:02 3.3 C 5.4 g/m*3 3.3 C 0 km/h
Sensor: Nr:Datum:Temp:Abs-Feuchte:Windchill:Wind:
Aussen-T/F 51 25-02-2011 10:09:03 3.4 C 5.37 g/m*3 3.4 C 0 km/h
52 25-02-2011 10:21:02 3.3 C 5.28 g/m*3 3.3 C 0 km/h
53 25-02-2011 10:33:02 3.9 C 5.49 g/m*3 3.9 C 0 km/h
54 25-02-2011 10:45:01 4 C 5.4 g/m*3 4 C 0 km/h
55 25-02-2011 10:57:01 3.8 C 5.33 g/m*3 3.8 C 0 km/h
56 25-02-2011 11:09:02 4.4 C 5.42 g/m*3 4.4 C 0 km/h
57 25-02-2011 11:21:01 4.3 C 5.32 g/m*3 4.3 C 0 km/h
58 25-02-2011 11:33:01 4.3 C 5.25 g/m*3 4.3 C 0 km/h
59 25-02-2011 11:45:01 4.7 C 5.4 g/m*3 4.7 C 0 km/h
60 25-02-2011 11:57:01 5.1 C 5.34 g/m*3 5.1 C 0 km/h
61 25-02-2011 12:09:01 5.1 C 5.2 g/m*3 5.1 C 0 km/h
62 25-02-2011 12:21:02 5.6 C 5.3 g/m*3 5.6 C 0 km/h
63 25-02-2011 12:33:01 5.1 C 5.06 g/m*3 5.1 C 0 km/h
64 25-02-2011 12:45:03 5.6 C 5.23 g/m*3 5.6 C 0 km/h
65 25-02-2011 12:57:03 5.2 C 5.03 g/m*3 5.2 C 0 km/h
66 25-02-2011 13:09:02 5.8 C 5.3 g/m*3 5.8 C 0 km/h
67 25-02-2011 13:21:02 6.3 C 5.33 g/m*3 6.3 C 0 km/h
68 25-02-2011 13:33:02 6.3 C 5.18 g/m*3 6.3 C 0 km/h
69 25-02-2011 13:45:02 6.2 C 5.22 g/m*3 6.2 C 0 km/h
70 25-02-2011 13:57:03 6 C 5.08 g/m*3 6 C 0 km/h
71 25-02-2011 14:09:01 6.1 C 5.19 g/m*3 6.1 C 0 km/h
72 25-02-2011 14:21:02 6.2 C 5.22 g/m*3 6.2 C 0 km/h
73 25-02-2011 14:33:03 6.3 C 5.33 g/m*3 6.3 C 0 km/h
74 25-02-2011 14:45:02 5.8 C 5.09 g/m*3 5.8 C 0 km/h
75 25-02-2011 14:57:03 5.9 C 5.19 g/m*3 5.9 C 0 km/h
Sensor: Nr:Datum:Temp:Abs-Feuchte:Windchill:Wind:
Aussen-T/F 76 25-02-2011 15:09:01 6.3 C 5.26 g/m*3 6.3 C 0 km/h
77 25-02-2011 15:21:01 6.4 C 5.29 g/m*3 6.4 C 0 km/h
78 25-02-2011 15:33:02 6.1 C 5.11 g/m*3 6.1 C 0 km/h
79 25-02-2011 15:45:02 6 C 5.23 g/m*3 6 C 0 km/h
80 25-02-2011 15:57:02 5.9 C 5.34 g/m*3 5.9 C 0 km/h
81 25-02-2011 16:09:02 5.9 C 5.41 g/m*3 5.9 C 0 km/h
82 25-02-2011 16:21:02 5.4 C 5.3 g/m*3 5.4 C 0 km/h
83 25-02-2011 16:33:02 5.3 C 5.41 g/m*3 5.3 C 0 km/h
84 25-02-2011 16:45:02 5.2 C 5.44 g/m*3 5.2 C 0 km/h
85 25-02-2011 16:57:02 5.1 C 5.4 g/m*3 5.1 C 0 km/h
86 25-02-2011 17:09:02 5 C 5.37 g/m*3 5 C 0 km/h
87 25-02-2011 17:21:02 4.8 C 5.43 g/m*3 4.8 C 0 km/h
88 25-02-2011 17:33:02 4.8 C 5.3 g/m*3 4.8 C 0 km/h
89 25-02-2011 17:45:02 4.5 C 5.26 g/m*3 4.5 C 0 km/h
90 25-02-2011 17:57:02 4.2 C 5.22 g/m*3 4.2 C 0 km/h
91 25-02-2011 18:09:02 4.1 C 5.18 g/m*3 4.1 C 0 km/h
92 25-02-2011 18:21:02 4.1 C 5.25 g/m*3 4.1 C 0 km/h
93 25-02-2011 18:33:02 4.2 C 5.28 g/m*3 4.2 C 0 km/h
94 25-02-2011 18:45:02 4.3 C 5.32 g/m*3 4.3 C 0 km/h
95 25-02-2011 18:57:02 4.4 C 5.35 g/m*3 4.4 C 0 km/h
96 25-02-2011 19:09:02 4.1 C 5.25 g/m*3 4.1 C 0 km/h
97 25-02-2011 19:21:02 4 C 5.21 g/m*3 4 C 0 km/h
98 25-02-2011 19:33:01 3.8 C 5.21 g/m*3 3.8 C 0 km/h
99 25-02-2011 19:45:02 3.9 C 5.31 g/m*3 3.9 C 0 km/h
100 25-02-2011 19:57:02 3.9 C 5.31 g/m*3 3.9 C 0 km/h
Sensor: Nr:Datum:Temp:Abs-Feuchte:Windchill:Wind:
Aussen-T/F 101 25-02-2011 20:09:01 3.8 C 5.27 g/m*3 3.8 C 0 km/h
102 25-02-2011 20:21:01 3.8 C 5.27 g/m*3 3.8 C 0 km/h
103 25-02-2011 20:33:02 3.8 C 5.27 g/m*3 3.8 C 0 km/h
104 25-02-2011 20:45:02 3.9 C 5.37 g/m*3 3.9 C 0 km/h
105 25-02-2011 20:57:02 3.8 C 5.33 g/m*3 3.8 C 0 km/h
106 25-02-2011 21:09:02 3.7 C 5.3 g/m*3 3.7 C 0 km/h
107 25-02-2011 21:21:02 3.7 C 5.3 g/m*3 3.7 C 0 km/h
108 25-02-2011 21:33:02 3.6 C 5.26 g/m*3 3.6 C 0 km/h
109 25-02-2011 21:45:02 3.6 C 5.32 g/m*3 3.6 C 0 km/h
110 25-02-2011 21:57:02 3.6 C 5.32 g/m*3 3.6 C 0 km/h
111 25-02-2011 22:09:02 3.7 C 5.36 g/m*3 3.7 C 0 km/h
112 25-02-2011 22:21:03 3.7 C 5.36 g/m*3 3.7 C 0 km/h
113 25-02-2011 22:34:04 3.7 C 5.36 g/m*3 3.7 C 0 km/h
114 25-02-2011 22:46:04 3.8 C 5.46 g/m*3 3.8 C 0 km/h
115 25-02-2011 22:58:04 4 C 5.47 g/m*3 4 C 0 km/h
116 25-02-2011 23:10:04 4 C 5.4 g/m*3 4 C 0 km/h
117 25-02-2011 23:22:04 3.9 C 5.43 g/m*3 3.9 C 0 km/h
118 25-02-2011 23:34:04 3.8 C 5.4 g/m*3 3.8 C 0 km/h
119 25-02-2011 23:46:04 3.7 C 5.36 g/m*3 3.7 C 0 km/h
120 25-02-2011 23:58:04 3.6 C 5.32 g/m*3 3.6 C 0 km/h
121 26-02-2011 00:10:04 3.6 C 5.32 g/m*3 3.6 C 0 km/h
122 26-02-2011 00:22:04 3.6 C 5.32 g/m*3 3.6 C 0 km/h
123 26-02-2011 00:34:04 3.6 C 5.32 g/m*3 3.6 C 0 km/h
124 26-02-2011 00:46:04 3.6 C 5.32 g/m*3 3.6 C 0 km/h
125 26-02-2011 00:58:04 3.6 C 5.39 g/m*3 3.6 C 0 km/h
Sensor: Nr:Datum:Temp:Abs-Feuchte:Windchill:Wind:
Aussen-T/F 126 26-02-2011 01:10:04 3.6 C 5.39 g/m*3 3.6 C 0 km/h
127 26-02-2011 01:22:04 3.5 C 5.35 g/m*3 3.5 C 0 km/h
128 26-02-2011 01:34:04 3.5 C 5.35 g/m*3 3.5 C 0 km/h
129 26-02-2011 01:46:05 3.5 C 5.35 g/m*3 3.5 C 0 km/h
130 26-02-2011 01:58:05 3.5 C 5.35 g/m*3 3.5 C 0 km/h
131 26-02-2011 02:10:05 3.5 C 5.35 g/m*3 3.5 C 0 km/h
132 26-02-2011 02:22:05 3.5 C 5.35 g/m*3 3.5 C 0 km/h
133 26-02-2011 02:34:05 3.5 C 5.35 g/m*3 3.5 C 0 km/h
134 26-02-2011 02:46:05 3.5 C 5.35 g/m*3 3.5 C 0 km/h
135 26-02-2011 02:58:05 3.5 C 5.35 g/m*3 3.5 C 0 km/h
136 26-02-2011 03:10:05 3.5 C 5.29 g/m*3 3.5 C 0 km/h
137 26-02-2011 03:22:05 3.4 C 5.25 g/m*3 3.4 C 0 km/h
138 26-02-2011 03:34:05 3.4 C 5.25 g/m*3 3.4 C 0 km/h
139 26-02-2011 03:46:05 3.4 C 5.25 g/m*3 3.4 C 0 km/h
140 26-02-2011 03:58:05 3.4 C 5.25 g/m*3 3.4 C 0 km/h
141 26-02-2011 04:10:05 3.3 C 5.22 g/m*3 3.3 C 0 km/h
142 26-02-2011 04:22:05 3.3 C 5.22 g/m*3 3.3 C 0 km/h
143 26-02-2011 04:34:05 3.4 C 5.25 g/m*3 3.4 C 0 km/h
144 26-02-2011 04:46:05 3.5 C 5.29 g/m*3 3.5 C 0 km/h
145 26-02-2011 04:58:05 3.4 C 5.25 g/m*3 3.4 C 0 km/h
146 26-02-2011 05:10:05 3.3 C 5.22 g/m*3 3.3 C 0 km/h
147 26-02-2011 05:22:05 3.4 C 5.25 g/m*3 3.4 C 0 km/h
148 26-02-2011 05:34:05 3.8 C 5.33 g/m*3 3.8 C 0 km/h
149 26-02-2011 05:46:06 4.1 C 5.25 g/m*3 4.1 C 0 km/h
150 26-02-2011 05:58:06 4.1 C 5.06 g/m*3 4.1 C 0 km/h
Sensor: Nr:Datum:Temp:Abs-Feuchte:Windchill:Wind:
Aussen-T/F 151 26-02-2011 06:10:06 4.1 C 4.93 g/m*3 4.1 C 0 km/h
152 26-02-2011 06:22:06 4 C 4.9 g/m*3 4 C 0 km/h
153 26-02-2011 06:34:06 3.7 C 4.86 g/m*3 3.7 C 0 km/h
154 26-02-2011 06:46:06 3.4 C 4.83 g/m*3 3.4 C 0 km/h
155 26-02-2011 06:58:06 2.9 C 4.84 g/m*3 2.9 C 0 km/h
156 26-02-2011 07:10:06 2.7 C 4.84 g/m*3 2.7 C 0 km/h
157 26-02-2011 07:22:06 2.7 C 4.89 g/m*3 2.7 C 0 km/h
158 26-02-2011 07:34:06 2.6 C 4.92 g/m*3 2.6 C 0 km/h
159 26-02-2011 07:46:06 2.9 C 5.02 g/m*3 2.9 C 0 km/h
160 26-02-2011 07:58:06 3.6 C 5.14 g/m*3 3.6 C 0 km/h
161 26-02-2011 08:10:06 3.8 C 4.96 g/m*3 3.8 C 0 km/h
162 26-02-2011 08:22:06 3.8 C 4.89 g/m*3 3.8 C 0 km/h
163 26-02-2011 08:34:03 3.9 C 4.93 g/m*3 3.9 C 0 km/h
164 26-02-2011 08:46:02 4 C 4.83 g/m*3 4 C 0 km/h
165 26-02-2011 08:58:02 4.2 C 4.83 g/m*3 4.2 C 0 km/h
166 26-02-2011 09:10:02 4.2 C 4.77 g/m*3 4.2 C 0 km/h
167 26-02-2011 09:22:02 4.2 C 4.7 g/m*3 4.2 C 0 km/h
168 26-02-2011 09:34:02 4.1 C 4.67 g/m*3 4.1 C 0 km/h
169 26-02-2011 09:46:02 3.9 C 4.61 g/m*3 3.9 C 0 km/h
170 26-02-2011 09:58:03 4.1 C 4.61 g/m*3 4.1 C 0 km/h
171 26-02-2011 10:10:01 4.1 C 4.61 g/m*3 4.1 C 0 km/h
172 26-02-2011 10:22:02 4.3 C 4.61 g/m*3 4.3 C 0 km/h
173 26-02-2011 10:34:02 4.7 C 4.6 g/m*3 4.7 C 0 km/h
174 26-02-2011 10:46:02 5.2 C 4.61 g/m*3 5.2 C 0 km/h
175 26-02-2011 10:58:02 5.7 C 4.63 g/m*3 5.7 C 0 km/h
Sensor: Nr:Datum:Temp:Abs-Feuchte:Windchill:Wind:
Aussen-T/F 176 26-02-2011 11:10:03 5.6 C 4.45 g/m*3 5.6 C 0 km/h
177 26-02-2011 11:22:02 5.6 C 4.38 g/m*3 5.6 C 0 km/h
178 26-02-2011 11:34:03 5.6 C 4.38 g/m*3 5.6 C 0 km/h
179 26-02-2011 11:46:02 6.5 C 4.65 g/m*3 6.5 C 0 km/h
180 26-02-2011 11:58:02 6.1 C 4.38 g/m*3 6.1 C 0 km/h
181 26-02-2011 12:10:02 7.4 C 4.61 g/m*3 7.4 C 0 km/h
182 26-02-2011 12:22:02 7.8 C 4.57 g/m*3 7.8 C 0 km/h
183 26-02-2011 12:34:02 8 C 4.38 g/m*3 8 C 0 km/h
184 26-02-2011 12:46:02 7.7 C 4.46 g/m*3 7.7 C 0 km/h
185 26-02-2011 12:58:02 7.1 C 4.45 g/m*3 7.1 C 0 km/h
186 26-02-2011 13:10:02 7.4 C 4.53 g/m*3 7.4 C 0 km/h
187 26-02-2011 13:22:02 8.4 C 4.58 g/m*3 8.4 C 0 km/h
188 26-02-2011 13:34:02 8.6 C 4.38 g/m*3 8.6 C 0 km/h
189 26-02-2011 13:46:02 8.9 C 4.64 g/m*3 8.9 C 0 km/h
190 26-02-2011 13:58:02 8.7 C 4.58 g/m*3 8.7 C 0 km/h
191 26-02-2011 14:10:02 8.6 C 4.55 g/m*3 8.6 C 0 km/h
192 26-02-2011 14:22:02 8 C 4.63 g/m*3 8 C 0 km/h
193 26-02-2011 14:34:02 8.9 C 4.73 g/m*3 8.9 C 0 km/h
194 26-02-2011 14:46:02 9.5 C 4.64 g/m*3 9.5 C 0 km/h
195 26-02-2011 14:58:02 8.8 C 4.53 g/m*3 8.8 C 0 km/h
196 26-02-2011 15:10:02 8.7 C 4.58 g/m*3 8.7 C 0 km/h
197 26-02-2011 15:22:03 8 C 4.63 g/m*3 8 C 0 km/h
198 26-02-2011 15:34:02 7.7 C 4.7 g/m*3 7.7 C 0 km/h
199 26-02-2011 15:46:02 7.7 C 4.87 g/m*3 7.7 C 0 km/h
200 26-02-2011 15:58:02 7.8 C 4.73 g/m*3 7.8 C 0 km/h
Sensor: Nr:Datum:Temp:Abs-Feuchte:Windchill:Wind:
Aussen-T/F 201 26-02-2011 16:10:02 7.7 C 4.7 g/m*3 7.7 C 0 km/h
202 26-02-2011 16:22:02 7.4 C 4.77 g/m*3 7.4 C 0 km/h
203 26-02-2011 16:34:01 7 C 4.8 g/m*3 7 C 0 km/h
204 26-02-2011 16:46:02 6.9 C 4.93 g/m*3 6.9 C 0 km/h
205 26-02-2011 16:58:03 6.7 C 4.94 g/m*3 6.7 C 0 km/h
206 26-02-2011 17:10:01 6.7 C 5.01 g/m*3 6.7 C 0 km/h
207 26-02-2011 17:22:01 6.6 C 5.06 g/m*3 6.6 C 0 km/h
208 26-02-2011 17:34:02 6.4 C 5.07 g/m*3 6.4 C 0 km/h
209 26-02-2011 17:46:02 6.3 C 5.11 g/m*3 6.3 C 0 km/h
210 26-02-2011 17:58:02 6 C 5.15 g/m*3 6 C 0 km/h
211 26-02-2011 18:10:02 5.8 C 5.3 g/m*3 5.8 C 0 km/h
212 26-02-2011 18:22:02 5.8 C 5.37 g/m*3 5.8 C 0 km/h
213 26-02-2011 18:34:02 5.6 C 5.37 g/m*3 5.6 C 0 km/h
214 26-02-2011 18:46:02 5.4 C 5.37 g/m*3 5.4 C 0 km/h
215 26-02-2011 18:58:02 5.2 C 5.51 g/m*3 5.2 C 0 km/h
216 26-02-2011 19:10:02 5.1 C 5.68 g/m*3 5.1 C 0 km/h
217 26-02-2011 19:22:02 5 C 5.71 g/m*3 5 C 0 km/h
218 26-02-2011 19:34:02 5 C 5.71 g/m*3 5 C 0 km/h
219 26-02-2011 19:46:02 4.8 C 5.77 g/m*3 4.8 C 0 km/h
220 26-02-2011 19:58:02 4.9 C 5.81 g/m*3 4.9 C 0 km/h
221 26-02-2011 20:10:02 4.8 C 5.77 g/m*3 4.8 C 0 km/h
222 26-02-2011 20:22:02 4.9 C 5.81 g/m*3 4.9 C 0 km/h
223 26-02-2011 20:34:02 4.7 C 5.8 g/m*3 4.7 C 0 km/h
224 26-02-2011 20:46:02 4.7 C 5.8 g/m*3 4.7 C 0 km/h
225 26-02-2011 20:58:02 4.6 C 5.76 g/m*3 4.6 C 0 km/h
Sensor: Nr:Datum:Temp:Abs-Feuchte:Windchill:Wind:
Aussen-T/F 226 26-02-2011 21:10:02 4.6 C 5.82 g/m*3 4.6 C 0 km/h
227 26-02-2011 21:22:02 4.6 C 5.82 g/m*3 4.6 C 0 km/h
228 26-02-2011 21:34:01 4.6 C 5.82 g/m*3 4.6 C 0 km/h
229 26-02-2011 21:47:02 4.6 C 5.82 g/m*3 4.6 C 0 km/h
230 26-02-2011 21:59:02 4.6 C 5.82 g/m*3 4.6 C 0 km/h
231 26-02-2011 22:11:02 4.7 C 5.86 g/m*3 4.7 C 0 km/h
232 26-02-2011 22:23:02 4.6 C 5.89 g/m*3 4.6 C 0 km/h
233 26-02-2011 22:35:02 4.4 C 5.81 g/m*3 4.4 C 0 km/h
234 26-02-2011 22:47:02 4.4 C 5.81 g/m*3 4.4 C 0 km/h
235 26-02-2011 22:59:02 4.3 C 5.77 g/m*3 4.3 C 0 km/h
236 26-02-2011 23:11:02 4.3 C 5.77 g/m*3 4.3 C 0 km/h
237 26-02-2011 23:23:02 4.4 C 5.81 g/m*3 4.4 C 0 km/h
238 26-02-2011 23:35:02 4.7 C 6 g/m*3 4.7 C 0 km/h
239 26-02-2011 23:47:02 5 C 6.05 g/m*3 5 C 0 km/h
240 26-02-2011 23:59:03 5.1 C 6.09 g/m*3 5.1 C 0 km/h
241 27-02-2011 00:11:03 5.1 C 6.16 g/m*3 5.1 C 0 km/h
242 27-02-2011 00:23:03 4.7 C 6 g/m*3 4.7 C 0 km/h
243 27-02-2011 00:35:03 4.5 C 5.92 g/m*3 4.5 C 0 km/h
244 27-02-2011 00:47:03 4.5 C 5.92 g/m*3 4.5 C 0 km/h
245 27-02-2011 00:59:03 4.6 C 5.96 g/m*3 4.6 C 0 km/h
246 27-02-2011 01:11:03 4.5 C 5.92 g/m*3 4.5 C 0 km/h
247 27-02-2011 01:23:03 4.3 C 5.84 g/m*3 4.3 C 0 km/h
248 27-02-2011 01:35:03 4.5 C 5.98 g/m*3 4.5 C 0 km/h
249 27-02-2011 01:47:03 4.7 C 6.06 g/m*3 4.7 C 0 km/h
250 27-02-2011 01:59:03 4.7 C 6.06 g/m*3 4.7 C 0 km/h
Sensor: Nr:Datum:Temp:Abs-Feuchte:Windchill:Wind:
Aussen-T/F 251 27-02-2011 02:11:03 4.7 C 6.06 g/m*3 4.7 C 0 km/h
252 27-02-2011 02:23:03 4.7 C 6.06 g/m*3 4.7 C 0 km/h
253 27-02-2011 02:35:03 4.6 C 6.02 g/m*3 4.6 C 0 km/h
254 27-02-2011 02:47:03 4.6 C 6.02 g/m*3 4.6 C 0 km/h
255 27-02-2011 02:59:03 4.7 C 6.06 g/m*3 4.7 C 0 km/h
256 27-02-2011 03:11:03 4.7 C 6 g/m*3 4.7 C 0 km/h
257 27-02-2011 03:23:03 4.7 C 6 g/m*3 4.7 C 0 km/h
258 27-02-2011 03:35:03 4.8 C 6.04 g/m*3 4.8 C 0 km/h
259 27-02-2011 03:47:03 4.9 C 6.08 g/m*3 4.9 C 0 km/h
260 27-02-2011 03:59:04 4.8 C 6.04 g/m*3 4.8 C 0 km/h
261 27-02-2011 04:11:04 4.7 C 6 g/m*3 4.7 C 0 km/h
262 27-02-2011 04:23:04 4.7 C 6 g/m*3 4.7 C 0 km/h
263 27-02-2011 04:35:04 4.6 C 5.96 g/m*3 4.6 C 0 km/h
264 27-02-2011 04:47:04 4.6 C 5.96 g/m*3 4.6 C 0 km/h
265 27-02-2011 04:59:04 4.5 C 5.92 g/m*3 4.5 C 0 km/h
266 27-02-2011 05:11:04 4.5 C 5.92 g/m*3 4.5 C 0 km/h
267 27-02-2011 05:23:04 4.4 C 5.88 g/m*3 4.4 C 0 km/h
268 27-02-2011 05:35:04 4.5 C 5.92 g/m*3 4.5 C 0 km/h
269 27-02-2011 05:47:04 4.4 C 5.88 g/m*3 4.4 C 0 km/h
270 27-02-2011 05:59:04 4.5 C 5.92 g/m*3 4.5 C 0 km/h
271 27-02-2011 06:11:04 4.4 C 5.88 g/m*3 4.4 C 0 km/h
272 27-02-2011 06:23:04 4.4 C 5.88 g/m*3 4.4 C 0 km/h
273 27-02-2011 06:35:04 4.3 C 5.84 g/m*3 4.3 C 0 km/h
274 27-02-2011 06:47:04 4.2 C 5.8 g/m*3 4.2 C 0 km/h
275 27-02-2011 06:59:04 4.2 C 5.8 g/m*3 4.2 C 0 km/h
Sensor: Nr:Datum:Temp:Abs-Feuchte:Windchill:Wind:
Aussen-T/F 276 27-02-2011 07:11:04 4.3 C 5.9 g/m*3 4.3 C 0 km/h
277 27-02-2011 07:23:04 4.3 C 5.9 g/m*3 4.3 C 0 km/h
278 27-02-2011 07:35:03 4.3 C 5.84 g/m*3 4.3 C 0 km/h
279 27-02-2011 07:47:02 4.3 C 5.84 g/m*3 4.3 C 0 km/h
280 27-02-2011 07:59:02 4.3 C 5.84 g/m*3 4.3 C 0 km/h
281 27-02-2011 08:11:03 4.3 C 5.77 g/m*3 4.3 C 0 km/h
282 27-02-2011 08:23:02 4.5 C 5.78 g/m*3 4.5 C 0 km/h
283 27-02-2011 08:35:02 4.6 C 5.82 g/m*3 4.6 C 0 km/h
284 27-02-2011 08:47:02 4.7 C 5.8 g/m*3 4.7 C 0 km/h
285 27-02-2011 08:59:02 5 C 5.71 g/m*3 5 C 0 km/h
286 27-02-2011 09:11:01 5 C 5.64 g/m*3 5 C 0 km/h
287 27-02-2011 09:23:02 5.2 C 5.65 g/m*3 5.2 C 0 km/h
288 27-02-2011 09:35:02 5.4 C 5.65 g/m*3 5.4 C 0 km/h
289 27-02-2011 09:47:02 5.7 C 5.55 g/m*3 5.7 C 0 km/h
290 27-02-2011 09:59:02 5.8 C 5.52 g/m*3 5.8 C 0 km/h
291 27-02-2011 10:11:03 5.7 C 5.55 g/m*3 5.7 C 0 km/h
292 27-02-2011 10:23:02 5.7 C 5.55 g/m*3 5.7 C 0 km/h
293 27-02-2011 10:35:03 6.7 C 5.62 g/m*3 6.7 C 0 km/h
294 27-02-2011 10:47:02 6.7 C 5.39 g/m*3 6.7 C 0 km/h
295 27-02-2011 10:59:02 6.8 C 5.51 g/m*3 6.8 C 0 km/h
296 27-02-2011 11:11:02 7 C 5.27 g/m*3 7 C 0 km/h
297 27-02-2011 11:23:02 7.1 C 5.07 g/m*3 7.1 C 0 km/h
298 27-02-2011 11:35:02 7.1 C 5.07 g/m*3 7.1 C 0 km/h
299 27-02-2011 11:47:02 7.4 C 4.93 g/m*3 7.4 C 0 km/h
300 27-02-2011 11:59:02 7.6 C 4.83 g/m*3 7.6 C 0 km/h
Sensor: Nr:Datum:Temp:Abs-Feuchte:Windchill:Wind:
Aussen-T/F 301 27-02-2011 12:11:02 7.8 C 4.73 g/m*3 7.8 C 0 km/h
302 27-02-2011 12:23:01 7.8 C 4.65 g/m*3 7.8 C 0 km/h
303 27-02-2011 12:35:02 7.7 C 4.54 g/m*3 7.7 C 0 km/h
304 27-02-2011 12:47:01 7.2 C 4.47 g/m*3 7.2 C 0 km/h
305 27-02-2011 12:59:01 7.2 C 4.55 g/m*3 7.2 C 0 km/h
306 27-02-2011 13:11:02 7.3 C 4.5 g/m*3 7.3 C 0 km/h
307 27-02-2011 13:23:02 7.5 C 4.48 g/m*3 7.5 C 0 km/h
308 27-02-2011 13:35:02 7.5 C 4.4 g/m*3 7.5 C 0 km/h
309 27-02-2011 13:47:02 7.7 C 4.46 g/m*3 7.7 C 0 km/h
310 27-02-2011 13:59:02 7.5 C 4.4 g/m*3 7.5 C 0 km/h
311 27-02-2011 14:11:02 7.8 C 4.49 g/m*3 7.8 C 0 km/h
312 27-02-2011 14:23:02 7.3 C 4.35 g/m*3 7.3 C 0 km/h
313 27-02-2011 14:35:01 7.2 C 4.32 g/m*3 7.2 C 0 km/h
314 27-02-2011 14:47:02 7.3 C 4.35 g/m*3 7.3 C 0 km/h
315 27-02-2011 14:59:02 7.4 C 4.29 g/m*3 7.4 C 0 km/h
316 27-02-2011 15:11:01 7.4 C 4.37 g/m*3 7.4 C 0 km/h
317 27-02-2011 15:23:02 7.4 C 4.37 g/m*3 7.4 C 0 km/h
318 27-02-2011 15:35:01 7.3 C 4.27 g/m*3 7.3 C 0 km/h
319 27-02-2011 15:47:02 7.2 C 4.32 g/m*3 7.2 C 0 km/h
320 27-02-2011 15:59:02 7.2 C 4.4 g/m*3 7.2 C 0 km/h
321 27-02-2011 16:11:02 6.9 C 4.54 g/m*3 6.9 C 0 km/h
322 27-02-2011 16:23:02 6.8 C 4.59 g/m*3 6.8 C 0 km/h
323 27-02-2011 16:35:02 6.7 C 4.48 g/m*3 6.7 C 0 km/h
324 27-02-2011 16:47:02 6.8 C 4.36 g/m*3 6.8 C 0 km/h
325 27-02-2011 16:59:02 6.7 C 4.33 g/m*3 6.7 C 0 km/h
Sensor: Nr:Datum:Temp:Abs-Feuchte:Windchill:Wind:
Aussen-T/F 326 27-02-2011 17:11:01 6.7 C 4.26 g/m*3 6.7 C 0 km/h
327 27-02-2011 17:23:02 6.5 C 4.27 g/m*3 6.5 C 0 km/h
328 27-02-2011 17:35:02 6.4 C 4.32 g/m*3 6.4 C 0 km/h
329 27-02-2011 17:47:02 6.5 C 4.35 g/m*3 6.5 C 0 km/h
330 27-02-2011 17:59:02 6.5 C 4.2 g/m*3 6.5 C 0 km/h
331 27-02-2011 18:11:02 6.3 C 4.22 g/m*3 6.3 C 0 km/h
332 27-02-2011 18:23:02 5.8 C 4.3 g/m*3 5.8 C 0 km/h
333 27-02-2011 18:35:01 5.7 C 4.41 g/m*3 5.7 C 0 km/h
334 27-02-2011 18:47:03 5.7 C 4.41 g/m*3 5.7 C 0 km/h
335 27-02-2011 18:59:03 5.4 C 4.47 g/m*3 5.4 C 0 km/h
336 27-02-2011 19:11:02 5.7 C 4.48 g/m*3 5.7 C 0 km/h
337 27-02-2011 19:23:02 5.6 C 4.45 g/m*3 5.6 C 0 km/h
338 27-02-2011 19:35:02 5 C 4.62 g/m*3 5 C 0 km/h
339 27-02-2011 19:47:02 4.9 C 4.79 g/m*3 4.9 C 0 km/h
340 27-02-2011 19:59:03 4.8 C 4.76 g/m*3 4.8 C 0 km/h
341 27-02-2011 20:11:01 4.5 C 4.73 g/m*3 4.5 C 0 km/h
342 27-02-2011 20:23:02 4.2 C 4.83 g/m*3 4.2 C 0 km/h
343 27-02-2011 20:35:02 4.2 C 4.96 g/m*3 4.2 C 0 km/h
344 27-02-2011 20:47:01 4.6 C 4.76 g/m*3 4.6 C 0 km/h
345 27-02-2011 20:59:01 5 C 4.42 g/m*3 5 C 0 km/h
346 27-02-2011 21:11:02 4.7 C 4.53 g/m*3 4.7 C 0 km/h
347 27-02-2011 21:23:01 4.6 C 4.5 g/m*3 4.6 C 0 km/h
348 27-02-2011 21:35:01 5.1 C 4.24 g/m*3 5.1 C 0 km/h
349 27-02-2011 21:47:01 4.8 C 4.22 g/m*3 4.8 C 0 km/h
350 27-02-2011 21:59:01 4.3 C 4.28 g/m*3 4.3 C 0 km/h
Sensor: Nr:Datum:Temp:Abs-Feuchte:Windchill:Wind:
Aussen-T/F 351 27-02-2011 22:11:49 3.9 C 4.48 g/m*3 3.9 C 0 km/h
352 27-02-2011 22:24:03 4.2 C 4.32 g/m*3 4.2 C 0 km/h
353 27-02-2011 22:36:03 4.4 C 4.37 g/m*3 4.4 C 0 km/h
354 27-02-2011 22:48:03 4.5 C 4.27 g/m*3 4.5 C 0 km/h
355 27-02-2011 23:00:03 4.4 C 4.18 g/m*3 4.4 C 0 km/h
356 27-02-2011 23:12:03 3.9 C 4.23 g/m*3 3.9 C 0 km/h
357 27-02-2011 23:24:03 3.6 C 4.27 g/m*3 3.6 C 0 km/h
358 27-02-2011 23:36:03 3.6 C 4.27 g/m*3 3.6 C 0 km/h
359 27-02-2011 23:48:03 3.5 C 4.3 g/m*3 3.5 C 0 km/h
360 28-02-2011 00:00:03 3.6 C 4.33 g/m*3 3.6 C 0 km/h
361 28-02-2011 00:12:03 3.6 C 4.27 g/m*3 3.6 C 0 km/h
362 28-02-2011 00:24:03 3 C 4.22 g/m*3 3 C 0 km/h
363 28-02-2011 00:36:03 2.8 C 4.34 g/m*3 2.8 C 0 km/h
364 28-02-2011 00:48:03 2.7 C 4.37 g/m*3 2.7 C 0 km/h
365 28-02-2011 01:00:03 2.7 C 4.37 g/m*3 2.7 C 0 km/h
366 28-02-2011 01:12:03 1.9 C 4.3 g/m*3 1.9 C 0 km/h
367 28-02-2011 01:24:03 2 C 4.39 g/m*3 2 C 0 km/h
368 28-02-2011 01:36:03 2.4 C 4.51 g/m*3 2.4 C 0 km/h
369 28-02-2011 01:48:03 1.6 C 4.27 g/m*3 1.6 C 0 km/h
370 28-02-2011 02:00:03 1.5 C 4.35 g/m*3 1.5 C 0 km/h
371 28-02-2011 02:12:04 1.2 C 4.31 g/m*3 1.2 C 0 km/h
372 28-02-2011 02:24:04 0.9 C 4.33 g/m*3 0.9 C 0 km/h
373 28-02-2011 02:36:04 0.8 C 4.35 g/m*3 0.8 C 0 km/h
374 28-02-2011 02:48:04 1.4 C 4.53 g/m*3 1.4 C 0 km/h
375 28-02-2011 03:00:04 1.4 C 4.59 g/m*3 1.4 C 0 km/h
Sensor: Nr:Datum:Temp:Abs-Feuchte:Windchill:Wind:
Aussen-T/F 376 28-02-2011 03:12:04 1.6 C 4.65 g/m*3 1.6 C 0 km/h
377 28-02-2011 03:24:04 1.8 C 4.66 g/m*3 1.8 C 0 km/h
378 28-02-2011 03:36:04 2.2 C 4.62 g/m*3 2.2 C 0 km/h
379 28-02-2011 03:48:04 2.1 C 4.53 g/m*3 2.1 C 0 km/h
380 28-02-2011 04:00:04 1.9 C 4.42 g/m*3 1.9 C 0 km/h
381 28-02-2011 04:12:04 1.8 C 4.55 g/m*3 1.8 C 0 km/h
382 28-02-2011 04:24:04 2.4 C 4.68 g/m*3 2.4 C 0 km/h
383 28-02-2011 04:36:04 2.6 C 4.51 g/m*3 2.6 C 0 km/h
384 28-02-2011 04:48:04 2.6 C 4.46 g/m*3 2.6 C 0 km/h
385 28-02-2011 05:00:04 2.6 C 4.46 g/m*3 2.6 C 0 km/h
386 28-02-2011 05:12:04 2.6 C 4.46 g/m*3 2.6 C 0 km/h
387 28-02-2011 05:24:04 2.8 C 4.46 g/m*3 2.8 C 0 km/h
388 28-02-2011 05:36:04 2.7 C 4.49 g/m*3 2.7 C 0 km/h
389 28-02-2011 05:48:04 2.7 C 4.49 g/m*3 2.7 C 0 km/h
390 28-02-2011 06:00:04 2.9 C 4.55 g/m*3 2.9 C 0 km/h
391 28-02-2011 06:12:05 2.8 C 4.46 g/m*3 2.8 C 0 km/h
392 28-02-2011 06:24:05 2.7 C 4.43 g/m*3 2.7 C 0 km/h
393 28-02-2011 06:36:05 2.7 C 4.54 g/m*3 2.7 C 0 km/h
394 28-02-2011 06:48:05 2.6 C 4.57 g/m*3 2.6 C 0 km/h
395 28-02-2011 07:00:05 2.5 C 4.6 g/m*3 2.5 C 0 km/h
396 28-02-2011 07:12:04 2.6 C 4.57 g/m*3 2.6 C 0 km/h
397 28-02-2011 07:24:03 2.5 C 4.54 g/m*3 2.5 C 0 km/h
398 28-02-2011 07:36:03 2.5 C 4.54 g/m*3 2.5 C 0 km/h
399 28-02-2011 07:48:01 2.9 C 4.61 g/m*3 2.9 C 0 km/h
400 28-02-2011 08:00:01 2.9 C 4.55 g/m*3 2.9 C 0 km/h
Sensor: Nr:Datum:Temp:Abs-Feuchte:Windchill:Wind:
Aussen-T/F 401 28-02-2011 08:12:02 3.1 C 4.55 g/m*3 3.1 C 0 km/h
402 28-02-2011 08:24:01 3.3 C 4.61 g/m*3 3.3 C 0 km/h
403 28-02-2011 08:36:01 3.4 C 4.64 g/m*3 3.4 C 0 km/h
404 28-02-2011 08:48:01 3.5 C 4.61 g/m*3 3.5 C 0 km/h
405 28-02-2011 09:00:01 3.7 C 4.61 g/m*3 3.7 C 0 km/h
406 28-02-2011 09:12:02 3.9 C 4.55 g/m*3 3.9 C 0 km/h
407 28-02-2011 09:24:02 4.2 C 4.51 g/m*3 4.2 C 0 km/h
408 28-02-2011 09:36:01 5 C 4.62 g/m*3 5 C 0 km/h
409 28-02-2011 09:48:02 4.3 C 4.28 g/m*3 4.3 C 0 km/h
410 28-02-2011 10:00:02 3.4 C 4.28 g/m*3 3.4 C 0 km/h
411 28-02-2011 10:12:01 2.8 C 4.34 g/m*3 2.8 C 0 km/h
412 28-02-2011 10:24:02 3.4 C 4.7 g/m*3 3.4 C 0 km/h
413 28-02-2011 10:36:01 4.8 C 5.03 g/m*3 4.8 C 0 km/h
414 28-02-2011 10:48:02 6.3 C 4.81 g/m*3 6.3 C 0 km/h
415 28-02-2011 11:00:02 7.3 C 4.58 g/m*3 7.3 C 0 km/h
416 28-02-2011 11:12:02 7.3 C 4.27 g/m*3 7.3 C 0 km/h
417 28-02-2011 11:24:02 7 C 4.03 g/m*3 7 C 0 km/h
418 28-02-2011 11:36:02 7.8 C 4.16 g/m*3 7.8 C 0 km/h
419 28-02-2011 11:48:02 7.9 C 4.02 g/m*3 7.9 C 0 km/h
420 28-02-2011 12:00:02 8.1 C 3.99 g/m*3 8.1 C 0 km/h
421 28-02-2011 12:12:01 8.3 C 4.05 g/m*3 8.3 C 0 km/h
422 28-02-2011 12:24:01 8.6 C 3.95 g/m*3 8.6 C 0 km/h
423 28-02-2011 12:36:02 8.8 C 3.92 g/m*3 8.8 C 0 km/h
424 28-02-2011 12:48:02 8.5 C 3.76 g/m*3 8.5 C 0 km/h
425 28-02-2011 13:00:02 8.2 C 3.85 g/m*3 8.2 C 0 km/h
Sensor: Nr:Datum:Temp:Abs-Feuchte:Windchill:Wind:
Aussen-T/F 426 28-02-2011 13:12:02 8.5 C 3.84 g/m*3 8.5 C 0 km/h
427 28-02-2011 13:24:01 8.8 C 3.83 g/m*3 8.8 C 0 km/h
428 28-02-2011 13:36:02 10.4 C 3.66 g/m*3 10.4 C 0 km/h
429 28-02-2011 13:48:01 9.2 C 3.75 g/m*3 9.2 C 0 km/h
430 28-02-2011 14:00:01 9.1 C 3.82 g/m*3 9.1 C 0 km/h
431 28-02-2011 14:12:02 10.9 C 4.08 g/m*3 10.9 C 0 km/h
432 28-02-2011 14:24:01 10 C 3.76 g/m*3 10 C 0 km/h
433 28-02-2011 14:36:02 11.2 C 3.85 g/m*3 11.2 C 0 km/h
434 28-02-2011 14:48:01 10.5 C 3.78 g/m*3 10.5 C 0 km/h
435 28-02-2011 15:00:01 9.6 C 3.85 g/m*3 9.6 C 0 km/h
436 28-02-2011 15:12:02 9.7 C 3.87 g/m*3 9.7 C 0 km/h
437 28-02-2011 15:24:02 10 C 3.76 g/m*3 10 C 0 km/h
438 28-02-2011 15:36:02 11 C 3.9 g/m*3 11 C 0 km/h
439 28-02-2011 15:48:02 11.4 C 3.7 g/m*3 11.4 C 0 km/h
440 28-02-2011 16:00:02 11.5 C 3.72 g/m*3 11.5 C 0 km/h
441 28-02-2011 16:12:02 12.3 C 3.91 g/m*3 12.3 C 0 km/h
442 28-02-2011 16:24:02 15.2 C 3.63 g/m*3 15.2 C 0 km/h
443 28-02-2011 16:36:01 11.6 C 3.53 g/m*3 11.6 C 0 km/h
444 28-02-2011 16:48:02 9.2 C 3.66 g/m*3 9.2 C 0 km/h
445 28-02-2011 17:00:02 8.4 C 3.82 g/m*3 8.4 C 0 km/h
446 28-02-2011 17:12:01 8.1 C 3.83 g/m*3 8.1 C 0 km/h
447 28-02-2011 17:24:01 7.9 C 3.94 g/m*3 7.9 C 0 km/h
448 28-02-2011 17:36:01 7.7 C 3.89 g/m*3 7.7 C 0 km/h
449 28-02-2011 17:48:02 7.1 C 3.82 g/m*3 7.1 C 0 km/h
450 28-02-2011 18:00:02 6.1 C 4.09 g/m*3 6.1 C 0 km/h
Sensor: Nr:Datum:Temp:Abs-Feuchte:Windchill:Wind:
Aussen-T/F 451 28-02-2011 18:12:02 5.8 C 4.15 g/m*3 5.8 C 0 km/h
452 28-02-2011 18:24:02 5.1 C 4.17 g/m*3 5.1 C 0 km/h
453 28-02-2011 18:36:02 4.4 C 4.24 g/m*3 4.4 C 0 km/h
454 28-02-2011 18:48:01 4.2 C 4.32 g/m*3 4.2 C 0 km/h
455 28-02-2011 19:00:01 3.5 C 4.3 g/m*3 3.5 C 0 km/h
456 28-02-2011 19:12:02 3 C 4.34 g/m*3 3 C 0 km/h
457 28-02-2011 19:24:01 2.8 C 4.46 g/m*3 2.8 C 0 km/h
458 28-02-2011 19:36:01 2.6 C 4.46 g/m*3 2.6 C 0 km/h
459 28-02-2011 19:48:01 2.2 C 4.39 g/m*3 2.2 C 0 km/h
460 28-02-2011 20:00:01 2 C 4.39 g/m*3 2 C 0 km/h
461 28-02-2011 20:12:02 1.9 C 4.47 g/m*3 1.9 C 0 km/h
462 28-02-2011 20:24:01 1.9 C 4.53 g/m*3 1.9 C 0 km/h
463 28-02-2011 20:36:01 1.7 C 4.52 g/m*3 1.7 C 0 km/h
464 28-02-2011 20:48:01 1.5 C 4.51 g/m*3 1.5 C 0 km/h
465 28-02-2011 21:00:01 1.3 C 4.45 g/m*3 1.3 C 0 km/h
466 28-02-2011 21:12:02 1.3 C 4.5 g/m*3 1.3 C 0 km/h
467 28-02-2011 21:24:02 1.3 C 4.5 g/m*3 1.3 C 0 km/h
468 28-02-2011 21:37:02 1.4 C 4.59 g/m*3 1.4 C 0 km/h
469 28-02-2011 21:49:02 1.3 C 4.56 g/m*3 1.3 C 0 km/h
470 28-02-2011 22:01:02 1.4 C 4.59 g/m*3 1.4 C 0 km/h
471 28-02-2011 22:13:02 1.1 C 4.49 g/m*3 1.1 C 0 km/h
472 28-02-2011 22:25:02 1.1 C 4.49 g/m*3 1.1 C 0 km/h
473 28-02-2011 22:37:02 0.9 C 4.48 g/m*3 0.9 C 0 km/h
474 28-02-2011 22:49:02 0.7 C 4.42 g/m*3 0.7 C 0 km/h
475 28-02-2011 23:01:02 0.9 C 4.54 g/m*3 0.9 C 0 km/h
Sensor: Nr:Datum:Temp:Abs-Feuchte:Windchill:Wind:
Aussen-T/F 476 28-02-2011 23:13:02 1 C 4.52 g/m*3 1 C 0 km/h
477 28-02-2011 23:25:02 1.1 C 4.55 g/m*3 1.1 C 0 km/h
478 28-02-2011 23:37:02 0.7 C 4.47 g/m*3 0.7 C 0 km/h
479 28-02-2011 23:49:02 0.9 C 4.54 g/m*3 0.9 C 0 km/h
480 01-03-2011 00:01:02 0.7 C 4.47 g/m*3 0.7 C 0 km/h
481 01-03-2011 00:13:02 0.6 C 4.44 g/m*3 0.6 C 0 km/h
482 01-03-2011 00:25:02 0.6 C 4.44 g/m*3 0.6 C 0 km/h
483 01-03-2011 00:37:02 0.4 C 4.38 g/m*3 0.4 C 0 km/h
484 01-03-2011 00:49:03 0.4 C 4.38 g/m*3 0.4 C 0 km/h
485 01-03-2011 01:01:03 0.1 C 4.24 g/m*3 0.1 C 0 km/h
486 01-03-2011 01:13:03 -0.3 C 4.13 g/m*3 -0.3 C 0 km/h
487 01-03-2011 01:25:03 -0.3 C 4.13 g/m*3 -0.3 C 0 km/h
488 01-03-2011 01:37:03 0.1 C 4.29 g/m*3 0.1 C 0 km/h
489 01-03-2011 01:49:03 -0.1 C 4.23 g/m*3 -0.1 C 0 km/h
490 01-03-2011 02:01:03 0 C 4.26 g/m*3 0 C 0 km/h
491 01-03-2011 02:13:03 0 C 4.26 g/m*3 0 C 0 km/h
492 01-03-2011 02:25:03 -0.3 C 4.18 g/m*3 -0.3 C 0 km/h
493 01-03-2011 02:37:03 0.1 C 4.34 g/m*3 0.1 C 0 km/h
494 01-03-2011 02:49:03 -0.3 C 4.22 g/m*3 -0.3 C 0 km/h
495 01-03-2011 03:01:03 -0.6 C 4.14 g/m*3 -0.6 C 0 km/h
496 01-03-2011 03:13:03 -0.8 C 4.08 g/m*3 -0.8 C 0 km/h
497 01-03-2011 03:25:03 -1 C 4.02 g/m*3 -1 C 0 km/h
498 01-03-2011 03:37:03 -0.9 C 4.05 g/m*3 -0.9 C 0 km/h
499 01-03-2011 03:49:03 -0.5 C 4.17 g/m*3 -0.5 C 0 km/h
500 01-03-2011 04:01:03 -0.9 C 4.05 g/m*3 -0.9 C 0 km/h
Sensor: Nr:Datum:Temp:Abs-Feuchte:Windchill:Wind:
Aussen-T/F 501 01-03-2011 04:13:03 -1.1 C 4 g/m*3 -1.1 C 0 km/h
502 01-03-2011 04:25:03 -0.8 C 4.08 g/m*3 -0.8 C 0 km/h
503 01-03-2011 04:37:03 -1.2 C 3.97 g/m*3 -1.2 C 0 km/h
504 01-03-2011 04:49:04 -1.2 C 3.97 g/m*3 -1.2 C 0 km/h
505 01-03-2011 05:01:04 -0.3 C 4.27 g/m*3 -0.3 C 0 km/h
506 01-03-2011 05:13:04 0.4 C 4.53 g/m*3 0.4 C 0 km/h
507 01-03-2011 05:25:04 0.6 C 4.6 g/m*3 0.6 C 0 km/h
508 01-03-2011 05:37:04 0.5 C 4.56 g/m*3 0.5 C 0 km/h
509 01-03-2011 05:49:04 0.5 C 4.56 g/m*3 0.5 C 0 km/h
510 01-03-2011 06:01:04 0.5 C 4.56 g/m*3 0.5 C 0 km/h
511 01-03-2011 06:13:04 0.5 C 4.56 g/m*3 0.5 C 0 km/h
512 01-03-2011 06:25:04 0.5 C 4.56 g/m*3 0.5 C 0 km/h
513 01-03-2011 06:37:04 0.5 C 4.56 g/m*3 0.5 C 0 km/h
514 01-03-2011 06:49:02 0.6 C 4.6 g/m*3 0.6 C 0 km/h
515 01-03-2011 07:01:01 0.6 C 4.6 g/m*3 0.6 C 0 km/h
516 01-03-2011 07:13:01 0.6 C 4.65 g/m*3 0.6 C 0 km/h
517 01-03-2011 07:25:02 0.6 C 4.65 g/m*3 0.6 C 0 km/h
518 01-03-2011 07:37:01 0.6 C 4.65 g/m*3 0.6 C 0 km/h
519 01-03-2011 07:49:02 0.7 C 4.68 g/m*3 0.7 C 0 km/h
520 01-03-2011 08:01:02 0.8 C 4.71 g/m*3 0.8 C 0 km/h
521 01-03-2011 08:13:02 1.1 C 4.76 g/m*3 1.1 C 0 km/h
522 01-03-2011 08:25:02 1.1 C 4.76 g/m*3 1.1 C 0 km/h
523 01-03-2011 08:37:02 1.1 C 4.76 g/m*3 1.1 C 0 km/h
524 01-03-2011 08:49:01 1.3 C 4.82 g/m*3 1.3 C 0 km/h
525 01-03-2011 09:01:02 1.6 C 4.92 g/m*3 1.6 C 0 km/h
Sensor: Nr:Datum:Temp:Abs-Feuchte:Windchill:Wind:
Aussen-T/F 526 01-03-2011 09:13:02 1.6 C 4.92 g/m*3 1.6 C 0 km/h
527 01-03-2011 09:25:01 1.8 C 4.93 g/m*3 1.8 C 0 km/h
528 01-03-2011 09:37:01 2 C 4.95 g/m*3 2 C 0 km/h
529 01-03-2011 09:49:01 2.2 C 4.96 g/m*3 2.2 C 0 km/h
530 01-03-2011 10:01:02 2.3 C 4.93 g/m*3 2.3 C 0 km/h
531 01-03-2011 10:13:02 2.2 C 4.73 g/m*3 2.2 C 0 km/h
532 01-03-2011 10:25:02 2.2 C 4.68 g/m*3 2.2 C 0 km/h
533 01-03-2011 10:37:01 2.5 C 4.71 g/m*3 2.5 C 0 km/h
534 01-03-2011 10:49:02 3 C 4.76 g/m*3 3 C 0 km/h
535 01-03-2011 11:01:01 3.5 C 4.86 g/m*3 3.5 C 0 km/h
536 01-03-2011 11:13:01 4.4 C 4.96 g/m*3 4.4 C 0 km/h
537 01-03-2011 11:25:02 4.4 C 4.77 g/m*3 4.4 C 0 km/h
538 01-03-2011 11:37:01 5.1 C 4.79 g/m*3 5.1 C 0 km/h
539 01-03-2011 11:49:02 5.3 C 4.78 g/m*3 5.3 C 0 km/h
540 01-03-2011 12:01:02 6.2 C 5 g/m*3 6.2 C 0 km/h
541 01-03-2011 12:13:02 6.7 C 4.94 g/m*3 6.7 C 0 km/h
542 01-03-2011 12:25:02 7.8 C 5.06 g/m*3 7.8 C 0 km/h
543 01-03-2011 12:37:02 8.4 C 4.75 g/m*3 8.4 C 0 km/h
544 01-03-2011 12:49:02 9.4 C 4.79 g/m*3 9.4 C 0 km/h
545 01-03-2011 13:01:02 9.4 C 4.61 g/m*3 9.4 C 0 km/h
546 01-03-2011 13:13:02 11.1 C 4.73 g/m*3 11.1 C 0 km/h
547 01-03-2011 13:25:01 10.6 C 4.59 g/m*3 10.6 C 0 km/h
548 01-03-2011 13:37:02 9.7 C 4.61 g/m*3 9.7 C 0 km/h
549 01-03-2011 13:49:03 9.1 C 4.7 g/m*3 9.1 C 0 km/h
550 01-03-2011 14:01:02 9.8 C 4.92 g/m*3 9.8 C 0 km/h
Sensor: Nr:Datum:Temp:Abs-Feuchte:Windchill:Wind:
Aussen-T/F 551 01-03-2011 14:13:02 10.4 C 4.82 g/m*3 10.4 C 0 km/h
552 01-03-2011 14:25:02 10.5 C 4.66 g/m*3 10.5 C 0 km/h
553 01-03-2011 14:37:02 11.2 C 4.66 g/m*3 11.2 C 0 km/h
554 01-03-2011 14:49:02 11.3 C 4.69 g/m*3 11.3 C 0 km/h
555 01-03-2011 15:01:01 12.2 C 4.75 g/m*3 12.2 C 0 km/h
556 01-03-2011 15:13:01 12.1 C 4.72 g/m*3 12.1 C 0 km/h
557 01-03-2011 15:25:02 12 C 4.69 g/m*3 12 C 0 km/h
558 01-03-2011 15:37:02 12.5 C 4.95 g/m*3 12.5 C 0 km/h
559 01-03-2011 15:49:02 14.7 C 3.9 g/m*3 14.7 C 0 km/h
560 01-03-2011 16:01:03 14.5 C 3.61 g/m*3 14.5 C 0 km/h
561 01-03-2011 16:13:03 14.6 C 3.5 g/m*3 14.6 C 0 km/h
562 01-03-2011 16:25:02 14.9 C 3.19 g/m*3 14.9 C 0 km/h
563 01-03-2011 16:37:02 15.4 C 3.15 g/m*3 15.4 C 0 km/h
564 01-03-2011 16:49:01 15.7 C 3.34 g/m*3 15.7 C 0 km/h
565 01-03-2011 17:01:01 14 C 3.14 g/m*3 14 C 0 km/h
566 01-03-2011 17:13:01 13.2 C 3.1 g/m*3 13.2 C 0 km/h
567 01-03-2011 17:25:01 12.6 C 3.32 g/m*3 12.6 C 0 km/h
568 01-03-2011 17:37:01 10.4 C 3.76 g/m*3 10.4 C 0 km/h
569 01-03-2011 17:49:01 8.9 C 3.94 g/m*3 8.9 C 0 km/h
570 01-03-2011 18:01:01 7.6 C 4.11 g/m*3 7.6 C 0 km/h
571 01-03-2011 18:13:01 7 C 3.72 g/m*3 7 C 0 km/h
572 01-03-2011 18:25:02 6.5 C 3.97 g/m*3 6.5 C 0 km/h
573 01-03-2011 18:37:01 6.9 C 4 g/m*3 6.9 C 0 km/h
574 01-03-2011 18:49:03 6.8 C 4.05 g/m*3 6.8 C 0 km/h
575 01-03-2011 19:01:02 6.5 C 4.12 g/m*3 6.5 C 0 km/h
Sensor: Nr:Datum:Temp:Abs-Feuchte:Windchill:Wind:
Aussen-T/F 576 01-03-2011 19:13:02 6.2 C 4.12 g/m*3 6.2 C 0 km/h
577 01-03-2011 19:25:02 5.8 C 4.23 g/m*3 5.8 C 0 km/h
578 01-03-2011 19:37:02 5.1 C 4.24 g/m*3 5.1 C 0 km/h
579 01-03-2011 19:49:02 4.6 C 4.17 g/m*3 4.6 C 0 km/h
580 01-03-2011 20:01:01 4.4 C 4.18 g/m*3 4.4 C 0 km/h
581 01-03-2011 20:13:01 4.7 C 4.26 g/m*3 4.7 C 0 km/h
582 01-03-2011 20:25:02 4.3 C 4.02 g/m*3 4.3 C 0 km/h
583 01-03-2011 20:37:02 4.4 C 4.05 g/m*3 4.4 C 0 km/h
584 01-03-2011 20:49:02 3.9 C 4.04 g/m*3 3.9 C 0 km/h
585 01-03-2011 21:01:03 3.6 C 3.96 g/m*3 3.6 C 0 km/h
586 01-03-2011 21:13:03 3.3 C 4.06 g/m*3 3.3 C 0 km/h
587 01-03-2011 21:25:02 2.5 C 3.91 g/m*3 2.5 C 0 km/h
588 01-03-2011 21:38:02 2.3 C 4.03 g/m*3 2.3 C 0 km/h
589 01-03-2011 21:50:02 2.4 C 4.05 g/m*3 2.4 C 0 km/h
590 01-03-2011 22:02:02 2 C 3.95 g/m*3 2 C 0 km/h
591 01-03-2011 22:14:02 3.2 C 3.92 g/m*3 3.2 C 0 km/h
592 01-03-2011 22:26:02 3.2 C 3.74 g/m*3 3.2 C 0 km/h
593 01-03-2011 22:38:02 3.5 C 3.63 g/m*3 3.5 C 0 km/h
594 01-03-2011 22:50:02 3.7 C 3.55 g/m*3 3.7 C 0 km/h
595 01-03-2011 23:02:02 3.5 C 3.57 g/m*3 3.5 C 0 km/h
596 01-03-2011 23:14:03 3.3 C 3.46 g/m*3 3.3 C 0 km/h
597 01-03-2011 23:26:03 3 C 3.45 g/m*3 3 C 0 km/h
598 01-03-2011 23:38:03 2.5 C 3.45 g/m*3 2.5 C 0 km/h
599 01-03-2011 23:50:03 1.8 C 3.51 g/m*3 1.8 C 0 km/h
600 02-03-2011 00:02:03 1.6 C 3.57 g/m*3 1.6 C 0 km/h
Sensor: Nr:Datum:Temp:Abs-Feuchte:Windchill:Wind:
Aussen-T/F 601 02-03-2011 00:14:03 1.3 C 3.44 g/m*3 1.3 C 0 km/h
602 02-03-2011 00:26:03 1.8 C 3.67 g/m*3 1.8 C 0 km/h
603 02-03-2011 00:38:03 1.3 C 3.55 g/m*3 1.3 C 0 km/h
604 02-03-2011 00:50:03 0.7 C 3.51 g/m*3 0.7 C 0 km/h
605 02-03-2011 01:02:03 1.5 C 3.71 g/m*3 1.5 C 0 km/h
606 02-03-2011 01:14:03 1.1 C 3.55 g/m*3 1.1 C 0 km/h
607 02-03-2011 01:26:03 0.6 C 3.48 g/m*3 0.6 C 0 km/h
608 02-03-2011 01:38:03 0.1 C 3.51 g/m*3 0.1 C 0 km/h
609 02-03-2011 01:50:03 0.1 C 3.61 g/m*3 0.1 C 0 km/h
610 02-03-2011 02:02:03 0 C 3.63 g/m*3 0 C 0 km/h
611 02-03-2011 02:14:03 0 C 3.63 g/m*3 0 C 0 km/h
612 02-03-2011 02:26:03 -0.4 C 3.58 g/m*3 -0.4 C 0 km/h
613 02-03-2011 02:38:03 -0.6 C 3.53 g/m*3 -0.6 C 0 km/h
614 02-03-2011 02:50:03 -0.8 C 3.53 g/m*3 -0.8 C 0 km/h
615 02-03-2011 03:02:03 -0.9 C 3.51 g/m*3 -0.9 C 0 km/h
616 02-03-2011 03:14:04 -1.1 C 3.5 g/m*3 -1.1 C 0 km/h
617 02-03-2011 03:26:04 -1 C 3.53 g/m*3 -1 C 0 km/h
618 02-03-2011 03:38:04 -1.2 C 3.43 g/m*3 -1.2 C 0 km/h
619 02-03-2011 03:50:04 -0.8 C 3.53 g/m*3 -0.8 C 0 km/h
620 02-03-2011 04:02:04 -1.2 C 3.39 g/m*3 -1.2 C 0 km/h
621 02-03-2011 04:14:04 -0.9 C 3.41 g/m*3 -0.9 C 0 km/h
622 02-03-2011 04:26:04 -0.9 C 3.37 g/m*3 -0.9 C 0 km/h
623 02-03-2011 04:38:04 -1 C 3.3 g/m*3 -1 C 0 km/h
624 02-03-2011 04:50:04 -1.1 C 3.23 g/m*3 -1.1 C 0 km/h
625 02-03-2011 05:02:04 -1.4 C 3.21 g/m*3 -1.4 C 0 km/h
Sensor: Nr:Datum:Temp:Abs-Feuchte:Windchill:Wind:
Aussen-T/F 626 02-03-2011 05:14:04 -1.3 C 3.23 g/m*3 -1.3 C 0 km/h
627 02-03-2011 05:26:04 -1.3 C 3.23 g/m*3 -1.3 C 0 km/h
628 02-03-2011 05:38:04 -1.6 C 3.21 g/m*3 -1.6 C 0 km/h
629 02-03-2011 05:50:04 -1.9 C 3.18 g/m*3 -1.9 C 0 km/h
630 02-03-2011 06:02:04 -2 C 3.2 g/m*3 -2 C 0 km/h
631 02-03-2011 06:14:04 -2.1 C 3.22 g/m*3 -2.1 C 0 km/h
632 02-03-2011 06:26:04 -2 C 3.25 g/m*3 -2 C 0 km/h
633 02-03-2011 06:38:04 -2.2 C 3.2 g/m*3 -2.2 C 0 km/h
634 02-03-2011 06:50:04 -2.1 C 3.18 g/m*3 -2.1 C 0 km/h
635 02-03-2011 07:02:04 -2.1 C 3.14 g/m*3 -2.1 C 0 km/h
636 02-03-2011 07:14:04 -2.2 C 3.08 g/m*3 -2.2 C 0 km/h
637 02-03-2011 07:26:05 -2.3 C 3.1 g/m*3 -2.3 C 0 km/h
638 02-03-2011 07:38:02 -2.2 C 3.12 g/m*3 -2.2 C 0 km/h
639 02-03-2011 07:50:02 -2.3 C 3.1 g/m*3 -2.3 C 0 km/h
640 02-03-2011 08:02:01 -2 C 3.2 g/m*3 -2 C 0 km/h
641 02-03-2011 08:14:01 -2.2 C 3.16 g/m*3 -2.2 C 0 km/h
642 02-03-2011 08:26:02 -2 C 3.2 g/m*3 -2 C 0 km/h
643 02-03-2011 08:38:02 -2 C 3.2 g/m*3 -2 C 0 km/h
644 02-03-2011 08:50:02 -1.8 C 3.25 g/m*3 -1.8 C 0 km/h
645 02-03-2011 09:02:02 -1.6 C 3.25 g/m*3 -1.6 C 0 km/h
646 02-03-2011 09:14:02 -0.9 C 3.32 g/m*3 -0.9 C 0 km/h
647 02-03-2011 09:26:01 -1 C 3.21 g/m*3 -1 C 0 km/h
648 02-03-2011 09:38:02 -0.5 C 3.32 g/m*3 -0.5 C 0 km/h
649 02-03-2011 09:50:02 -0.2 C 3.2 g/m*3 -0.2 C 0 km/h
650 02-03-2011 10:02:02 -0.2 C 3.25 g/m*3 -0.2 C 0 km/h
Sensor: Nr:Datum:Temp:Abs-Feuchte:Windchill:Wind:
Aussen-T/F 651 02-03-2011 10:14:02 0.7 C 3.3 g/m*3 0.7 C 0 km/h
652 02-03-2011 10:26:02 1.5 C 3.28 g/m*3 1.5 C 0 km/h
653 02-03-2011 10:38:02 2.3 C 3.18 g/m*3 2.3 C 0 km/h
654 02-03-2011 10:50:02 2.9 C 3.25 g/m*3 2.9 C 0 km/h
655 02-03-2011 11:02:02 4 C 3.18 g/m*3 4 C 0 km/h
656 02-03-2011 11:14:02 5.2 C 2.96 g/m*3 5.2 C 0 km/h
657 02-03-2011 11:26:02 5.2 C 2.82 g/m*3 5.2 C 0 km/h
658 02-03-2011 11:38:01 6.9 C 2.31 g/m*3 6.9 C 0 km/h
659 02-03-2011 11:50:02 7.1 C 1.79 g/m*3 7.1 C 0 km/h
660 02-03-2011 12:02:01 7.6 C 1.69 g/m*3 7.6 C 0 km/h
661 02-03-2011 12:14:01 8.2 C 1.67 g/m*3 8.2 C 0 km/h
662 02-03-2011 12:26:02 10 C 1.88 g/m*3 10 C 0 km/h
663 02-03-2011 12:38:02 11 C 2 g/m*3 11 C 0 km/h
664 02-03-2011 12:50:02 12.1 C 2.14 g/m*3 12.1 C 0 km/h
665 02-03-2011 13:02:02 12.9 C 2.25 g/m*3 12.9 C 0 km/h
666 02-03-2011 13:14:02 12.3 C 2.17 g/m*3 12.3 C 0 km/h
667 02-03-2011 13:26:02 11.2 C 2.03 g/m*3 11.2 C 0 km/h
668 02-03-2011 13:38:02 11.1 C 2.01 g/m*3 11.1 C 0 km/h
669 02-03-2011 13:50:02 10.7 C 1.96 g/m*3 10.7 C 0 km/h
670 02-03-2011 14:02:03 10.2 C 1.9 g/m*3 10.2 C 0 km/h
671 02-03-2011 14:14:03 11 C 2 g/m*3 11 C 0 km/h
672 02-03-2011 14:26:02 11.2 C 2.03 g/m*3 11.2 C 0 km/h
673 02-03-2011 14:38:02 11 C 2 g/m*3 11 C 0 km/h
674 02-03-2011 14:50:01 10.8 C 1.98 g/m*3 10.8 C 0 km/h
675 02-03-2011 15:02:01 11 C 2 g/m*3 11 C 0 km/h
Sensor: Nr:Datum:Temp:Abs-Feuchte:Windchill:Wind:
Aussen-T/F 676 02-03-2011 15:14:01 10.6 C 1.95 g/m*3 10.6 C 0 km/h
677 02-03-2011 15:26:01 11.8 C 2.1 g/m*3 11.8 C 0 km/h
678 02-03-2011 15:38:01 11.7 C 2.09 g/m*3 11.7 C 0 km/h
679 02-03-2011 15:50:01 13.3 C 2.31 g/m*3 13.3 C 0 km/h
680 02-03-2011 16:02:01 13 C 2.27 g/m*3 13 C 0 km/h
681 02-03-2011 16:14:01 12.9 C 2.25 g/m*3 12.9 C 0 km/h
682 02-03-2011 16:26:02 13.1 C 2.28 g/m*3 13.1 C 0 km/h
683 02-03-2011 16:38:01 13.3 C 2.31 g/m*3 13.3 C 0 km/h
684 02-03-2011 16:50:02 13.6 C 2.35 g/m*3 13.6 C 0 km/h
685 02-03-2011 17:02:02 12.3 C 2.17 g/m*3 12.3 C 0 km/h
686 02-03-2011 17:14:02 12.2 C 2.16 g/m*3 12.2 C 0 km/h
687 02-03-2011 17:26:02 11.2 C 2.03 g/m*3 11.2 C 0 km/h
688 02-03-2011 17:38:03 8.7 C 1.73 g/m*3 8.7 C 0 km/h
689 02-03-2011 17:50:02 7.4 C 1.59 g/m*3 7.4 C 0 km/h
690 02-03-2011 18:02:01 6.7 C 1.6 g/m*3 6.7 C 0 km/h
691 02-03-2011 18:14:01 6 C 1.96 g/m*3 6 C 0 km/h
692 02-03-2011 18:26:02 4.6 C 2.18 g/m*3 4.6 C 0 km/h
693 02-03-2011 18:38:02 3.6 C 2.48 g/m*3 3.6 C 0 km/h
694 02-03-2011 18:50:02 3 C 2.56 g/m*3 3 C 0 km/h
695 02-03-2011 19:02:02 3 C 2.56 g/m*3 3 C 0 km/h
696 02-03-2011 19:14:02 2.4 C 2.68 g/m*3 2.4 C 0 km/h
697 02-03-2011 19:26:02 2.2 C 2.65 g/m*3 2.2 C 0 km/h
698 02-03-2011 19:38:02 2.5 C 2.76 g/m*3 2.5 C 0 km/h
699 02-03-2011 19:50:02 2.4 C 2.57 g/m*3 2.4 C 0 km/h
700 02-03-2011 20:02:02 3.2 C 2.47 g/m*3 3.2 C 0 km/h
Sensor: Nr:Datum:Temp:Abs-Feuchte:Windchill:Wind:
Aussen-T/F 701 02-03-2011 20:14:02 2.6 C 2.49 g/m*3 2.6 C 0 km/h
702 02-03-2011 20:26:02 3.6 C 2.23 g/m*3 3.6 C 0 km/h
703 02-03-2011 20:38:02 2.4 C 2.46 g/m*3 2.4 C 0 km/h
704 02-03-2011 20:50:02 2.7 C 2.56 g/m*3 2.7 C 0 km/h
705 02-03-2011 21:02:02 3.1 C 2.39 g/m*3 3.1 C 0 km/h
706 02-03-2011 21:14:02 2.1 C 2.41 g/m*3 2.1 C 0 km/h
707 02-03-2011 21:26:03 2.9 C 2.3 g/m*3 2.9 C 0 km/h
708 02-03-2011 21:38:02 3.3 C 2.24 g/m*3 3.3 C 0 km/h
709 02-03-2011 21:51:03 2.8 C 2.35 g/m*3 2.8 C 0 km/h
710 02-03-2011 22:03:03 3.4 C 2.32 g/m*3 3.4 C 0 km/h
711 02-03-2011 22:15:04 2.7 C 2.33 g/m*3 2.7 C 0 km/h
712 02-03-2011 22:27:04 2.4 C 2.28 g/m*3 2.4 C 0 km/h
713 02-03-2011 22:39:04 2.2 C 2.31 g/m*3 2.2 C 0 km/h
714 02-03-2011 22:51:04 1.5 C 2.42 g/m*3 1.5 C 0 km/h
715 02-03-2011 23:03:04 1.6 C 2.49 g/m*3 1.6 C 0 km/h
716 02-03-2011 23:15:04 1.5 C 2.47 g/m*3 1.5 C 0 km/h
717 02-03-2011 23:27:04 0.7 C 2.59 g/m*3 0.7 C 0 km/h
718 02-03-2011 23:39:04 0.1 C 2.68 g/m*3 0.1 C 0 km/h
719 02-03-2011 23:51:04 0 C 2.71 g/m*3 0 C 0 km/h
720 03-03-2011 00:03:04 0.1 C 2.63 g/m*3 0.1 C 0 km/h
721 03-03-2011 00:15:04 -0.8 C 2.66 g/m*3 -0.8 C 0 km/h
722 03-03-2011 00:27:04 -0.9 C 2.73 g/m*3 -0.9 C 0 km/h
723 03-03-2011 00:39:04 -1.2 C 2.67 g/m*3 -1.2 C 0 km/h
724 03-03-2011 00:51:04 -1.4 C 2.68 g/m*3 -1.4 C 0 km/h
725 03-03-2011 01:03:04 -1.5 C 2.66 g/m*3 -1.5 C 0 km/h
Sensor: Nr:Datum:Temp:Abs-Feuchte:Windchill:Wind:
Aussen-T/F 726 03-03-2011 01:15:04 -1.7 C 2.67 g/m*3 -1.7 C 0 km/h
727 03-03-2011 01:27:04 -1.8 C 2.69 g/m*3 -1.8 C 0 km/h
728 03-03-2011 01:39:04 -1.7 C 2.71 g/m*3 -1.7 C 0 km/h
729 03-03-2011 01:51:04 -1.2 C 2.81 g/m*3 -1.2 C 0 km/h
730 03-03-2011 02:03:04 -1.9 C 2.63 g/m*3 -1.9 C 0 km/h
731 03-03-2011 02:15:05 -2 C 2.61 g/m*3 -2 C 0 km/h
732 03-03-2011 02:27:05 -1.8 C 2.56 g/m*3 -1.8 C 0 km/h
733 03-03-2011 02:39:05 -2 C 2.53 g/m*3 -2 C 0 km/h
734 03-03-2011 02:51:05 -2 C 2.61 g/m*3 -2 C 0 km/h
735 03-03-2011 03:03:05 -2 C 2.57 g/m*3 -2 C 0 km/h
736 03-03-2011 03:15:05 -2 C 2.61 g/m*3 -2 C 0 km/h
737 03-03-2011 03:27:05 -2.3 C 2.56 g/m*3 -2.3 C 0 km/h
738 03-03-2011 03:39:05 -2.2 C 2.58 g/m*3 -2.2 C 0 km/h
739 03-03-2011 03:51:05 -2.1 C 2.6 g/m*3 -2.1 C 0 km/h
740 03-03-2011 04:03:05 -1.8 C 2.56 g/m*3 -1.8 C 0 km/h
741 03-03-2011 04:15:05 -0.3 C 2.42 g/m*3 -0.3 C 0 km/h
742 03-03-2011 04:27:05 -1.3 C 2.3 g/m*3 -1.3 C 0 km/h
743 03-03-2011 04:39:05 -2.6 C 2.3 g/m*3 -2.6 C 0 km/h
744 03-03-2011 04:51:05 -2.8 C 2.47 g/m*3 -2.8 C 0 km/h
745 03-03-2011 05:03:05 -2.6 C 2.59 g/m*3 -2.6 C 0 km/h
746 03-03-2011 05:15:05 -3.1 C 2.5 g/m*3 -3.1 C 0 km/h
747 03-03-2011 05:27:05 -2.7 C 2.57 g/m*3 -2.7 C 0 km/h
748 03-03-2011 05:39:05 -2.7 C 2.49 g/m*3 -2.7 C 0 km/h
749 03-03-2011 05:51:05 -3 C 2.44 g/m*3 -3 C 0 km/h
750 03-03-2011 06:03:05 -3.1 C 2.46 g/m*3 -3.1 C 0 km/h
Sensor: Nr:Datum:Temp:Abs-Feuchte:Windchill:Wind:
Aussen-T/F 751 03-03-2011 06:15:06 -3.1 C 2.5 g/m*3 -3.1 C 0 km/h
752 03-03-2011 06:27:06 -3.6 C 2.41 g/m*3 -3.6 C 0 km/h
753 03-03-2011 06:39:06 -3.7 C 2.43 g/m*3 -3.7 C 0 km/h
754 03-03-2011 06:51:06 -3.6 C 2.52 g/m*3 -3.6 C 0 km/h
755 03-03-2011 07:03:03 -3.5 C 2.54 g/m*3 -3.5 C 0 km/h
756 03-03-2011 07:15:03 -3.2 C 2.56 g/m*3 -3.2 C 0 km/h
757 03-03-2011 07:27:04 -3.2 C 2.52 g/m*3 -3.2 C 0 km/h
758 03-03-2011 07:39:03 -3.1 C 2.54 g/m*3 -3.1 C 0 km/h
759 03-03-2011 07:51:02 -3 C 2.55 g/m*3 -3 C 0 km/h
760 03-03-2011 08:03:02 -3.2 C 2.52 g/m*3 -3.2 C 0 km/h
761 03-03-2011 08:15:02 -2.8 C 2.59 g/m*3 -2.8 C 0 km/h
762 03-03-2011 08:27:02 -2.5 C 2.56 g/m*3 -2.5 C 0 km/h
763 03-03-2011 08:39:02 -2.4 C 2.54 g/m*3 -2.4 C 0 km/h
764 03-03-2011 08:51:02 -2.3 C 2.56 g/m*3 -2.3 C 0 km/h
765 03-03-2011 09:03:02 -2 C 2.61 g/m*3 -2 C 0 km/h
766 03-03-2011 09:15:02 -1.9 C 2.59 g/m*3 -1.9 C 0 km/h
767 03-03-2011 09:27:02 -1.7 C 2.58 g/m*3 -1.7 C 0 km/h
768 03-03-2011 09:39:01 -1.6 C 2.64 g/m*3 -1.6 C 0 km/h
769 03-03-2011 09:51:02 -1.2 C 2.72 g/m*3 -1.2 C 0 km/h
770 03-03-2011 10:03:01 -1 C 2.76 g/m*3 -1 C 0 km/h
771 03-03-2011 10:15:01 0.2 C 2.9 g/m*3 0.2 C 0 km/h
772 03-03-2011 10:27:01 0.7 C 2.85 g/m*3 0.7 C 0 km/h
773 03-03-2011 10:39:02 1.8 C 2.63 g/m*3 1.8 C 0 km/h
774 03-03-2011 10:51:02 2.5 C 2.36 g/m*3 2.5 C 0 km/h
775 03-03-2011 11:03:02 4 C 2.29 g/m*3 4 C 0 km/h
Sensor: Nr:Datum:Temp:Abs-Feuchte:Windchill:Wind:
Aussen-T/F 776 03-03-2011 11:15:02 3.8 C 2.2 g/m*3 3.8 C 0 km/h
777 03-03-2011 11:27:02 3.9 C 2.15 g/m*3 3.9 C 0 km/h
778 03-03-2011 11:39:02 4.9 C 2.03 g/m*3 4.9 C 0 km/h
779 03-03-2011 11:51:02 4.6 C 1.99 g/m*3 4.6 C 0 km/h
780 03-03-2011 12:03:02 5.1 C 1.98 g/m*3 5.1 C 0 km/h
781 03-03-2011 12:15:02 5.8 C 2.01 g/m*3 5.8 C 0 km/h
782 03-03-2011 12:27:02 6.5 C 1.72 g/m*3 6.5 C 0 km/h
783 03-03-2011 12:39:02 8.7 C 1.73 g/m*3 8.7 C 0 km/h
784 03-03-2011 12:51:01 8.6 C 1.72 g/m*3 8.6 C 0 km/h
785 03-03-2011 13:03:01 9 C 1.76 g/m*3 9 C 0 km/h
786 03-03-2011 13:15:02 9.3 C 1.8 g/m*3 9.3 C 0 km/h
787 03-03-2011 13:27:02 7.8 C 1.63 g/m*3 7.8 C 0 km/h
788 03-03-2011 13:39:01 8 C 1.65 g/m*3 8 C 0 km/h
789 03-03-2011 13:51:03 8.1 C 1.66 g/m*3 8.1 C 0 km/h
790 03-03-2011 14:03:02 7.9 C 1.64 g/m*3 7.9 C 0 km/h
791 03-03-2011 14:15:02 8.8 C 1.74 g/m*3 8.8 C 0 km/h
792 03-03-2011 14:27:03 8.6 C 1.72 g/m*3 8.6 C 0 km/h
793 03-03-2011 14:39:02 9.4 C 1.81 g/m*3 9.4 C 0 km/h
794 03-03-2011 14:51:02 8.8 C 1.74 g/m*3 8.8 C 0 km/h
795 03-03-2011 15:03:01 9.3 C 1.8 g/m*3 9.3 C 0 km/h
796 03-03-2011 15:15:02 9.3 C 1.8 g/m*3 9.3 C 0 km/h
797 03-03-2011 15:27:02 9.4 C 1.81 g/m*3 9.4 C 0 km/h
798 03-03-2011 15:39:02 9.3 C 1.8 g/m*3 9.3 C 0 km/h
799 03-03-2011 15:51:02 10.3 C 1.92 g/m*3 10.3 C 0 km/h
800 03-03-2011 16:03:03 9.5 C 1.82 g/m*3 9.5 C 0 km/h
Sensor: Nr:Datum:Temp:Abs-Feuchte:Windchill:Wind:
Aussen-T/F 801 03-03-2011 16:15:02 11.1 C 2.01 g/m*3 11.1 C 0 km/h
802 03-03-2011 16:27:02 12 C 2.13 g/m*3 12 C 0 km/h
803 03-03-2011 16:39:02 10.7 C 1.96 g/m*3 10.7 C 0 km/h
804 03-03-2011 16:51:01 10.5 C 1.94 g/m*3 10.5 C 0 km/h
805 03-03-2011 17:03:02 9.7 C 1.84 g/m*3 9.7 C 0 km/h
806 03-03-2011 17:15:01 9.4 C 1.81 g/m*3 9.4 C 0 km/h
807 03-03-2011 17:27:01 8.5 C 1.71 g/m*3 8.5 C 0 km/h
808 03-03-2011 17:39:01 7 C 1.55 g/m*3 7 C 0 km/h
809 03-03-2011 17:51:01 5.9 C 2.16 g/m*3 5.9 C 0 km/h
810 03-03-2011 18:03:01 4.6 C 2.25 g/m*3 4.6 C 0 km/h
811 03-03-2011 18:15:02 3.8 C 2.38 g/m*3 3.8 C 0 km/h
812 03-03-2011 18:27:02 3.3 C 2.43 g/m*3 3.3 C 0 km/h
813 03-03-2011 18:39:01 2.4 C 2.57 g/m*3 2.4 C 0 km/h
814 03-03-2011 18:51:03 1.8 C 2.63 g/m*3 1.8 C 0 km/h
815 03-03-2011 19:03:02 1.4 C 2.72 g/m*3 1.4 C 0 km/h
816 03-03-2011 19:15:02 1.2 C 2.74 g/m*3 1.2 C 0 km/h
817 03-03-2011 19:27:02 1.1 C 2.82 g/m*3 1.1 C 0 km/h
818 03-03-2011 19:39:02 0.9 C 2.89 g/m*3 0.9 C 0 km/h
819 03-03-2011 19:51:02 0.8 C 2.92 g/m*3 0.8 C 0 km/h
820 03-03-2011 20:03:01 1.1 C 2.87 g/m*3 1.1 C 0 km/h
821 03-03-2011 20:15:02 0.5 C 2.91 g/m*3 0.5 C 0 km/h
822 03-03-2011 20:27:02 0.5 C 2.96 g/m*3 0.5 C 0 km/h
823 03-03-2011 20:39:02 0.4 C 2.99 g/m*3 0.4 C 0 km/h
824 03-03-2011 20:51:02 0 C 2.96 g/m*3 0 C 0 km/h
825 03-03-2011 21:03:03 -0.1 C 3.03 g/m*3 -0.1 C 0 km/h
Sensor: Nr:Datum:Temp:Abs-Feuchte:Windchill:Wind:
Aussen-T/F 826 03-03-2011 21:15:02 -0.1 C 2.98 g/m*3 -0.1 C 0 km/h
827 03-03-2011 21:27:02 -0.3 C 3.04 g/m*3 -0.3 C 0 km/h
828 03-03-2011 21:39:02 -0.4 C 3.06 g/m*3 -0.4 C 0 km/h
829 03-03-2011 21:51:01 -0.5 C 3.09 g/m*3 -0.5 C 0 km/h
830 03-03-2011 22:03:02 -0.4 C 3.11 g/m*3 -0.4 C 0 km/h
831 03-03-2011 22:15:02 -0.4 C 3.06 g/m*3 -0.4 C 0 km/h
832 03-03-2011 22:27:02 -0.7 C 3.05 g/m*3 -0.7 C 0 km/h
833 03-03-2011 22:39:01 -0.9 C 3.05 g/m*3 -0.9 C 0 km/h
834 03-03-2011 22:52:03 -1 C 3.12 g/m*3 -1 C 0 km/h
835 03-03-2011 23:04:03 -1.2 C 3.08 g/m*3 -1.2 C 0 km/h
836 03-03-2011 23:16:03 -1.1 C 3.1 g/m*3 -1.1 C 0 km/h
837 03-03-2011 23:28:03 -1.3 C 3.05 g/m*3 -1.3 C 0 km/h
838 03-03-2011 23:40:03 -1.5 C 2.97 g/m*3 -1.5 C 0 km/h
839 03-03-2011 23:52:03 -1.4 C 3.03 g/m*3 -1.4 C 0 km/h
840 04-03-2011 00:04:03 -1.5 C 2.97 g/m*3 -1.5 C 0 km/h
841 04-03-2011 00:16:03 -1.5 C 2.97 g/m*3 -1.5 C 0 km/h
842 04-03-2011 00:28:03 -1.6 C 2.95 g/m*3 -1.6 C 0 km/h
843 04-03-2011 00:40:04 -1.8 C 2.95 g/m*3 -1.8 C 0 km/h
844 04-03-2011 00:52:04 -1.7 C 2.97 g/m*3 -1.7 C 0 km/h
845 04-03-2011 01:04:04 -1.9 C 2.97 g/m*3 -1.9 C 0 km/h
846 04-03-2011 01:16:04 -1.7 C 3.01 g/m*3 -1.7 C 0 km/h
847 04-03-2011 01:28:04 -1.9 C 2.97 g/m*3 -1.9 C 0 km/h
848 04-03-2011 01:40:04 -1.9 C 2.97 g/m*3 -1.9 C 0 km/h
849 04-03-2011 01:52:04 -2 C 2.95 g/m*3 -2 C 0 km/h
850 04-03-2011 02:04:04 -2.2 C 2.91 g/m*3 -2.2 C 0 km/h
Sensor: Nr:Datum:Temp:Abs-Feuchte:Windchill:Wind:
Aussen-T/F 851 04-03-2011 02:16:04 -2.1 C 2.93 g/m*3 -2.1 C 0 km/h
852 04-03-2011 02:28:04 -2.3 C 2.89 g/m*3 -2.3 C 0 km/h
853 04-03-2011 02:40:04 -2.4 C 2.87 g/m*3 -2.4 C 0 km/h
854 04-03-2011 02:52:04 -2.2 C 2.95 g/m*3 -2.2 C 0 km/h
855 04-03-2011 03:04:04 -2.5 C 2.85 g/m*3 -2.5 C 0 km/h
856 04-03-2011 03:16:04 -2.7 C 2.85 g/m*3 -2.7 C 0 km/h
857 04-03-2011 03:28:04 -3 C 2.83 g/m*3 -3 C 0 km/h
858 04-03-2011 03:40:04 -3.2 C 2.83 g/m*3 -3.2 C 0 km/h
859 04-03-2011 03:52:04 -2.5 C 3.01 g/m*3 -2.5 C 0 km/h
860 04-03-2011 04:04:04 -2.8 C 2.95 g/m*3 -2.8 C 0 km/h
861 04-03-2011 04:16:04 -3.1 C 2.85 g/m*3 -3.1 C 0 km/h
862 04-03-2011 04:28:04 -3.9 C 2.69 g/m*3 -3.9 C 0 km/h
863 04-03-2011 04:40:04 -3.9 C 2.76 g/m*3 -3.9 C 0 km/h
864 04-03-2011 04:52:05 -4 C 2.78 g/m*3 -4 C 0 km/h
865 04-03-2011 05:04:05 -4.3 C 2.72 g/m*3 -4.3 C 0 km/h
866 04-03-2011 05:16:05 -4.3 C 2.72 g/m*3 -4.3 C 0 km/h
867 04-03-2011 05:28:05 -4.6 C 2.7 g/m*3 -4.6 C 0 km/h
868 04-03-2011 05:40:05 -4.3 C 2.79 g/m*3 -4.3 C 0 km/h
869 04-03-2011 05:52:05 -4.3 C 2.83 g/m*3 -4.3 C 0 km/h
870 04-03-2011 06:04:05 -4.7 C 2.75 g/m*3 -4.7 C 0 km/h
871 04-03-2011 06:16:05 -4.4 C 2.81 g/m*3 -4.4 C 0 km/h
872 04-03-2011 06:28:05 -4.4 C 2.81 g/m*3 -4.4 C 0 km/h
873 04-03-2011 06:40:05 -4.7 C 2.75 g/m*3 -4.7 C 0 km/h
874 04-03-2011 06:52:05 -5 C 2.66 g/m*3 -5 C 0 km/h
875 04-03-2011 07:04:05 -4.9 C 2.68 g/m*3 -4.9 C 0 km/h
Sensor: Nr:Datum:Temp:Abs-Feuchte:Windchill:Wind:
Aussen-T/F 876 04-03-2011 07:16:03 -4.9 C 2.71 g/m*3 -4.9 C 0 km/h
877 04-03-2011 07:28:03 -4.7 C 2.75 g/m*3 -4.7 C 0 km/h
878 04-03-2011 07:40:02 -4.6 C 2.77 g/m*3 -4.6 C 0 km/h
879 04-03-2011 07:52:02 -4.4 C 2.81 g/m*3 -4.4 C 0 km/h
880 04-03-2011 08:04:01 -4.5 C 2.79 g/m*3 -4.5 C 0 km/h
881 04-03-2011 08:16:02 -4 C 2.89 g/m*3 -4 C 0 km/h
882 04-03-2011 08:28:02 -4 C 2.93 g/m*3 -4 C 0 km/h
883 04-03-2011 08:40:02 -3.8 C 2.97 g/m*3 -3.8 C 0 km/h
884 04-03-2011 08:52:02 -3.6 C 2.97 g/m*3 -3.6 C 0 km/h
885 04-03-2011 09:04:02 -3.5 C 2.99 g/m*3 -3.5 C 0 km/h
886 04-03-2011 09:16:02 -3.1 C 3.08 g/m*3 -3.1 C 0 km/h
887 04-03-2011 09:28:02 -2.7 C 3.17 g/m*3 -2.7 C 0 km/h
888 04-03-2011 09:40:02 -2.4 C 3.2 g/m*3 -2.4 C 0 km/h
889 04-03-2011 09:52:02 -2.2 C 3.24 g/m*3 -2.2 C 0 km/h
890 04-03-2011 10:04:02 -1.6 C 3.34 g/m*3 -1.6 C 0 km/h
891 04-03-2011 10:16:02 -0.7 C 3.46 g/m*3 -0.7 C 0 km/h
892 04-03-2011 10:28:02 -0.1 C 3.46 g/m*3 -0.1 C 0 km/h
893 04-03-2011 10:40:03 0.5 C 3.46 g/m*3 0.5 C 0 km/h
894 04-03-2011 10:52:02 1.4 C 3.52 g/m*3 1.4 C 0 km/h
895 04-03-2011 11:04:02 2.9 C 3.48 g/m*3 2.9 C 0 km/h
896 04-03-2011 11:16:02 3 C 3.21 g/m*3 3 C 0 km/h
897 04-03-2011 11:28:02 3.3 C 3.09 g/m*3 3.3 C 0 km/h
898 04-03-2011 11:40:02 4.6 C 3.04 g/m*3 4.6 C 0 km/h
899 04-03-2011 11:52:02 4.2 C 2.9 g/m*3 4.2 C 0 km/h
900 04-03-2011 12:04:01 4.6 C 3.04 g/m*3 4.6 C 0 km/h
Sensor: Nr:Datum:Temp:Abs-Feuchte:Windchill:Wind:
Aussen-T/F 901 04-03-2011 12:16:02 5.4 C 2.93 g/m*3 5.4 C 0 km/h
902 04-03-2011 12:28:02 7.3 C 3.08 g/m*3 7.3 C 0 km/h
903 04-03-2011 12:40:02 9.5 C 2.82 g/m*3 9.5 C 0 km/h
904 04-03-2011 12:52:01 10.5 C 2.91 g/m*3 10.5 C 0 km/h
905 04-03-2011 13:04:01 11.6 C 2.7 g/m*3 11.6 C 0 km/h
906 04-03-2011 13:16:01 12 C 2.66 g/m*3 12 C 0 km/h
907 04-03-2011 13:28:01 10.1 C 2.84 g/m*3 10.1 C 0 km/h
908 04-03-2011 13:40:02 9 C 2.73 g/m*3 9 C 0 km/h
909 04-03-2011 13:52:02 8.9 C 2.8 g/m*3 8.9 C 0 km/h
910 04-03-2011 14:04:02 8.6 C 2.84 g/m*3 8.6 C 0 km/h
911 04-03-2011 14:16:01 9.8 C 2.97 g/m*3 9.8 C 0 km/h
912 04-03-2011 14:28:01 9.8 C 2.97 g/m*3 9.8 C 0 km/h
913 04-03-2011 14:40:02 10.1 C 3.03 g/m*3 10.1 C 0 km/h
914 04-03-2011 14:52:02 10 C 2.91 g/m*3 10 C 0 km/h
915 04-03-2011 15:04:02 10.9 C 2.98 g/m*3 10.9 C 0 km/h
916 04-03-2011 15:16:02 10.7 C 3.04 g/m*3 10.7 C 0 km/h
917 04-03-2011 15:28:02 10.8 C 2.97 g/m*3 10.8 C 0 km/h
918 04-03-2011 15:40:02 13.2 C 2.99 g/m*3 13.2 C 0 km/h
919 04-03-2011 15:52:02 14.2 C 3.05 g/m*3 14.2 C 0 km/h
920 04-03-2011 16:04:01 15.1 C 2.58 g/m*3 15.1 C 0 km/h
921 04-03-2011 16:16:01 16.9 C 2.88 g/m*3 16.9 C 0 km/h
922 04-03-2011 16:28:01 16.6 C 2.83 g/m*3 16.6 C 0 km/h
923 04-03-2011 16:40:02 15.2 C 2.86 g/m*3 15.2 C 0 km/h
924 04-03-2011 16:52:02 14.9 C 3.19 g/m*3 14.9 C 0 km/h
925 04-03-2011 17:04:02 13.5 C 2.92 g/m*3 13.5 C 0 km/h
Sensor: Nr:Datum:Temp:Abs-Feuchte:Windchill:Wind:
Aussen-T/F 926 04-03-2011 17:16:02 13.2 C 3.1 g/m*3 13.2 C 0 km/h
927 04-03-2011 17:28:02 11.1 C 3.42 g/m*3 11.1 C 0 km/h
928 04-03-2011 17:40:02 8.9 C 3.5 g/m*3 8.9 C 0 km/h
929 04-03-2011 17:52:02 7.9 C 3.61 g/m*3 7.9 C 0 km/h
930 04-03-2011 18:04:02 6.4 C 3.58 g/m*3 6.4 C 0 km/h
931 04-03-2011 18:16:02 5.5 C 3.65 g/m*3 5.5 C 0 km/h
932 04-03-2011 18:28:02 5.1 C 3.69 g/m*3 5.1 C 0 km/h
933 04-03-2011 18:40:02 4.7 C 3.73 g/m*3 4.7 C 0 km/h
934 04-03-2011 18:52:01 5.2 C 3.65 g/m*3 5.2 C 0 km/h
935 04-03-2011 19:04:02 5 C 3.53 g/m*3 5 C 0 km/h
936 04-03-2011 19:16:01 5 C 3.4 g/m*3 5 C 0 km/h
937 04-03-2011 19:28:01 4.3 C 3.37 g/m*3 4.3 C 0 km/h
938 04-03-2011 19:40:01 4.4 C 3.79 g/m*3 4.4 C 0 km/h
939 04-03-2011 19:52:01 3.6 C 3.71 g/m*3 3.6 C 0 km/h
940 04-03-2011 20:04:01 3.2 C 3.8 g/m*3 3.2 C 0 km/h
941 04-03-2011 20:16:02 2.8 C 3.81 g/m*3 2.8 C 0 km/h
942 04-03-2011 20:28:02 2.6 C 3.82 g/m*3 2.6 C 0 km/h
943 04-03-2011 20:40:01 2.7 C 3.9 g/m*3 2.7 C 0 km/h
944 04-03-2011 20:52:03 2.3 C 3.8 g/m*3 2.3 C 0 km/h
945 04-03-2011 21:04:02 2.1 C 3.86 g/m*3 2.1 C 0 km/h
946 04-03-2011 21:16:02 1.6 C 3.84 g/m*3 1.6 C 0 km/h
947 04-03-2011 21:28:02 1.9 C 3.92 g/m*3 1.9 C 0 km/h
948 04-03-2011 21:41:03 1.8 C 3.84 g/m*3 1.8 C 0 km/h
949 04-03-2011 21:53:03 1.7 C 3.92 g/m*3 1.7 C 0 km/h
950 04-03-2011 22:05:03 1.7 C 3.92 g/m*3 1.7 C 0 km/h
Sensor: Nr:Datum:Temp:Abs-Feuchte:Windchill:Wind:
Aussen-T/F 951 04-03-2011 22:17:03 1.4 C 3.84 g/m*3 1.4 C 0 km/h
952 04-03-2011 22:29:03 0.9 C 3.87 g/m*3 0.9 C 0 km/h
953 04-03-2011 22:41:03 0.7 C 3.86 g/m*3 0.7 C 0 km/h
954 04-03-2011 22:53:03 0.4 C 3.88 g/m*3 0.4 C 0 km/h
955 04-03-2011 23:05:03 -0.3 C 3.7 g/m*3 -0.3 C 0 km/h
956 04-03-2011 23:17:03 0 C 3.88 g/m*3 0 C 0 km/h
957 04-03-2011 23:29:03 0.6 C 4.04 g/m*3 0.6 C 0 km/h
958 04-03-2011 23:41:03 0 C 3.83 g/m*3 0 C 0 km/h
959 04-03-2011 23:53:03 -0.6 C 3.76 g/m*3 -0.6 C 0 km/h
960 05-03-2011 00:05:03 -0.5 C 3.84 g/m*3 -0.5 C 0 km/h
961 05-03-2011 00:17:03 -0.4 C 3.91 g/m*3 -0.4 C 0 km/h
962 05-03-2011 00:29:04 -1.5 C 3.62 g/m*3 -1.5 C 0 km/h
963 05-03-2011 00:41:04 -1.3 C 3.67 g/m*3 -1.3 C 0 km/h
964 05-03-2011 00:53:04 -1.5 C 3.67 g/m*3 -1.5 C 0 km/h
965 05-03-2011 01:05:04 -0.7 C 3.92 g/m*3 -0.7 C 0 km/h
966 05-03-2011 01:17:04 -1.7 C 3.66 g/m*3 -1.7 C 0 km/h
967 05-03-2011 01:29:04 -2.3 C 3.51 g/m*3 -2.3 C 0 km/h
968 05-03-2011 01:41:04 -2.3 C 3.51 g/m*3 -2.3 C 0 km/h
969 05-03-2011 01:53:04 -2.4 C 3.48 g/m*3 -2.4 C 0 km/h
970 05-03-2011 02:05:04 -2.8 C 3.39 g/m*3 -2.8 C 0 km/h
971 05-03-2011 02:17:04 -2.9 C 3.36 g/m*3 -2.9 C 0 km/h
972 05-03-2011 02:29:04 -3.1 C 3.32 g/m*3 -3.1 C 0 km/h
973 05-03-2011 02:41:04 -3.2 C 3.29 g/m*3 -3.2 C 0 km/h
974 05-03-2011 02:53:04 -3.2 C 3.29 g/m*3 -3.2 C 0 km/h
975 05-03-2011 03:05:04 -3.5 C 3.22 g/m*3 -3.5 C 0 km/h
Sensor: Nr:Datum:Temp:Abs-Feuchte:Windchill:Wind:
Aussen-T/F 976 05-03-2011 03:17:04 -3.5 C 3.22 g/m*3 -3.5 C 0 km/h
977 05-03-2011 03:29:04 -3.7 C 3.18 g/m*3 -3.7 C 0 km/h
978 05-03-2011 03:41:04 -3.7 C 3.21 g/m*3 -3.7 C 0 km/h
979 05-03-2011 03:53:04 -3.5 C 3.26 g/m*3 -3.5 C 0 km/h
980 05-03-2011 04:05:04 -3.6 C 3.24 g/m*3 -3.6 C 0 km/h
981 05-03-2011 04:17:04 -3.9 C 3.17 g/m*3 -3.9 C 0 km/h
982 05-03-2011 04:29:04 -3.8 C 3.19 g/m*3 -3.8 C 0 km/h
983 05-03-2011 04:41:05 -3.7 C 3.25 g/m*3 -3.7 C 0 km/h
984 05-03-2011 04:53:05 -3.7 C 3.25 g/m*3 -3.7 C 0 km/h
985 05-03-2011 05:05:05 -3.7 C 3.25 g/m*3 -3.7 C 0 km/h
986 05-03-2011 05:17:05 -3.8 C 3.23 g/m*3 -3.8 C 0 km/h
987 05-03-2011 05:29:05 -4.1 C 3.16 g/m*3 -4.1 C 0 km/h
988 05-03-2011 05:41:05 -3.6 C 3.27 g/m*3 -3.6 C 0 km/h
989 05-03-2011 05:53:05 -4 C 3.18 g/m*3 -4 C 0 km/h
990 05-03-2011 06:05:05 -3.7 C 3.25 g/m*3 -3.7 C 0 km/h
991 05-03-2011 06:17:05 -2.8 C 3.47 g/m*3 -2.8 C 0 km/h
992 05-03-2011 06:29:05 -2.6 C 3.52 g/m*3 -2.6 C 0 km/h
993 05-03-2011 06:41:05 -2.5 C 3.54 g/m*3 -2.5 C 0 km/h
994 05-03-2011 06:53:05 -2.3 C 3.63 g/m*3 -2.3 C 0 km/h
995 05-03-2011 07:05:03 -2.4 C 3.61 g/m*3 -2.4 C 0 km/h
996 05-03-2011 07:17:02 -2.2 C 3.66 g/m*3 -2.2 C 0 km/h
997 05-03-2011 07:29:02 -2.7 C 3.49 g/m*3 -2.7 C 0 km/h
998 05-03-2011 07:41:02 -2.8 C 3.47 g/m*3 -2.8 C 0 km/h
999 05-03-2011 07:53:01 -1.9 C 3.74 g/m*3 -1.9 C 0 km/h
1000 05-03-2011 08:05:02 -1.9 C 3.74 g/m*3 -1.9 C 0 km/h
Sensor: Nr:Datum:Temp:Abs-Feuchte:Windchill:Wind:
Aussen-T/F 1001 05-03-2011 08:17:02 -1.8 C 3.76 g/m*3 -1.8 C 0 km/h
1002 05-03-2011 08:29:02 -1.4 C 3.82 g/m*3 -1.4 C 0 km/h
1003 05-03-2011 08:41:02 -1.4 C 3.82 g/m*3 -1.4 C 0 km/h
1004 05-03-2011 08:53:02 -1.3 C 3.81 g/m*3 -1.3 C 0 km/h
1005 05-03-2011 09:05:02 -1.1 C 3.86 g/m*3 -1.1 C 0 km/h
1006 05-03-2011 09:17:02 -0.9 C 3.87 g/m*3 -0.9 C 0 km/h
1007 05-03-2011 09:29:02 -0.7 C 3.88 g/m*3 -0.7 C 0 km/h
1008 05-03-2011 09:41:02 -0.2 C 3.97 g/m*3 -0.2 C 0 km/h
1009 05-03-2011 09:53:02 0.2 C 4.03 g/m*3 0.2 C 0 km/h
1010 05-03-2011 10:05:02 0.6 C 4.09 g/m*3 0.6 C 0 km/h
1011 05-03-2011 10:17:02 1 C 4.05 g/m*3 1 C 0 km/h
1012 05-03-2011 10:29:02 1.6 C 4.11 g/m*3 1.6 C 0 km/h
1013 05-03-2011 10:41:02 2.2 C 4.11 g/m*3 2.2 C 0 km/h
1014 05-03-2011 10:53:01 2.4 C 4.05 g/m*3 2.4 C 0 km/h
1015 05-03-2011 11:05:02 2.4 C 3.94 g/m*3 2.4 C 0 km/h
1016 05-03-2011 11:17:01 2.9 C 4.02 g/m*3 2.9 C 0 km/h
1017 05-03-2011 11:29:01 2.8 C 3.7 g/m*3 2.8 C 0 km/h
1018 05-03-2011 11:41:01 3 C 3.69 g/m*3 3 C 0 km/h
1019 05-03-2011 11:53:01 3 C 3.63 g/m*3 3 C 0 km/h
1020 05-03-2011 12:05:02 3.3 C 3.76 g/m*3 3.3 C 0 km/h
1021 05-03-2011 12:17:02 3.3 C 3.7 g/m*3 3.3 C 0 km/h
1022 05-03-2011 12:29:02 4.6 C 3.84 g/m*3 4.6 C 0 km/h
1023 05-03-2011 12:41:01 4.9 C 3.65 g/m*3 4.9 C 0 km/h
1024 05-03-2011 12:53:02 6.3 C 3.55 g/m*3 6.3 C 0 km/h
1025 05-03-2011 13:05:01 6.8 C 3.59 g/m*3 6.8 C 0 km/h
Sensor: Nr:Datum:Temp:Abs-Feuchte:Windchill:Wind:
Aussen-T/F 1026 05-03-2011 13:17:02 6.3 C 3.48 g/m*3 6.3 C 0 km/h
1027 05-03-2011 13:29:02 5.6 C 3.39 g/m*3 5.6 C 0 km/h
1028 05-03-2011 13:41:01 5 C 3.4 g/m*3 5 C 0 km/h
1029 05-03-2011 13:53:02 4.7 C 3.33 g/m*3 4.7 C 0 km/h
1030 05-03-2011 14:05:02 3.3 C 3.22 g/m*3 3.3 C 0 km/h
1031 05-03-2011 14:17:02 4 C 3.37 g/m*3 4 C 0 km/h
1032 05-03-2011 14:29:02 4.1 C 3.33 g/m*3 4.1 C 0 km/h
1033 05-03-2011 14:41:02 4.1 C 3.39 g/m*3 4.1 C 0 km/h
1034 05-03-2011 14:53:02 4.5 C 3.42 g/m*3 4.5 C 0 km/h
1035 05-03-2011 15:05:03 4.2 C 3.35 g/m*3 4.2 C 0 km/h
1036 05-03-2011 15:17:02 3.7 C 3.3 g/m*3 3.7 C 0 km/h
1037 05-03-2011 15:29:02 3.4 C 3.36 g/m*3 3.4 C 0 km/h
1038 05-03-2011 15:41:02 3.8 C 3.39 g/m*3 3.8 C 0 km/h
1039 05-03-2011 15:53:01 4.8 C 3.42 g/m*3 4.8 C 0 km/h
1040 05-03-2011 16:05:02 4.2 C 3.35 g/m*3 4.2 C 0 km/h
1041 05-03-2011 16:17:01 4.1 C 3.33 g/m*3 4.1 C 0 km/h
1042 05-03-2011 16:29:01 3.3 C 3.34 g/m*3 3.3 C 0 km/h
1043 05-03-2011 16:41:02 2.6 C 3.41 g/m*3 2.6 C 0 km/h
1044 05-03-2011 16:53:01 2.7 C 3.5 g/m*3 2.7 C 0 km/h
1045 05-03-2011 17:05:02 3.2 C 3.56 g/m*3 3.2 C 0 km/h
1046 05-03-2011 17:17:01 3.3 C 3.46 g/m*3 3.3 C 0 km/h
1047 05-03-2011 17:29:01 2.6 C 3.53 g/m*3 2.6 C 0 km/h
1048 05-03-2011 17:41:02 2.2 C 3.6 g/m*3 2.2 C 0 km/h
1049 05-03-2011 17:53:01 1.8 C 3.67 g/m*3 1.8 C 0 km/h
1050 05-03-2011 18:05:02 1.5 C 3.76 g/m*3 1.5 C 0 km/h
Sensor: Nr:Datum:Temp:Abs-Feuchte:Windchill:Wind:
Aussen-T/F 1051 05-03-2011 18:17:02 1.5 C 3.81 g/m*3 1.5 C 0 km/h
1052 05-03-2011 18:29:02 1.4 C 3.84 g/m*3 1.4 C 0 km/h
1053 05-03-2011 18:41:01 1.3 C 3.87 g/m*3 1.3 C 0 km/h
1054 05-03-2011 18:53:01 1.1 C 3.87 g/m*3 1.1 C 0 km/h
1055 05-03-2011 19:05:02 0.8 C 3.94 g/m*3 0.8 C 0 km/h
1056 05-03-2011 19:17:02 0.6 C 3.94 g/m*3 0.6 C 0 km/h
1057 05-03-2011 19:29:02 1.1 C 4.13 g/m*3 1.1 C 0 km/h
1058 05-03-2011 19:41:01 1.5 C 4.19 g/m*3 1.5 C 0 km/h
1059 05-03-2011 19:53:02 1.7 C 4.14 g/m*3 1.7 C 0 km/h
1060 05-03-2011 20:05:01 1.9 C 4.19 g/m*3 1.9 C 0 km/h
1061 05-03-2011 20:17:02 1.9 C 4.19 g/m*3 1.9 C 0 km/h
1062 05-03-2011 20:29:03 1.5 C 4.14 g/m*3 1.5 C 0 km/h
1063 05-03-2011 20:41:01 1.4 C 4.16 g/m*3 1.4 C 0 km/h
1064 05-03-2011 20:53:02 0.7 C 4.02 g/m*3 0.7 C 0 km/h
1065 05-03-2011 21:05:02 0.1 C 3.9 g/m*3 0.1 C 0 km/h
1066 05-03-2011 21:17:02 -0.6 C 3.72 g/m*3 -0.6 C 0 km/h
1067 05-03-2011 21:29:02 -0.2 C 3.92 g/m*3 -0.2 C 0 km/h
1068 05-03-2011 21:41:03 -0.6 C 3.81 g/m*3 -0.6 C 0 km/h
1069 05-03-2011 21:54:03 -1.2 C 3.66 g/m*3 -1.2 C 0 km/h
1070 05-03-2011 22:06:03 -0.9 C 3.78 g/m*3 -0.9 C 0 km/h
1071 05-03-2011 22:18:03 -1.2 C 3.74 g/m*3 -1.2 C 0 km/h
1072 05-03-2011 22:30:03 -0.9 C 3.82 g/m*3 -0.9 C 0 km/h
1073 05-03-2011 22:42:03 -1.4 C 3.69 g/m*3 -1.4 C 0 km/h
1074 05-03-2011 22:54:03 -1.7 C 3.62 g/m*3 -1.7 C 0 km/h
1075 05-03-2011 23:06:04 -1.6 C 3.64 g/m*3 -1.6 C 0 km/h
Sensor: Nr:Datum:Temp:Abs-Feuchte:Windchill:Wind:
Aussen-T/F 1076 05-03-2011 23:18:04 -2 C 3.54 g/m*3 -2 C 0 km/h
1077 05-03-2011 23:30:04 -1.4 C 3.74 g/m*3 -1.4 C 0 km/h
1078 05-03-2011 23:42:04 -1.8 C 3.63 g/m*3 -1.8 C 0 km/h
1079 05-03-2011 23:54:04 -1.3 C 3.81 g/m*3 -1.3 C 0 km/h
1080 06-03-2011 00:06:04 -1.6 C 3.73 g/m*3 -1.6 C 0 km/h
1081 06-03-2011 00:18:04 -1.8 C 3.68 g/m*3 -1.8 C 0 km/h
1082 06-03-2011 00:30:04 -1.4 C 3.82 g/m*3 -1.4 C 0 km/h
1083 06-03-2011 00:42:04 -1.4 C 3.82 g/m*3 -1.4 C 0 km/h
1084 06-03-2011 00:54:04 -1.9 C 3.65 g/m*3 -1.9 C 0 km/h
1085 06-03-2011 01:06:04 -2.4 C 3.52 g/m*3 -2.4 C 0 km/h
1086 06-03-2011 01:18:04 -2.2 C 3.62 g/m*3 -2.2 C 0 km/h
1087 06-03-2011 01:30:04 -2.4 C 3.57 g/m*3 -2.4 C 0 km/h
1088 06-03-2011 01:42:04 -1.5 C 3.84 g/m*3 -1.5 C 0 km/h
1089 06-03-2011 01:54:04 -1.2 C 3.92 g/m*3 -1.2 C 0 km/h
1090 06-03-2011 02:06:04 -0.9 C 4.05 g/m*3 -0.9 C 0 km/h
1091 06-03-2011 02:18:04 -0.4 C 4.19 g/m*3 -0.4 C 0 km/h
1092 06-03-2011 02:30:04 -0.5 C 4.17 g/m*3 -0.5 C 0 km/h
1093 06-03-2011 02:42:04 -0.3 C 4.18 g/m*3 -0.3 C 0 km/h
1094 06-03-2011 02:54:04 -0.3 C 4.18 g/m*3 -0.3 C 0 km/h
1095 06-03-2011 03:06:04 -0.1 C 4.23 g/m*3 -0.1 C 0 km/h
1096 06-03-2011 03:18:05 0 C 4.26 g/m*3 0 C 0 km/h
1097 06-03-2011 03:30:05 0 C 4.22 g/m*3 0 C 0 km/h
1098 06-03-2011 03:42:05 0 C 4.22 g/m*3 0 C 0 km/h
1099 06-03-2011 03:54:05 0 C 4.22 g/m*3 0 C 0 km/h
1100 06-03-2011 04:06:05 0.1 C 4.2 g/m*3 0.1 C 0 km/h
Sensor: Nr:Datum:Temp:Abs-Feuchte:Windchill:Wind:
Aussen-T/F 1101 06-03-2011 04:18:05 0.1 C 4.15 g/m*3 0.1 C 0 km/h
1102 06-03-2011 04:30:05 0.1 C 4.05 g/m*3 0.1 C 0 km/h
1103 06-03-2011 04:42:05 -0.3 C 3.8 g/m*3 -0.3 C 0 km/h
1104 06-03-2011 04:54:05 -0.4 C 3.68 g/m*3 -0.4 C 0 km/h
1105 06-03-2011 05:06:05 -0.1 C 3.61 g/m*3 -0.1 C 0 km/h
1106 06-03-2011 05:18:05 -1.6 C 3.21 g/m*3 -1.6 C 0 km/h
1107 06-03-2011 05:30:05 -1.7 C 3.27 g/m*3 -1.7 C 0 km/h
1108 06-03-2011 05:42:05 -2.1 C 3.22 g/m*3 -2.1 C 0 km/h
1109 06-03-2011 05:54:05 -2.1 C 3.26 g/m*3 -2.1 C 0 km/h
1110 06-03-2011 06:06:05 -2.8 C 3.15 g/m*3 -2.8 C 0 km/h
1111 06-03-2011 06:18:05 -3 C 3.14 g/m*3 -3 C 0 km/h
1112 06-03-2011 06:30:05 -2.8 C 3.23 g/m*3 -2.8 C 0 km/h
1113 06-03-2011 06:42:05 -3 C 3.22 g/m*3 -3 C 0 km/h
1114 06-03-2011 06:54:05 -2.5 C 3.38 g/m*3 -2.5 C 0 km/h
1115 06-03-2011 07:06:05 -1.9 C 3.52 g/m*3 -1.9 C 0 km/h
1116 06-03-2011 07:18:05 -1.6 C 3.51 g/m*3 -1.6 C 0 km/h
1117 06-03-2011 07:30:06 -1.6 C 3.42 g/m*3 -1.6 C 0 km/h
1118 06-03-2011 07:42:06 -2.3 C 3.22 g/m*3 -2.3 C 0 km/h
1119 06-03-2011 07:54:06 -2.3 C 3.22 g/m*3 -2.3 C 0 km/h
1120 06-03-2011 08:06:04 -1.5 C 3.45 g/m*3 -1.5 C 0 km/h
1121 06-03-2011 08:18:03 -0.9 C 3.51 g/m*3 -0.9 C 0 km/h
1122 06-03-2011 08:30:03 -0.2 C 3.54 g/m*3 -0.2 C 0 km/h
1123 06-03-2011 08:42:04 0.2 C 3.49 g/m*3 0.2 C 0 km/h
1124 06-03-2011 08:54:02 0.7 C 3.41 g/m*3 0.7 C 0 km/h
1125 06-03-2011 09:06:02 1.1 C 3.29 g/m*3 1.1 C 0 km/h
Sensor: Nr:Datum:Temp:Abs-Feuchte:Windchill:Wind:
Aussen-T/F 1126 06-03-2011 09:18:02 1.1 C 3.19 g/m*3 1.1 C 0 km/h
1127 06-03-2011 09:30:02 0.8 C 3.12 g/m*3 0.8 C 0 km/h
1128 06-03-2011 09:42:02 1.4 C 3.15 g/m*3 1.4 C 0 km/h
1129 06-03-2011 09:54:01 1.8 C 2.91 g/m*3 1.8 C 0 km/h
1130 06-03-2011 10:06:02 2.1 C 2.85 g/m*3 2.1 C 0 km/h
1131 06-03-2011 10:18:01 2.6 C 2.84 g/m*3 2.6 C 0 km/h
1132 06-03-2011 10:30:01 2 C 2.72 g/m*3 2 C 0 km/h
1133 06-03-2011 10:42:01 1.7 C 2.89 g/m*3 1.7 C 0 km/h
1134 06-03-2011 10:54:01 2.3 C 2.78 g/m*3 2.3 C 0 km/h
1135 06-03-2011 11:06:02 2.7 C 2.74 g/m*3 2.7 C 0 km/h
1136 06-03-2011 11:18:01 3.1 C 2.69 g/m*3 3.1 C 0 km/h
1137 06-03-2011 11:30:01 4.3 C 2.72 g/m*3 4.3 C 0 km/h
1138 06-03-2011 11:42:01 4.6 C 2.71 g/m*3 4.6 C 0 km/h
1139 06-03-2011 11:54:01 4.1 C 2.56 g/m*3 4.1 C 0 km/h
1140 06-03-2011 12:06:01 4.6 C 2.65 g/m*3 4.6 C 0 km/h
1141 06-03-2011 12:18:02 3.8 C 2.57 g/m*3 3.8 C 0 km/h
1142 06-03-2011 12:30:02 5 C 2.72 g/m*3 5 C 0 km/h
1143 06-03-2011 12:42:01 7.2 C 2.59 g/m*3 7.2 C 0 km/h
1144 06-03-2011 12:54:02 5.7 C 2.42 g/m*3 5.7 C 0 km/h
1145 06-03-2011 13:06:01 7.8 C 2.45 g/m*3 7.8 C 0 km/h
1146 06-03-2011 13:18:01 5.6 C 2.26 g/m*3 5.6 C 0 km/h
1147 06-03-2011 13:30:01 5.5 C 2.46 g/m*3 5.5 C 0 km/h
1148 06-03-2011 13:42:01 4.9 C 2.5 g/m*3 4.9 C 0 km/h
1149 06-03-2011 13:54:02 5.8 C 2.44 g/m*3 5.8 C 0 km/h
1150 06-03-2011 14:06:02 5.8 C 2.36 g/m*3 5.8 C 0 km/h
Sensor: Nr:Datum:Temp:Abs-Feuchte:Windchill:Wind:
Aussen-T/F 1151 06-03-2011 14:18:02 6.9 C 2.39 g/m*3 6.9 C 0 km/h
1152 06-03-2011 14:30:02 6.5 C 2.25 g/m*3 6.5 C 0 km/h
1153 06-03-2011 14:42:01 7 C 2.17 g/m*3 7 C 0 km/h
1154 06-03-2011 14:54:02 7.1 C 2.34 g/m*3 7.1 C 0 km/h
1155 06-03-2011 15:06:01 8 C 2.31 g/m*3 8 C 0 km/h
1156 06-03-2011 15:18:01 8 C 2.31 g/m*3 8 C 0 km/h
1157 06-03-2011 15:30:01 9.2 C 2.23 g/m*3 9.2 C 0 km/h
1158 06-03-2011 15:42:02 8.9 C 1.84 g/m*3 8.9 C 0 km/h
1159 06-03-2011 15:54:02 11.4 C 2.05 g/m*3 11.4 C 0 km/h
1160 06-03-2011 16:06:02 12.6 C 2.21 g/m*3 12.6 C 0 km/h
1161 06-03-2011 16:18:02 12.6 C 2.21 g/m*3 12.6 C 0 km/h
1162 06-03-2011 16:30:02 13.2 C 2.3 g/m*3 13.2 C 0 km/h
1163 06-03-2011 16:42:02 12.3 C 2.17 g/m*3 12.3 C 0 km/h
1164 06-03-2011 16:54:02 12.6 C 2.21 g/m*3 12.6 C 0 km/h
1165 06-03-2011 17:06:02 11.1 C 2.01 g/m*3 11.1 C 0 km/h
1166 06-03-2011 17:18:02 10.5 C 1.94 g/m*3 10.5 C 0 km/h
1167 06-03-2011 17:30:02 8.6 C 2.15 g/m*3 8.6 C 0 km/h
1168 06-03-2011 17:42:02 7.9 C 2.71 g/m*3 7.9 C 0 km/h
1169 06-03-2011 17:54:01 6.2 C 2.72 g/m*3 6.2 C 0 km/h
1170 06-03-2011 18:06:01 4.3 C 2.72 g/m*3 4.3 C 0 km/h
1171 06-03-2011 18:18:02 2.5 C 2.87 g/m*3 2.5 C 0 km/h
1172 06-03-2011 18:30:02 1.5 C 2.95 g/m*3 1.5 C 0 km/h
1173 06-03-2011 18:42:01 1.2 C 2.95 g/m*3 1.2 C 0 km/h
1174 06-03-2011 18:54:02 0.6 C 2.98 g/m*3 0.6 C 0 km/h
1175 06-03-2011 19:06:02 0.4 C 2.99 g/m*3 0.4 C 0 km/h
Sensor: Nr:Datum:Temp:Abs-Feuchte:Windchill:Wind:
Aussen-T/F 1176 06-03-2011 19:18:03 0.2 C 3.05 g/m*3 0.2 C 0 km/h
1177 06-03-2011 19:30:03 0 C 3.05 g/m*3 0 C 0 km/h
1178 06-03-2011 19:42:02 -0.2 C 3.01 g/m*3 -0.2 C 0 km/h
1179 06-03-2011 19:54:02 -0.2 C 3.01 g/m*3 -0.2 C 0 km/h
1180 06-03-2011 20:06:02 -0.2 C 3.01 g/m*3 -0.2 C 0 km/h
1181 06-03-2011 20:18:02 -0.5 C 3.04 g/m*3 -0.5 C 0 km/h
1182 06-03-2011 20:30:03 -0.5 C 3.04 g/m*3 -0.5 C 0 km/h
1183 06-03-2011 20:42:02 -0.5 C 3.04 g/m*3 -0.5 C 0 km/h
1184 06-03-2011 20:54:02 -0.9 C 2.96 g/m*3 -0.9 C 0 km/h
1185 06-03-2011 21:06:01 -0.9 C 3 g/m*3 -0.9 C 0 km/h
1186 06-03-2011 21:18:02 -1 C 2.94 g/m*3 -1 C 0 km/h
1187 06-03-2011 21:30:02 -1.1 C 2.96 g/m*3 -1.1 C 0 km/h
1188 06-03-2011 21:42:02 -1.3 C 2.92 g/m*3 -1.3 C 0 km/h
1189 06-03-2011 21:55:03 -1.2 C 2.94 g/m*3 -1.2 C 0 km/h
1190 06-03-2011 22:07:03 -1.3 C 2.88 g/m*3 -1.3 C 0 km/h
1191 06-03-2011 22:19:03 -1.6 C 2.86 g/m*3 -1.6 C 0 km/h
1192 06-03-2011 22:31:03 -1.6 C 2.9 g/m*3 -1.6 C 0 km/h
1193 06-03-2011 22:43:03 -1.8 C 2.86 g/m*3 -1.8 C 0 km/h
1194 06-03-2011 22:55:03 -1.7 C 2.88 g/m*3 -1.7 C 0 km/h
1195 06-03-2011 23:07:03 -2.1 C 2.8 g/m*3 -2.1 C 0 km/h
1196 06-03-2011 23:19:03 -2 C 2.78 g/m*3 -2 C 0 km/h
1197 06-03-2011 23:31:03 -2.1 C 2.76 g/m*3 -2.1 C 0 km/h
1198 06-03-2011 23:43:03 -2.2 C 2.7 g/m*3 -2.2 C 0 km/h
1199 06-03-2011 23:55:03 -2.1 C 2.72 g/m*3 -2.1 C 0 km/h
1200 07-03-2011 00:07:03 -2.2 C 2.74 g/m*3 -2.2 C 0 km/h
Sensor: Nr:Datum:Temp:Abs-Feuchte:Windchill:Wind:
Aussen-T/F 1201 07-03-2011 00:19:03 -2.3 C 2.72 g/m*3 -2.3 C 0 km/h
1202 07-03-2011 00:31:03 -2.3 C 2.72 g/m*3 -2.3 C 0 km/h
1203 07-03-2011 00:43:03 -2.5 C 2.69 g/m*3 -2.5 C 0 km/h
1204 07-03-2011 00:55:03 -2.8 C 2.63 g/m*3 -2.8 C 0 km/h
1205 07-03-2011 01:07:03 -2.9 C 2.69 g/m*3 -2.9 C 0 km/h
1206 07-03-2011 01:19:03 -2.7 C 2.77 g/m*3 -2.7 C 0 km/h
1207 07-03-2011 01:31:03 -3.1 C 2.65 g/m*3 -3.1 C 0 km/h
1208 07-03-2011 01:43:03 -3.3 C 2.65 g/m*3 -3.3 C 0 km/h
1209 07-03-2011 01:55:03 -3.1 C 2.69 g/m*3 -3.1 C 0 km/h
1210 07-03-2011 02:07:04 -3.4 C 2.63 g/m*3 -3.4 C 0 km/h
1211 07-03-2011 02:19:04 -3.6 C 2.6 g/m*3 -3.6 C 0 km/h
1212 07-03-2011 02:31:04 -3.6 C 2.63 g/m*3 -3.6 C 0 km/h
1213 07-03-2011 02:43:04 -3.7 C 2.62 g/m*3 -3.7 C 0 km/h
1214 07-03-2011 02:55:04 -3.8 C 2.6 g/m*3 -3.8 C 0 km/h
1215 07-03-2011 03:07:04 -4.1 C 2.58 g/m*3 -4.1 C 0 km/h
1216 07-03-2011 03:19:04 -4.1 C 2.58 g/m*3 -4.1 C 0 km/h
1217 07-03-2011 03:31:04 -4.1 C 2.58 g/m*3 -4.1 C 0 km/h
1218 07-03-2011 03:43:04 -4.3 C 2.54 g/m*3 -4.3 C 0 km/h
1219 07-03-2011 03:55:04 -4.3 C 2.54 g/m*3 -4.3 C 0 km/h
1220 07-03-2011 04:07:04 -4.4 C 2.52 g/m*3 -4.4 C 0 km/h
1221 07-03-2011 04:19:04 -4.4 C 2.56 g/m*3 -4.4 C 0 km/h
1222 07-03-2011 04:31:04 -4.6 C 2.52 g/m*3 -4.6 C 0 km/h
1223 07-03-2011 04:43:04 -4.8 C 2.49 g/m*3 -4.8 C 0 km/h
1224 07-03-2011 04:55:04 -5 C 2.45 g/m*3 -5 C 0 km/h
1225 07-03-2011 05:07:04 -4.8 C 2.49 g/m*3 -4.8 C 0 km/h
Sensor: Nr:Datum:Temp:Abs-Feuchte:Windchill:Wind:
Aussen-T/F 1226 07-03-2011 05:19:04 -4.5 C 2.54 g/m*3 -4.5 C 0 km/h
1227 07-03-2011 05:31:04 -4.6 C 2.52 g/m*3 -4.6 C 0 km/h
1228 07-03-2011 05:43:04 -4.7 C 2.47 g/m*3 -4.7 C 0 km/h
1229 07-03-2011 05:55:04 -4.6 C 2.49 g/m*3 -4.6 C 0 km/h
1230 07-03-2011 06:07:05 -4.6 C 2.45 g/m*3 -4.6 C 0 km/h
1231 07-03-2011 06:19:05 -4.6 C 2.49 g/m*3 -4.6 C 0 km/h
1232 07-03-2011 06:31:05 -4.7 C 2.44 g/m*3 -4.7 C 0 km/h
1233 07-03-2011 06:43:05 -4.5 C 2.44 g/m*3 -4.5 C 0 km/h
1234 07-03-2011 06:55:05 -4.6 C 2.38 g/m*3 -4.6 C 0 km/h
1235 07-03-2011 07:07:05 -4.7 C 2.4 g/m*3 -4.7 C 0 km/h
1236 07-03-2011 07:19:05 -4.6 C 2.38 g/m*3 -4.6 C 0 km/h
1237 07-03-2011 07:31:05 -4.7 C 2.37 g/m*3 -4.7 C 0 km/h
1238 07-03-2011 07:43:05 -4.7 C 2.37 g/m*3 -4.7 C 0 km/h
1239 07-03-2011 07:55:05 -4.4 C 2.42 g/m*3 -4.4 C 0 km/h
1240 07-03-2011 08:07:05 -3.9 C 2.39 g/m*3 -3.9 C 0 km/h
1241 07-03-2011 08:19:05 -4 C 2.3 g/m*3 -4 C 0 km/h
1242 07-03-2011 08:31:05 -4 C 2.34 g/m*3 -4 C 0 km/h
1243 07-03-2011 08:43:05 -3.5 C 2.35 g/m*3 -3.5 C 0 km/h
1244 07-03-2011 08:55:05 -3.4 C 2.33 g/m*3 -3.4 C 0 km/h
1245 07-03-2011 09:07:04 -3.3 C 2.35 g/m*3 -3.3 C 0 km/h
1246 07-03-2011 09:19:03 -3.5 C 2.27 g/m*3 -3.5 C 0 km/h
1247 07-03-2011 09:31:03 -2.9 C 2.41 g/m*3 -2.9 C 0 km/h
1248 07-03-2011 09:43:03 -2.6 C 2.42 g/m*3 -2.6 C 0 km/h
1249 07-03-2011 09:55:01 -2.3 C 2.44 g/m*3 -2.3 C 0 km/h
1250 07-03-2011 10:07:02 -1.1 C 2.56 g/m*3 -1.1 C 0 km/h
Sensor: Nr:Datum:Temp:Abs-Feuchte:Windchill:Wind:
Aussen-T/F 1251 07-03-2011 10:19:01 0.1 C 2.39 g/m*3 0.1 C 0 km/h
1252 07-03-2011 10:31:02 1.3 C 2.07 g/m*3 1.3 C 0 km/h
1253 07-03-2011 10:43:02 2.1 C 1.68 g/m*3 2.1 C 0 km/h
1254 07-03-2011 10:55:01 2.8 C 1.53 g/m*3 2.8 C 0 km/h
1255 07-03-2011 11:07:02 3.6 C 1.24 g/m*3 3.6 C 0 km/h
1256 07-03-2011 11:19:01 4 C 1.27 g/m*3 4 C 0 km/h
1257 07-03-2011 11:31:01 4.3 C 1.3 g/m*3 4.3 C 0 km/h
1258 07-03-2011 11:43:01 4.9 C 1.35 g/m*3 4.9 C 0 km/h
1259 07-03-2011 11:55:01 4.6 C 1.32 g/m*3 4.6 C 0 km/h
1260 07-03-2011 12:07:02 5.1 C 1.37 g/m*3 5.1 C 0 km/h
1261 07-03-2011 12:19:02 6 C 1.45 g/m*3 6 C 0 km/h
1262 07-03-2011 12:31:01 8.3 C 1.69 g/m*3 8.3 C 0 km/h
1263 07-03-2011 12:43:01 9.6 C 1.83 g/m*3 9.6 C 0 km/h
1264 07-03-2011 12:55:02 9.7 C 1.84 g/m*3 9.7 C 0 km/h
1265 07-03-2011 13:07:01 9.8 C 1.86 g/m*3 9.8 C 0 km/h
1266 07-03-2011 13:19:01 9.3 C 1.8 g/m*3 9.3 C 0 km/h
1267 07-03-2011 13:31:01 8 C 1.65 g/m*3 8 C 0 km/h
1268 07-03-2011 13:43:01 7.1 C 1.56 g/m*3 7.1 C 0 km/h
1269 07-03-2011 13:55:02 7.3 C 1.58 g/m*3 7.3 C 0 km/h
1270 07-03-2011 14:07:02 7.5 C 1.6 g/m*3 7.5 C 0 km/h
1271 07-03-2011 14:19:02 8.7 C 1.73 g/m*3 8.7 C 0 km/h
1272 07-03-2011 14:31:02 8.4 C 1.7 g/m*3 8.4 C 0 km/h
1273 07-03-2011 14:43:02 8.7 C 1.73 g/m*3 8.7 C 0 km/h
1274 07-03-2011 14:55:02 8.5 C 1.71 g/m*3 8.5 C 0 km/h
1275 07-03-2011 15:07:01 9.5 C 1.82 g/m*3 9.5 C 0 km/h
Sensor: Nr:Datum:Temp:Abs-Feuchte:Windchill:Wind:
Aussen-T/F 1276 07-03-2011 15:19:02 10.5 C 1.94 g/m*3 10.5 C 0 km/h
1277 07-03-2011 15:31:01 10.2 C 1.9 g/m*3 10.2 C 0 km/h
1278 07-03-2011 15:43:01 11.1 C 2.01 g/m*3 11.1 C 0 km/h
1279 07-03-2011 15:55:02 13.7 C 2.37 g/m*3 13.7 C 0 km/h
1280 07-03-2011 16:07:02 13.3 C 2.31 g/m*3 13.3 C 0 km/h
1281 07-03-2011 16:19:02 14.6 C 2.5 g/m*3 14.6 C 0 km/h
1282 07-03-2011 16:31:02 14.3 C 2.46 g/m*3 14.3 C 0 km/h
1283 07-03-2011 16:43:02 12 C 2.13 g/m*3 12 C 0 km/h
1284 07-03-2011 16:55:02 14 C 2.41 g/m*3 14 C 0 km/h
1285 07-03-2011 17:07:01 12.9 C 2.25 g/m*3 12.9 C 0 km/h
1286 07-03-2011 17:19:01 11.8 C 2.1 g/m*3 11.8 C 0 km/h
1287 07-03-2011 17:31:02 10.4 C 1.93 g/m*3 10.4 C 0 km/h
1288 07-03-2011 17:43:02 9.6 C 1.83 g/m*3 9.6 C 0 km/h
1289 07-03-2011 17:55:02 7.4 C 1.59 g/m*3 7.4 C 0 km/h
1290 07-03-2011 18:07:02 5.6 C 1.41 g/m*3 5.6 C 0 km/h
1291 07-03-2011 18:19:02 2.7 C 1.86 g/m*3 2.7 C 0 km/h
1292 07-03-2011 18:31:02 1.9 C 2.04 g/m*3 1.9 C 0 km/h
1293 07-03-2011 18:43:02 1.3 C 2.17 g/m*3 1.3 C 0 km/h
1294 07-03-2011 18:55:02 0.7 C 2.08 g/m*3 0.7 C 0 km/h
1295 07-03-2011 19:07:02 0.9 C 2.22 g/m*3 0.9 C 0 km/h
1296 07-03-2011 19:19:02 0.6 C 2.17 g/m*3 0.6 C 0 km/h
1297 07-03-2011 19:31:02 0.3 C 2.23 g/m*3 0.3 C 0 km/h
1298 07-03-2011 19:43:02 0.2 C 2.11 g/m*3 0.2 C 0 km/h
1299 07-03-2011 19:55:02 0 C 2.18 g/m*3 0 C 0 km/h
1300 07-03-2011 20:07:02 -0.5 C 2.15 g/m*3 -0.5 C 0 km/h
Sensor: Nr:Datum:Temp:Abs-Feuchte:Windchill:Wind:
Aussen-T/F 1301 07-03-2011 20:19:01 -0.5 C 2.15 g/m*3 -0.5 C 0 km/h
1302 07-03-2011 20:31:02 -0.4 C 2.12 g/m*3 -0.4 C 0 km/h
1303 07-03-2011 20:43:02 -0.5 C 2.11 g/m*3 -0.5 C 0 km/h
1304 07-03-2011 20:55:01 -0.3 C 2.23 g/m*3 -0.3 C 0 km/h
1305 07-03-2011 21:07:02 -0.2 C 2.15 g/m*3 -0.2 C 0 km/h
1306 07-03-2011 21:20:03 -0.4 C 2.17 g/m*3 -0.4 C 0 km/h
1307 07-03-2011 21:32:03 -0.4 C 2.12 g/m*3 -0.4 C 0 km/h
1308 07-03-2011 21:44:03 -0.5 C 2.15 g/m*3 -0.5 C 0 km/h
1309 07-03-2011 21:56:03 -0.4 C 2.12 g/m*3 -0.4 C 0 km/h
1310 07-03-2011 22:08:03 -1.2 C 2.1 g/m*3 -1.2 C 0 km/h
1311 07-03-2011 22:20:03 -1.2 C 2.14 g/m*3 -1.2 C 0 km/h
1312 07-03-2011 22:32:03 -1.4 C 2.11 g/m*3 -1.4 C 0 km/h
1313 07-03-2011 22:44:03 -1.3 C 2.12 g/m*3 -1.3 C 0 km/h
1314 07-03-2011 22:56:03 -1.3 C 2.12 g/m*3 -1.3 C 0 km/h
1315 07-03-2011 23:08:03 -1.6 C 2.17 g/m*3 -1.6 C 0 km/h
1316 07-03-2011 23:20:03 -1.2 C 2.1 g/m*3 -1.2 C 0 km/h
1317 07-03-2011 23:32:03 -1.8 C 2.14 g/m*3 -1.8 C 0 km/h
1318 07-03-2011 23:44:03 -2.2 C 2.08 g/m*3 -2.2 C 0 km/h
1319 07-03-2011 23:56:03 -1.9 C 2.21 g/m*3 -1.9 C 0 km/h
1320 08-03-2011 00:08:03 -2.7 C 2.09 g/m*3 -2.7 C 0 km/h
1321 08-03-2011 00:20:03 -3.1 C 2.15 g/m*3 -3.1 C 0 km/h
1322 08-03-2011 00:32:04 -3.4 C 2.18 g/m*3 -3.4 C 0 km/h
1323 08-03-2011 00:44:04 -3.7 C 2.06 g/m*3 -3.7 C 0 km/h
1324 08-03-2011 00:56:04 -4.2 C 1.98 g/m*3 -4.2 C 0 km/h
1325 08-03-2011 01:08:04 -4.6 C 1.96 g/m*3 -4.6 C 0 km/h
Sensor: Nr:Datum:Temp:Abs-Feuchte:Windchill:Wind:
Aussen-T/F 1326 08-03-2011 01:20:04 -4.4 C 2.06 g/m*3 -4.4 C 0 km/h
1327 08-03-2011 01:32:04 -4.1 C 2.22 g/m*3 -4.1 C 0 km/h
1328 08-03-2011 01:44:04 -4.2 C 2.16 g/m*3 -4.2 C 0 km/h
1329 08-03-2011 01:56:04 -4.7 C 2.09 g/m*3 -4.7 C 0 km/h
1330 08-03-2011 02:08:04 -4.8 C 2 g/m*3 -4.8 C 0 km/h
1331 08-03-2011 02:20:04 -4.8 C 2.04 g/m*3 -4.8 C 0 km/h
1332 08-03-2011 02:32:04 -5.1 C 1.99 g/m*3 -5.1 C 0 km/h
1333 08-03-2011 02:44:04 -5.2 C 2.01 g/m*3 -5.2 C 0 km/h
1334 08-03-2011 02:56:04 -5.3 C 2 g/m*3 -5.3 C 0 km/h
1335 08-03-2011 03:08:04 -5.1 C 2.06 g/m*3 -5.1 C 0 km/h
1336 08-03-2011 03:20:04 -5.8 C 1.99 g/m*3 -5.8 C 0 km/h
1337 08-03-2011 03:32:04 -6.1 C 1.98 g/m*3 -6.1 C 0 km/h
1338 08-03-2011 03:44:04 -6.3 C 1.95 g/m*3 -6.3 C 0 km/h
1339 08-03-2011 03:56:04 -6.2 C 2.03 g/m*3 -6.2 C 0 km/h
1340 08-03-2011 04:08:04 -6.3 C 2.05 g/m*3 -6.3 C 0 km/h
1341 08-03-2011 04:20:04 -6.3 C 2.08 g/m*3 -6.3 C 0 km/h
1342 08-03-2011 04:32:05 -6.3 C 2.08 g/m*3 -6.3 C 0 km/h
1343 08-03-2011 04:44:05 -6.2 C 2.09 g/m*3 -6.2 C 0 km/h
1344 08-03-2011 04:56:05 -6.1 C 2.08 g/m*3 -6.1 C 0 km/h
1345 08-03-2011 05:08:05 -6 C 2 g/m*3 -6 C 0 km/h
1346 08-03-2011 05:20:05 -5.2 C 2.11 g/m*3 -5.2 C 0 km/h
1347 08-03-2011 05:32:05 -6 C 2 g/m*3 -6 C 0 km/h
1348 08-03-2011 05:44:05 -6.3 C 1.98 g/m*3 -6.3 C 0 km/h
1349 08-03-2011 05:56:05 -5.3 C 2.13 g/m*3 -5.3 C 0 km/h
1350 08-03-2011 06:08:05 -6 C 1.96 g/m*3 -6 C 0 km/h
Sensor: Nr:Datum:Temp:Abs-Feuchte:Windchill:Wind:
Aussen-T/F 1351 08-03-2011 06:20:05 -6 C 2 g/m*3 -6 C 0 km/h
1352 08-03-2011 06:32:05 -6.3 C 1.98 g/m*3 -6.3 C 0 km/h
1353 08-03-2011 06:44:05 -6.7 C 1.96 g/m*3 -6.7 C 0 km/h
1354 08-03-2011 06:56:05 -6.8 C 1.97 g/m*3 -6.8 C 0 km/h
1355 08-03-2011 07:08:05 -6.9 C 1.96 g/m*3 -6.9 C 0 km/h
1356 08-03-2011 07:20:05 -6 C 2.12 g/m*3 -6 C 0 km/h
1357 08-03-2011 07:32:02 -6.1 C 2.08 g/m*3 -6.1 C 0 km/h
1358 08-03-2011 07:44:02 -5.5 C 2.2 g/m*3 -5.5 C 0 km/h
1359 08-03-2011 07:56:02 -5.4 C 2.15 g/m*3 -5.4 C 0 km/h
1360 08-03-2011 08:08:02 -5.5 C 2.13 g/m*3 -5.5 C 0 km/h
1361 08-03-2011 08:20:02 -5.3 C 2.17 g/m*3 -5.3 C 0 km/h
1362 08-03-2011 08:32:02 -5.2 C 2.18 g/m*3 -5.2 C 0 km/h
1363 08-03-2011 08:44:02 -4.8 C 2.25 g/m*3 -4.8 C 0 km/h
1364 08-03-2011 08:56:02 -4.6 C 2.28 g/m*3 -4.6 C 0 km/h
1365 08-03-2011 09:08:01 -4.4 C 2.2 g/m*3 -4.4 C 0 km/h
1366 08-03-2011 09:20:01 -4.1 C 2.22 g/m*3 -4.1 C 0 km/h
1367 08-03-2011 09:32:02 -3.7 C 2.35 g/m*3 -3.7 C 0 km/h
1368 08-03-2011 09:44:02 -3.1 C 2.46 g/m*3 -3.1 C 0 km/h
1369 08-03-2011 09:56:02 -2.5 C 2.48 g/m*3 -2.5 C 0 km/h
1370 08-03-2011 10:08:02 -1.7 C 2.45 g/m*3 -1.7 C 0 km/h
1371 08-03-2011 10:20:02 -0.2 C 2.63 g/m*3 -0.2 C 0 km/h
1372 08-03-2011 10:32:01 0.3 C 2.42 g/m*3 0.3 C 0 km/h
1373 08-03-2011 10:44:01 0.9 C 2.42 g/m*3 0.9 C 0 km/h
1374 08-03-2011 10:56:01 2.4 C 2.28 g/m*3 2.4 C 0 km/h
1375 08-03-2011 11:08:01 3.2 C 2.53 g/m*3 3.2 C 0 km/h
Sensor: Nr:Datum:Temp:Abs-Feuchte:Windchill:Wind:
Aussen-T/F 1376 08-03-2011 11:20:01 3.2 C 2.35 g/m*3 3.2 C 0 km/h
1377 08-03-2011 11:32:01 4.1 C 2.18 g/m*3 4.1 C 0 km/h
1378 08-03-2011 11:44:01 6.4 C 2.31 g/m*3 6.4 C 0 km/h
1379 08-03-2011 11:56:02 5.6 C 2.26 g/m*3 5.6 C 0 km/h
1380 08-03-2011 12:08:02 6.1 C 1.97 g/m*3 6.1 C 0 km/h
1381 08-03-2011 12:20:01 7.1 C 2.18 g/m*3 7.1 C 0 km/h
1382 08-03-2011 12:32:01 9.2 C 1.79 g/m*3 9.2 C 0 km/h
1383 08-03-2011 12:44:01 10.8 C 1.98 g/m*3 10.8 C 0 km/h
1384 08-03-2011 12:56:01 12.2 C 2.16 g/m*3 12.2 C 0 km/h
1385 08-03-2011 13:08:02 11.1 C 2.01 g/m*3 11.1 C 0 km/h
1386 08-03-2011 13:20:01 11.4 C 2.05 g/m*3 11.4 C 0 km/h
1387 08-03-2011 13:32:01 11.1 C 2.01 g/m*3 11.1 C 0 km/h
1388 08-03-2011 13:44:01 10 C 1.88 g/m*3 10 C 0 km/h
1389 08-03-2011 13:56:01 10.5 C 2.04 g/m*3 10.5 C 0 km/h
1390 08-03-2011 14:08:01 11.8 C 2.42 g/m*3 11.8 C 0 km/h
1391 08-03-2011 14:20:02 11.7 C 2.09 g/m*3 11.7 C 0 km/h
1392 08-03-2011 14:32:01 12.3 C 2.17 g/m*3 12.3 C 0 km/h
1393 08-03-2011 14:44:01 12.9 C 2.25 g/m*3 12.9 C 0 km/h
1394 08-03-2011 14:56:02 12.7 C 2.78 g/m*3 12.7 C 0 km/h
1395 08-03-2011 15:08:02 12.9 C 2.59 g/m*3 12.9 C 0 km/h
1396 08-03-2011 15:20:02 13.9 C 2.52 g/m*3 13.9 C 0 km/h
1397 08-03-2011 15:32:02 13.6 C 2.35 g/m*3 13.6 C 0 km/h
1398 08-03-2011 15:44:02 14.2 C 2.44 g/m*3 14.2 C 0 km/h
1399 08-03-2011 15:56:02 15.2 C 2.6 g/m*3 15.2 C 0 km/h
1400 08-03-2011 16:08:01 15.7 C 2.68 g/m*3 15.7 C 0 km/h
Sensor: Nr:Datum:Temp:Abs-Feuchte:Windchill:Wind:
Aussen-T/F 1401 08-03-2011 16:20:02 14.6 C 2.5 g/m*3 14.6 C 0 km/h
1402 08-03-2011 16:32:02 14.9 C 2.55 g/m*3 14.9 C 0 km/h
1403 08-03-2011 16:44:02 15.2 C 2.6 g/m*3 15.2 C 0 km/h
1404 08-03-2011 16:56:02 14.8 C 2.53 g/m*3 14.8 C 0 km/h
1405 08-03-2011 17:08:02 13.9 C 2.88 g/m*3 13.9 C 0 km/h
1406 08-03-2011 17:20:02 13.1 C 2.85 g/m*3 13.1 C 0 km/h
1407 08-03-2011 17:32:02 12.2 C 3.02 g/m*3 12.2 C 0 km/h
1408 08-03-2011 17:44:02 10.3 C 3.26 g/m*3 10.3 C 0 km/h
1409 08-03-2011 17:56:01 10.3 C 3.26 g/m*3 10.3 C 0 km/h
1410 08-03-2011 18:08:02 10.3 C 3.26 g/m*3 10.3 C 0 km/h
1411 08-03-2011 18:20:01 6.9 C 3.54 g/m*3 6.9 C 0 km/h
1412 08-03-2011 18:32:02 6.2 C 3.6 g/m*3 6.2 C 0 km/h
1413 08-03-2011 18:44:02 6.2 C 3.6 g/m*3 6.2 C 0 km/h
1414 08-03-2011 18:56:02 6.2 C 3.6 g/m*3 6.2 C 0 km/h
1415 08-03-2011 19:08:02 6.2 C 3.6 g/m*3 6.2 C 0 km/h
1416 08-03-2011 19:20:01 6.2 C 3.6 g/m*3 6.2 C 0 km/h
1417 08-03-2011 19:32:02 6.2 C 3.6 g/m*3 6.2 C 0 km/h
1418 08-03-2011 19:44:02 4.6 C 4.1 g/m*3 4.6 C 0 km/h
1419 08-03-2011 19:56:01 4.2 C 4.12 g/m*3 4.2 C 0 km/h
1420 08-03-2011 20:08:02 3.8 C 4.2 g/m*3 3.8 C 0 km/h
1421 08-03-2011 20:20:02 3.5 C 4.24 g/m*3 3.5 C 0 km/h
1422 08-03-2011 20:32:02 3.5 C 4.37 g/m*3 3.5 C 0 km/h
1423 08-03-2011 20:44:02 2.9 C 4.31 g/m*3 2.9 C 0 km/h
1424 08-03-2011 20:56:02 2.8 C 4.34 g/m*3 2.8 C 0 km/h
1425 08-03-2011 21:08:01 2.2 C 4.11 g/m*3 2.2 C 0 km/h
Sensor: Nr:Datum:Temp:Abs-Feuchte:Windchill:Wind:
Aussen-T/F 1426 08-03-2011 21:21:04 1.8 C 4.11 g/m*3 1.8 C 0 km/h
1427 08-03-2011 21:33:04 1.9 C 4.25 g/m*3 1.9 C 0 km/h
1428 08-03-2011 21:45:04 1.8 C 4.33 g/m*3 1.8 C 0 km/h
1429 08-03-2011 21:57:04 1.8 C 4.39 g/m*3 1.8 C 0 km/h
1430 08-03-2011 22:09:04 1.3 C 4.24 g/m*3 1.3 C 0 km/h
1431 08-03-2011 22:21:04 1.6 C 4.38 g/m*3 1.6 C 0 km/h
1432 08-03-2011 22:33:04 1.6 C 4.43 g/m*3 1.6 C 0 km/h
1433 08-03-2011 22:45:05 1.3 C 4.34 g/m*3 1.3 C 0 km/h
1434 08-03-2011 22:57:05 1 C 4.26 g/m*3 1 C 0 km/h
1435 08-03-2011 23:09:05 1.1 C 4.34 g/m*3 1.1 C 0 km/h
1436 08-03-2011 23:21:05 1 C 4.31 g/m*3 1 C 0 km/h
1437 08-03-2011 23:33:05 1.1 C 4.39 g/m*3 1.1 C 0 km/h
1438 08-03-2011 23:45:05 0.5 C 4.21 g/m*3 0.5 C 0 km/h
1439 08-03-2011 23:57:05 0.2 C 4.13 g/m*3 0.2 C 0 km/h
1440 09-03-2011 00:09:05 0 C 4.12 g/m*3 0 C 0 km/h
1441 09-03-2011 00:21:05 -0.4 C 4.01 g/m*3 -0.4 C 0 km/h
1442 09-03-2011 00:33:05 -0.6 C 3.95 g/m*3 -0.6 C 0 km/h
1443 09-03-2011 00:45:05 -0.7 C 3.92 g/m*3 -0.7 C 0 km/h
1444 09-03-2011 00:57:05 -0.6 C 4 g/m*3 -0.6 C 0 km/h
1445 09-03-2011 01:09:05 -0.5 C 4.07 g/m*3 -0.5 C 0 km/h
1446 09-03-2011 01:21:05 -0.4 C 4.1 g/m*3 -0.4 C 0 km/h
1447 09-03-2011 01:33:05 -0.7 C 4.02 g/m*3 -0.7 C 0 km/h
1448 09-03-2011 01:45:05 -0.9 C 3.96 g/m*3 -0.9 C 0 km/h
1449 09-03-2011 01:57:05 -0.9 C 3.96 g/m*3 -0.9 C 0 km/h
1450 09-03-2011 02:09:05 0 C 4.26 g/m*3 0 C 0 km/h
Sensor: Nr:Datum:Temp:Abs-Feuchte:Windchill:Wind:
Aussen-T/F 1451 09-03-2011 02:21:05 1.6 C 4.81 g/m*3 1.6 C 0 km/h
1452 09-03-2011 02:33:05 0.4 C 4.43 g/m*3 0.4 C 0 km/h
1453 09-03-2011 02:45:06 0.2 C 4.37 g/m*3 0.2 C 0 km/h
1454 09-03-2011 02:57:06 1.5 C 4.78 g/m*3 1.5 C 0 km/h
1455 09-03-2011 03:09:06 2.3 C 5.05 g/m*3 2.3 C 0 km/h
1456 09-03-2011 03:21:06 2.3 C 4.99 g/m*3 2.3 C 0 km/h
1457 09-03-2011 03:33:06 2.9 C 5.08 g/m*3 2.9 C 0 km/h
1458 09-03-2011 03:45:06 2.7 C 4.84 g/m*3 2.7 C 0 km/h
1459 09-03-2011 03:57:06 3.7 C 4.92 g/m*3 3.7 C 0 km/h
1460 09-03-2011 04:09:06 3.5 C 4.55 g/m*3 3.5 C 0 km/h
1461 09-03-2011 04:21:06 3.1 C 4.37 g/m*3 3.1 C 0 km/h
1462 09-03-2011 04:33:06 3.1 C 4.43 g/m*3 3.1 C 0 km/h
1463 09-03-2011 04:45:06 3.6 C 4.58 g/m*3 3.6 C 0 km/h
1464 09-03-2011 04:57:06 3 C 4.4 g/m*3 3 C 0 km/h
1465 09-03-2011 05:09:06 2.6 C 4.4 g/m*3 2.6 C 0 km/h
1466 09-03-2011 05:21:06 3.1 C 4.49 g/m*3 3.1 C 0 km/h
1467 09-03-2011 05:33:06 2.5 C 4.31 g/m*3 2.5 C 0 km/h
1468 09-03-2011 05:45:06 2.4 C 4.4 g/m*3 2.4 C 0 km/h
1469 09-03-2011 05:57:06 1.6 C 4.27 g/m*3 1.6 C 0 km/h
1470 09-03-2011 06:09:06 2.2 C 4.56 g/m*3 2.2 C 0 km/h
1471 09-03-2011 06:21:06 2.1 C 4.42 g/m*3 2.1 C 0 km/h
1472 09-03-2011 06:33:06 2.6 C 4.51 g/m*3 2.6 C 0 km/h
1473 09-03-2011 06:45:06 2.7 C 4.43 g/m*3 2.7 C 0 km/h
1474 09-03-2011 06:57:07 2.2 C 4.34 g/m*3 2.2 C 0 km/h
1475 09-03-2011 07:09:07 2.5 C 4.43 g/m*3 2.5 C 0 km/h
Sensor: Nr:Datum:Temp:Abs-Feuchte:Windchill:Wind:
Aussen-T/F 1476 09-03-2011 07:21:03 2.8 C 4.52 g/m*3 2.8 C 0 km/h
1477 09-03-2011 07:33:03 3 C 4.4 g/m*3 3 C 0 km/h
1478 09-03-2011 07:45:01 3.3 C 4.43 g/m*3 3.3 C 0 km/h
1479 09-03-2011 07:57:01 3.4 C 4.4 g/m*3 3.4 C 0 km/h
1480 09-03-2011 08:09:01 2.7 C 4.31 g/m*3 2.7 C 0 km/h
1481 09-03-2011 08:21:01 2.8 C 4.34 g/m*3 2.8 C 0 km/h
1482 09-03-2011 08:33:02 3.6 C 4.52 g/m*3 3.6 C 0 km/h
1483 09-03-2011 08:45:01 4.5 C 4.54 g/m*3 4.5 C 0 km/h
1484 09-03-2011 08:57:01 5.2 C 4.41 g/m*3 5.2 C 0 km/h
1485 09-03-2011 09:09:02 6.4 C 4.47 g/m*3 6.4 C 0 km/h
1486 09-03-2011 09:21:01 7.8 C 4.33 g/m*3 7.8 C 0 km/h
1487 09-03-2011 09:33:02 8.2 C 4.1 g/m*3 8.2 C 0 km/h
1488 09-03-2011 09:45:01 8.5 C 4.1 g/m*3 8.5 C 0 km/h
1489 09-03-2011 09:57:01 8.9 C 4.12 g/m*3 8.9 C 0 km/h
1490 09-03-2011 10:09:02 9 C 4.06 g/m*3 9 C 0 km/h
1491 09-03-2011 10:21:02 9.2 C 4.11 g/m*3 9.2 C 0 km/h
1492 09-03-2011 10:33:01 9 C 4.06 g/m*3 9 C 0 km/h
1493 09-03-2011 10:45:02 9.3 C 4.22 g/m*3 9.3 C 0 km/h
1494 09-03-2011 10:57:02 9.5 C 4.28 g/m*3 9.5 C 0 km/h
1495 09-03-2011 11:09:01 9.6 C 4.49 g/m*3 9.6 C 0 km/h
1496 09-03-2011 11:21:02 9.9 C 4.58 g/m*3 9.9 C 0 km/h
1497 09-03-2011 11:33:01 10.4 C 4.63 g/m*3 10.4 C 0 km/h
1498 09-03-2011 11:45:02 10.2 C 4.47 g/m*3 10.2 C 0 km/h
1499 09-03-2011 11:57:02 10 C 4.51 g/m*3 10 C 0 km/h
1500 09-03-2011 12:09:02 9.8 C 4.55 g/m*3 9.8 C 0 km/h
Sensor: Nr:Datum:Temp:Abs-Feuchte:Windchill:Wind:
Aussen-T/F 1501 09-03-2011 12:21:02 9.8 C 4.55 g/m*3 9.8 C 0 km/h
1502 09-03-2011 12:33:02 9.8 C 4.64 g/m*3 9.8 C 0 km/h
1503 09-03-2011 12:45:01 10.1 C 4.63 g/m*3 10.1 C 0 km/h
1504 09-03-2011 12:57:01 10.4 C 4.72 g/m*3 10.4 C 0 km/h
1505 09-03-2011 13:09:02 11.2 C 4.66 g/m*3 11.2 C 0 km/h
1506 09-03-2011 13:21:01 11 C 4.6 g/m*3 11 C 0 km/h
1507 09-03-2011 13:33:02 11.7 C 4.71 g/m*3 11.7 C 0 km/h
1508 09-03-2011 13:45:02 11.4 C 4.21 g/m*3 11.4 C 0 km/h
1509 09-03-2011 13:57:02 11.6 C 4.16 g/m*3 11.6 C 0 km/h
1510 09-03-2011 14:09:02 12.1 C 4.18 g/m*3 12.1 C 0 km/h
1511 09-03-2011 14:21:02 11.8 C 4.21 g/m*3 11.8 C 0 km/h
1512 09-03-2011 14:33:02 11.6 C 4.05 g/m*3 11.6 C 0 km/h
1513 09-03-2011 14:45:02 11.8 C 4 g/m*3 11.8 C 0 km/h
1514 09-03-2011 14:57:02 11.7 C 3.77 g/m*3 11.7 C 0 km/h
1515 09-03-2011 15:09:02 11.6 C 3.74 g/m*3 11.6 C 0 km/h
1516 09-03-2011 15:21:02 11.2 C 3.65 g/m*3 11.2 C 0 km/h
1517 09-03-2011 15:33:02 11.3 C 3.67 g/m*3 11.3 C 0 km/h
1518 09-03-2011 15:45:02 11.3 C 3.77 g/m*3 11.3 C 0 km/h
1519 09-03-2011 15:57:02 11.2 C 3.75 g/m*3 11.2 C 0 km/h
1520 09-03-2011 16:09:02 11.1 C 3.83 g/m*3 11.1 C 0 km/h
1521 09-03-2011 16:21:02 10.9 C 3.88 g/m*3 10.9 C 0 km/h
1522 09-03-2011 16:33:02 10.7 C 3.83 g/m*3 10.7 C 0 km/h
1523 09-03-2011 16:45:02 10.7 C 3.73 g/m*3 10.7 C 0 km/h
1524 09-03-2011 16:57:02 10.6 C 3.71 g/m*3 10.6 C 0 km/h
1525 09-03-2011 17:09:02 10.4 C 4.05 g/m*3 10.4 C 0 km/h
Sensor: Nr:Datum:Temp:Abs-Feuchte:Windchill:Wind:
Aussen-T/F 1526 09-03-2011 17:21:02 10.3 C 4.21 g/m*3 10.3 C 0 km/h
1527 09-03-2011 17:33:02 10.2 C 4.38 g/m*3 10.2 C 0 km/h
1528 09-03-2011 17:45:02 10 C 4.42 g/m*3 10 C 0 km/h
1529 09-03-2011 17:57:02 9.7 C 4.61 g/m*3 9.7 C 0 km/h
1530 09-03-2011 18:09:01 9.7 C 4.61 g/m*3 9.7 C 0 km/h
1531 09-03-2011 18:21:02 9.6 C 4.58 g/m*3 9.6 C 0 km/h
1532 09-03-2011 18:33:01 9.3 C 4.67 g/m*3 9.3 C 0 km/h
1533 09-03-2011 18:45:01 8.8 C 4.7 g/m*3 8.8 C 0 km/h
1534 09-03-2011 18:57:02 9 C 4.76 g/m*3 9 C 0 km/h
1535 09-03-2011 19:09:01 8.9 C 4.82 g/m*3 8.9 C 0 km/h
1536 09-03-2011 19:21:01 9.3 C 4.76 g/m*3 9.3 C 0 km/h
1537 09-03-2011 19:33:02 9 C 4.67 g/m*3 9 C 0 km/h
1538 09-03-2011 19:45:02 8.4 C 4.84 g/m*3 8.4 C 0 km/h
1539 09-03-2011 19:57:02 8.2 C 4.86 g/m*3 8.2 C 0 km/h
1540 09-03-2011 20:09:02 8.2 C 4.94 g/m*3 8.2 C 0 km/h
1541 09-03-2011 20:21:01 8.2 C 4.86 g/m*3 8.2 C 0 km/h
1542 09-03-2011 20:33:02 8 C 4.88 g/m*3 8 C 0 km/h
1543 09-03-2011 20:45:02 8.1 C 4.83 g/m*3 8.1 C 0 km/h
1544 09-03-2011 20:57:02 7.9 C 4.93 g/m*3 7.9 C 0 km/h
1545 09-03-2011 21:09:02 8 C 4.8 g/m*3 8 C 0 km/h
1546 09-03-2011 21:21:02 7.9 C 4.85 g/m*3 7.9 C 0 km/h
1547 09-03-2011 21:33:02 7.6 C 4.91 g/m*3 7.6 C 0 km/h
1548 09-03-2011 21:46:04 7.2 C 4.87 g/m*3 7.2 C 0 km/h
1549 09-03-2011 21:58:04 7.6 C 4.99 g/m*3 7.6 C 0 km/h
1550 09-03-2011 22:10:04 7.6 C 4.99 g/m*3 7.6 C 0 km/h
Sensor: Nr:Datum:Temp:Abs-Feuchte:Windchill:Wind:
Aussen-T/F 1551 09-03-2011 22:22:04 7.1 C 4.91 g/m*3 7.1 C 0 km/h
1552 09-03-2011 22:34:04 6.5 C 5.02 g/m*3 6.5 C 0 km/h
1553 09-03-2011 22:46:04 6 C 5.01 g/m*3 6 C 0 km/h
1554 09-03-2011 22:58:04 6 C 5.15 g/m*3 6 C 0 km/h
1555 09-03-2011 23:10:04 5.1 C 4.99 g/m*3 5.1 C 0 km/h
1556 09-03-2011 23:22:04 4.9 C 5.13 g/m*3 4.9 C 0 km/h
1557 09-03-2011 23:34:04 5 C 5.1 g/m*3 5 C 0 km/h
1558 09-03-2011 23:46:04 6 C 5.23 g/m*3 6 C 0 km/h
1559 09-03-2011 23:58:04 6 C 4.94 g/m*3 6 C 0 km/h
1560 10-03-2011 00:10:04 5.5 C 4.85 g/m*3 5.5 C 0 km/h
1561 10-03-2011 00:22:04 5.9 C 4.98 g/m*3 5.9 C 0 km/h
1562 10-03-2011 00:34:04 6.1 C 4.89 g/m*3 6.1 C 0 km/h
1563 10-03-2011 00:46:04 5.4 C 4.74 g/m*3 5.4 C 0 km/h
1564 10-03-2011 00:58:04 4.9 C 4.79 g/m*3 4.9 C 0 km/h
1565 10-03-2011 01:10:05 5.2 C 4.89 g/m*3 5.2 C 0 km/h
1566 10-03-2011 01:22:05 5.4 C 4.88 g/m*3 5.4 C 0 km/h
1567 10-03-2011 01:34:05 5.2 C 4.82 g/m*3 5.2 C 0 km/h
1568 10-03-2011 01:46:05 5.4 C 4.81 g/m*3 5.4 C 0 km/h
1569 10-03-2011 01:58:05 5.2 C 4.82 g/m*3 5.2 C 0 km/h
1570 10-03-2011 02:10:05 5.3 C 4.85 g/m*3 5.3 C 0 km/h
1571 10-03-2011 02:22:05 4.9 C 4.79 g/m*3 4.9 C 0 km/h
1572 10-03-2011 02:34:05 4 C 4.64 g/m*3 4 C 0 km/h
1573 10-03-2011 02:46:05 3.8 C 4.83 g/m*3 3.8 C 0 km/h
1574 10-03-2011 02:58:05 4.1 C 4.93 g/m*3 4.1 C 0 km/h
1575 10-03-2011 03:10:05 4.7 C 4.86 g/m*3 4.7 C 0 km/h
Sensor: Nr:Datum:Temp:Abs-Feuchte:Windchill:Wind:
Aussen-T/F 1576 10-03-2011 03:22:05 5.4 C 4.6 g/m*3 5.4 C 0 km/h
1577 10-03-2011 03:34:05 5.7 C 4.55 g/m*3 5.7 C 0 km/h
1578 10-03-2011 03:46:05 5.5 C 4.57 g/m*3 5.5 C 0 km/h
1579 10-03-2011 03:58:05 4.5 C 4.47 g/m*3 4.5 C 0 km/h
1580 10-03-2011 04:10:05 4.5 C 4.54 g/m*3 4.5 C 0 km/h
1581 10-03-2011 04:22:05 4 C 4.51 g/m*3 4 C 0 km/h
1582 10-03-2011 04:34:05 5.2 C 4.82 g/m*3 5.2 C 0 km/h
1583 10-03-2011 04:46:05 4.9 C 4.79 g/m*3 4.9 C 0 km/h
1584 10-03-2011 04:58:05 4.5 C 4.54 g/m*3 4.5 C 0 km/h
1585 10-03-2011 05:10:05 5 C 4.62 g/m*3 5 C 0 km/h
1586 10-03-2011 05:22:06 5.1 C 4.58 g/m*3 5.1 C 0 km/h
1587 10-03-2011 05:34:06 4.6 C 4.57 g/m*3 4.6 C 0 km/h
1588 10-03-2011 05:46:06 5 C 4.62 g/m*3 5 C 0 km/h
1589 10-03-2011 05:58:06 5 C 4.62 g/m*3 5 C 0 km/h
1590 10-03-2011 06:10:06 4.7 C 4.8 g/m*3 4.7 C 0 km/h
1591 10-03-2011 06:22:06 4.6 C 4.76 g/m*3 4.6 C 0 km/h
1592 10-03-2011 06:34:06 4.6 C 4.7 g/m*3 4.6 C 0 km/h
1593 10-03-2011 06:46:06 4.5 C 4.67 g/m*3 4.5 C 0 km/h
1594 10-03-2011 06:58:06 4.6 C 4.7 g/m*3 4.6 C 0 km/h
1595 10-03-2011 07:10:06 4.6 C 4.7 g/m*3 4.6 C 0 km/h
1596 10-03-2011 07:22:03 4.4 C 4.7 g/m*3 4.4 C 0 km/h
1597 10-03-2011 07:34:04 4.6 C 4.76 g/m*3 4.6 C 0 km/h
1598 10-03-2011 07:46:02 4.5 C 4.67 g/m*3 4.5 C 0 km/h
1599 10-03-2011 07:58:02 5.2 C 4.61 g/m*3 5.2 C 0 km/h
1600 10-03-2011 08:10:02 5.4 C 4.6 g/m*3 5.4 C 0 km/h
Sensor: Nr:Datum:Temp:Abs-Feuchte:Windchill:Wind:
Aussen-T/F 1601 10-03-2011 08:22:02 5.7 C 4.63 g/m*3 5.7 C 0 km/h
1602 10-03-2011 08:34:02 5.9 C 4.61 g/m*3 5.9 C 0 km/h
1603 10-03-2011 08:46:01 6.1 C 4.6 g/m*3 6.1 C 0 km/h
1604 10-03-2011 08:58:01 6.3 C 4.52 g/m*3 6.3 C 0 km/h
1605 10-03-2011 09:10:02 6.7 C 4.56 g/m*3 6.7 C 0 km/h
1606 10-03-2011 09:22:01 6.8 C 4.44 g/m*3 6.8 C 0 km/h
1607 10-03-2011 09:34:02 7 C 4.42 g/m*3 7 C 0 km/h
1608 10-03-2011 09:46:02 7 C 4.34 g/m*3 7 C 0 km/h
1609 10-03-2011 09:58:02 7.2 C 4.4 g/m*3 7.2 C 0 km/h
1610 10-03-2011 10:10:02 7.6 C 4.35 g/m*3 7.6 C 0 km/h
1611 10-03-2011 10:22:01 7.8 C 4.24 g/m*3 7.8 C 0 km/h
1612 10-03-2011 10:34:02 8.1 C 4.33 g/m*3 8.1 C 0 km/h
1613 10-03-2011 10:46:02 8.2 C 4.27 g/m*3 8.2 C 0 km/h
1614 10-03-2011 10:58:02 8.6 C 4.3 g/m*3 8.6 C 0 km/h
1615 10-03-2011 11:10:02 8.4 C 4.24 g/m*3 8.4 C 0 km/h
1616 10-03-2011 11:22:01 8.5 C 4.27 g/m*3 8.5 C 0 km/h
1617 10-03-2011 11:34:02 9 C 4.32 g/m*3 9 C 0 km/h
1618 10-03-2011 11:46:01 9.2 C 4.2 g/m*3 9.2 C 0 km/h
1619 10-03-2011 11:58:01 9.5 C 4.28 g/m*3 9.5 C 0 km/h
1620 10-03-2011 12:10:02 9.3 C 4.13 g/m*3 9.3 C 0 km/h
1621 10-03-2011 12:22:02 10 C 4.23 g/m*3 10 C 0 km/h
1622 10-03-2011 12:34:01 9.3 C 4.04 g/m*3 9.3 C 0 km/h
1623 10-03-2011 12:46:02 9.8 C 4.27 g/m*3 9.8 C 0 km/h
1624 10-03-2011 12:58:02 10 C 4.23 g/m*3 10 C 0 km/h
1625 10-03-2011 13:10:01 9.8 C 3.9 g/m*3 9.8 C 0 km/h
Sensor: Nr:Datum:Temp:Abs-Feuchte:Windchill:Wind:
Aussen-T/F 1626 10-03-2011 13:22:02 9.8 C 3.9 g/m*3 9.8 C 0 km/h
1627 10-03-2011 13:34:01 9.9 C 3.92 g/m*3 9.9 C 0 km/h
1628 10-03-2011 13:46:02 9.7 C 3.78 g/m*3 9.7 C 0 km/h
1629 10-03-2011 13:58:03 10.3 C 3.93 g/m*3 10.3 C 0 km/h
1630 10-03-2011 14:10:02 9.9 C 4.01 g/m*3 9.9 C 0 km/h
1631 10-03-2011 14:22:02 9 C 3.97 g/m*3 9 C 0 km/h
1632 10-03-2011 14:34:02 9.1 C 3.99 g/m*3 9.1 C 0 km/h
1633 10-03-2011 14:46:02 9.1 C 3.99 g/m*3 9.1 C 0 km/h
1634 10-03-2011 14:58:02 9 C 4.06 g/m*3 9 C 0 km/h
1635 10-03-2011 15:10:01 8.6 C 4.04 g/m*3 8.6 C 0 km/h
1636 10-03-2011 15:22:02 8.5 C 4.1 g/m*3 8.5 C 0 km/h
1637 10-03-2011 15:34:02 8.5 C 4.1 g/m*3 8.5 C 0 km/h
1638 10-03-2011 15:46:02 8.5 C 4.01 g/m*3 8.5 C 0 km/h
1639 10-03-2011 15:58:02 8.5 C 4.01 g/m*3 8.5 C 0 km/h
1640 10-03-2011 16:10:03 8.6 C 4.12 g/m*3 8.6 C 0 km/h
1641 10-03-2011 16:22:02 8.4 C 4.07 g/m*3 8.4 C 0 km/h
1642 10-03-2011 16:34:02 8.2 C 4.19 g/m*3 8.2 C 0 km/h
1643 10-03-2011 16:46:01 8.1 C 4.24 g/m*3 8.1 C 0 km/h
1644 10-03-2011 16:58:01 8.2 C 4.27 g/m*3 8.2 C 0 km/h
1645 10-03-2011 17:10:02 8.2 C 4.27 g/m*3 8.2 C 0 km/h
1646 10-03-2011 17:22:01 8.2 C 4.27 g/m*3 8.2 C 0 km/h
1647 10-03-2011 17:34:02 8.2 C 4.27 g/m*3 8.2 C 0 km/h
1648 10-03-2011 17:46:01 8.1 C 4.33 g/m*3 8.1 C 0 km/h
1649 10-03-2011 17:58:01 8.2 C 4.35 g/m*3 8.2 C 0 km/h
1650 10-03-2011 18:10:02 8.3 C 4.38 g/m*3 8.3 C 0 km/h
Sensor: Nr:Datum:Temp:Abs-Feuchte:Windchill:Wind:
Aussen-T/F 1651 10-03-2011 18:22:01 8.3 C 4.38 g/m*3 8.3 C 0 km/h
1652 10-03-2011 18:34:01 8.3 C 4.38 g/m*3 8.3 C 0 km/h
1653 10-03-2011 18:46:01 8.5 C 4.44 g/m*3 8.5 C 0 km/h
1654 10-03-2011 18:58:01 8.6 C 4.47 g/m*3 8.6 C 0 km/h
1655 10-03-2011 19:10:02 8.6 C 4.47 g/m*3 8.6 C 0 km/h
1656 10-03-2011 19:22:02 8.9 C 4.47 g/m*3 8.9 C 0 km/h
1657 10-03-2011 19:34:01 8.8 C 4.44 g/m*3 8.8 C 0 km/h
1658 10-03-2011 19:46:02 8.9 C 4.47 g/m*3 8.9 C 0 km/h
1659 10-03-2011 19:58:02 9 C 4.41 g/m*3 9 C 0 km/h
1660 10-03-2011 20:10:01 8.9 C 4.47 g/m*3 8.9 C 0 km/h
1661 10-03-2011 20:22:02 8.7 C 4.5 g/m*3 8.7 C 0 km/h
1662 10-03-2011 20:34:01 8.9 C 4.56 g/m*3 8.9 C 0 km/h
1663 10-03-2011 20:46:02 8.9 C 4.56 g/m*3 8.9 C 0 km/h
1664 10-03-2011 20:58:02 8.9 C 4.64 g/m*3 8.9 C 0 km/h
1665 10-03-2011 21:10:02 8.7 C 4.67 g/m*3 8.7 C 0 km/h
1666 10-03-2011 21:22:02 8.8 C 4.7 g/m*3 8.8 C 0 km/h
1667 10-03-2011 21:34:03 8.3 C 4.8 g/m*3 8.3 C 0 km/h
1668 10-03-2011 21:46:02 8.4 C 4.92 g/m*3 8.4 C 0 km/h
1669 10-03-2011 21:58:02 8.5 C 4.87 g/m*3 8.5 C 0 km/h
1670 10-03-2011 22:10:01 8.8 C 4.79 g/m*3 8.8 C 0 km/h
1671 10-03-2011 22:23:03 8.7 C 4.84 g/m*3 8.7 C 0 km/h
1672 10-03-2011 22:35:03 8.8 C 4.79 g/m*3 8.8 C 0 km/h
1673 10-03-2011 22:47:03 8.9 C 4.91 g/m*3 8.9 C 0 km/h
1674 10-03-2011 22:59:03 8.7 C 4.84 g/m*3 8.7 C 0 km/h
1675 10-03-2011 23:11:03 8.9 C 4.82 g/m*3 8.9 C 0 km/h
Sensor: Nr:Datum:Temp:Abs-Feuchte:Windchill:Wind:
Aussen-T/F 1676 10-03-2011 23:23:03 8.9 C 4.82 g/m*3 8.9 C 0 km/h
1677 10-03-2011 23:35:03 9 C 4.76 g/m*3 9 C 0 km/h
1678 10-03-2011 23:47:03 8.9 C 4.82 g/m*3 8.9 C 0 km/h
1679 10-03-2011 23:59:03 9 C 4.85 g/m*3 9 C 0 km/h
1680 11-03-2011 00:11:03 8.8 C 4.87 g/m*3 8.8 C 0 km/h
1681 11-03-2011 00:23:03 8.8 C 4.87 g/m*3 8.8 C 0 km/h
1682 11-03-2011 00:35:03 8.9 C 4.91 g/m*3 8.9 C 0 km/h
1683 11-03-2011 00:47:04 8.8 C 4.96 g/m*3 8.8 C 0 km/h
1684 11-03-2011 00:59:04 8.8 C 4.96 g/m*3 8.8 C 0 km/h
1685 11-03-2011 01:11:04 8.7 C 4.93 g/m*3 8.7 C 0 km/h
1686 11-03-2011 01:23:04 8.7 C 4.93 g/m*3 8.7 C 0 km/h
1687 11-03-2011 01:35:04 8.7 C 5.02 g/m*3 8.7 C 0 km/h
1688 11-03-2011 01:47:04 8.6 C 4.98 g/m*3 8.6 C 0 km/h
1689 11-03-2011 01:59:04 8.7 C 5.02 g/m*3 8.7 C 0 km/h
1690 11-03-2011 02:11:04 8.6 C 4.98 g/m*3 8.6 C 0 km/h
1691 11-03-2011 02:23:04 8.6 C 5.07 g/m*3 8.6 C 0 km/h
1692 11-03-2011 02:35:04 8.6 C 5.07 g/m*3 8.6 C 0 km/h
1693 11-03-2011 02:47:04 8.6 C 5.07 g/m*3 8.6 C 0 km/h
1694 11-03-2011 02:59:04 8.6 C 5.07 g/m*3 8.6 C 0 km/h
1695 11-03-2011 03:11:04 8.5 C 5.04 g/m*3 8.5 C 0 km/h
1696 11-03-2011 03:23:04 8.7 C 5.1 g/m*3 8.7 C 0 km/h
1697 11-03-2011 03:35:04 8.5 C 5.12 g/m*3 8.5 C 0 km/h
1698 11-03-2011 03:47:04 8.3 C 5.14 g/m*3 8.3 C 0 km/h
1699 11-03-2011 03:59:04 8.4 C 5.34 g/m*3 8.4 C 0 km/h
1700 11-03-2011 04:11:04 8.4 C 5.26 g/m*3 8.4 C 0 km/h
Sensor: Nr:Datum:Temp:Abs-Feuchte:Windchill:Wind:
Aussen-T/F 1701 11-03-2011 04:23:04 8.2 C 5.19 g/m*3 8.2 C 0 km/h
1702 11-03-2011 04:35:04 8.2 C 5.36 g/m*3 8.2 C 0 km/h
1703 11-03-2011 04:47:05 8.2 C 5.36 g/m*3 8.2 C 0 km/h
1704 11-03-2011 04:59:05 8.1 C 5.33 g/m*3 8.1 C 0 km/h
1705 11-03-2011 05:11:05 8.2 C 5.28 g/m*3 8.2 C 0 km/h
1706 11-03-2011 05:23:05 8.6 C 5.24 g/m*3 8.6 C 0 km/h
1707 11-03-2011 05:35:05 8.5 C 5.21 g/m*3 8.5 C 0 km/h
1708 11-03-2011 05:47:05 8.5 C 5.21 g/m*3 8.5 C 0 km/h
1709 11-03-2011 05:59:05 8.2 C 5.11 g/m*3 8.2 C 0 km/h
1710 11-03-2011 06:11:05 7.8 C 5.3 g/m*3 7.8 C 0 km/h
1711 11-03-2011 06:23:05 7.8 C 5.3 g/m*3 7.8 C 0 km/h
1712 11-03-2011 06:35:05 8.5 C 5.29 g/m*3 8.5 C 0 km/h
1713 11-03-2011 06:47:05 8.4 C 5.17 g/m*3 8.4 C 0 km/h
1714 11-03-2011 06:59:05 8.4 C 5.09 g/m*3 8.4 C 0 km/h
1715 11-03-2011 07:11:05 8.4 C 5.09 g/m*3 8.4 C 0 km/h
1716 11-03-2011 07:23:02 8.7 C 5.1 g/m*3 8.7 C 0 km/h
1717 11-03-2011 07:35:03 8.7 C 5.1 g/m*3 8.7 C 0 km/h
1718 11-03-2011 07:47:02 8.7 C 5.1 g/m*3 8.7 C 0 km/h
1719 11-03-2011 07:59:02 8.7 C 5.1 g/m*3 8.7 C 0 km/h
1720 11-03-2011 08:11:02 8.7 C 5.1 g/m*3 8.7 C 0 km/h
1721 11-03-2011 08:23:02 8.8 C 5.14 g/m*3 8.8 C 0 km/h
1722 11-03-2011 08:35:02 8.9 C 5.17 g/m*3 8.9 C 0 km/h
1723 11-03-2011 08:47:01 8.9 C 5.08 g/m*3 8.9 C 0 km/h
1724 11-03-2011 08:59:01 8.9 C 5.08 g/m*3 8.9 C 0 km/h
1725 11-03-2011 09:11:02 9.2 C 5 g/m*3 9.2 C 0 km/h
Sensor: Nr:Datum:Temp:Abs-Feuchte:Windchill:Wind:
Aussen-T/F 1726 11-03-2011 09:23:02 9.2 C 4.91 g/m*3 9.2 C 0 km/h
1727 11-03-2011 09:35:02 9.2 C 4.91 g/m*3 9.2 C 0 km/h
1728 11-03-2011 09:47:02 9.3 C 4.94 g/m*3 9.3 C 0 km/h
1729 11-03-2011 09:59:02 9.8 C 5.01 g/m*3 9.8 C 0 km/h
1730 11-03-2011 10:11:01 10.2 C 4.85 g/m*3 10.2 C 0 km/h
1731 11-03-2011 10:23:02 10.4 C 4.92 g/m*3 10.4 C 0 km/h
1732 11-03-2011 10:35:01 10.2 C 4.76 g/m*3 10.2 C 0 km/h
1733 11-03-2011 10:47:02 10.6 C 4.68 g/m*3 10.6 C 0 km/h
1734 11-03-2011 10:59:03 10.9 C 4.77 g/m*3 10.9 C 0 km/h
1735 11-03-2011 11:11:02 10.8 C 4.65 g/m*3 10.8 C 0 km/h
1736 11-03-2011 11:23:02 11.2 C 4.66 g/m*3 11.2 C 0 km/h
1737 11-03-2011 11:35:02 10.7 C 4.52 g/m*3 10.7 C 0 km/h
1738 11-03-2011 11:47:02 11 C 4.4 g/m*3 11 C 0 km/h
1739 11-03-2011 11:59:02 10.9 C 4.38 g/m*3 10.9 C 0 km/h
1740 11-03-2011 12:11:02 10.7 C 4.22 g/m*3 10.7 C 0 km/h
1741 11-03-2011 12:23:01 11.5 C 4.34 g/m*3 11.5 C 0 km/h
1742 11-03-2011 12:35:02 11.1 C 4.13 g/m*3 11.1 C 0 km/h
1743 11-03-2011 12:47:02 11.2 C 3.95 g/m*3 11.2 C 0 km/h
1744 11-03-2011 12:59:02 11.7 C 4.08 g/m*3 11.7 C 0 km/h
1745 11-03-2011 13:11:02 11.7 C 3.87 g/m*3 11.7 C 0 km/h
1746 11-03-2011 13:23:01 12 C 3.73 g/m*3 12 C 0 km/h
1747 11-03-2011 13:35:02 11.5 C 3.93 g/m*3 11.5 C 0 km/h
1748 11-03-2011 13:47:02 11.2 C 4.05 g/m*3 11.2 C 0 km/h
1749 11-03-2011 13:59:02 11.1 C 3.83 g/m*3 11.1 C 0 km/h
1750 11-03-2011 14:11:03 11.1 C 3.93 g/m*3 11.1 C 0 km/h
Sensor: Nr:Datum:Temp:Abs-Feuchte:Windchill:Wind:
Aussen-T/F 1751 11-03-2011 14:23:02 11.1 C 3.93 g/m*3 11.1 C 0 km/h
1752 11-03-2011 14:35:02 11.2 C 3.95 g/m*3 11.2 C 0 km/h
1753 11-03-2011 14:47:02 11.2 C 3.95 g/m*3 11.2 C 0 km/h
1754 11-03-2011 14:59:02 11.1 C 3.83 g/m*3 11.1 C 0 km/h
1755 11-03-2011 15:11:02 11.2 C 3.85 g/m*3 11.2 C 0 km/h
1756 11-03-2011 15:23:02 11.2 C 3.85 g/m*3 11.2 C 0 km/h
1757 11-03-2011 15:35:01 11.2 C 3.85 g/m*3 11.2 C 0 km/h
1758 11-03-2011 15:47:02 11.1 C 3.83 g/m*3 11.1 C 0 km/h
1759 11-03-2011 15:59:02 11 C 3.9 g/m*3 11 C 0 km/h
1760 11-03-2011 16:11:01 11 C 3.9 g/m*3 11 C 0 km/h
1761 11-03-2011 16:23:01 11.1 C 3.93 g/m*3 11.1 C 0 km/h
1762 11-03-2011 16:35:02 11.1 C 3.73 g/m*3 11.1 C 0 km/h
1763 11-03-2011 16:47:02 11.2 C 3.75 g/m*3 11.2 C 0 km/h
1764 11-03-2011 16:59:02 11.2 C 3.55 g/m*3 11.2 C 0 km/h
1765 11-03-2011 17:11:23 11 C 3.6 g/m*3 11 C 0 km/h
1766 11-03-2011 17:23:23 10.9 C 3.68 g/m*3 10.9 C 0 km/h
1767 11-03-2011 17:35:23 11 C 3.7 g/m*3 11 C 0 km/h
1768 11-03-2011 17:47:23 10.6 C 3.61 g/m*3 10.6 C 0 km/h
1769 11-03-2011 17:59:23 10.5 C 3.59 g/m*3 10.5 C 0 km/h
1770 11-03-2011 18:11:01 10.2 C 3.52 g/m*3 10.2 C 0 km/h
1771 11-03-2011 18:23:01 9.9 C 3.73 g/m*3 9.9 C 0 km/h
1772 11-03-2011 18:35:01 9.6 C 3.76 g/m*3 9.6 C 0 km/h
1773 11-03-2011 18:47:02 9.4 C 3.8 g/m*3 9.4 C 0 km/h
1774 11-03-2011 18:59:02 9.1 C 4.08 g/m*3 9.1 C 0 km/h
1775 11-03-2011 19:11:03 8.6 C 4.21 g/m*3 8.6 C 0 km/h
Sensor: Nr:Datum:Temp:Abs-Feuchte:Windchill:Wind:
Aussen-T/F 1776 11-03-2011 19:23:02 8.4 C 4.33 g/m*3 8.4 C 0 km/h
1777 11-03-2011 19:35:03 8.2 C 4.35 g/m*3 8.2 C 0 km/h
1778 11-03-2011 19:47:01 8 C 4.38 g/m*3 8 C 0 km/h
1779 11-03-2011 19:59:01 7.8 C 4.41 g/m*3 7.8 C 0 km/h
1780 11-03-2011 20:11:02 7.6 C 4.35 g/m*3 7.6 C 0 km/h
1781 11-03-2011 20:23:01 7.1 C 4.21 g/m*3 7.1 C 0 km/h
1782 11-03-2011 20:35:02 7 C 4.34 g/m*3 7 C 0 km/h
1783 11-03-2011 20:47:02 6.4 C 4.47 g/m*3 6.4 C 0 km/h
1784 11-03-2011 20:59:02 6 C 4.35 g/m*3 6 C 0 km/h
1785 11-03-2011 21:11:02 5.5 C 4.42 g/m*3 5.5 C 0 km/h
1786 11-03-2011 21:23:03 5 C 4.42 g/m*3 5 C 0 km/h
1787 11-03-2011 21:35:02 4.7 C 4.46 g/m*3 4.7 C 0 km/h
1788 11-03-2011 21:47:03 4.9 C 4.66 g/m*3 4.9 C 0 km/h
1789 11-03-2011 21:59:03 4.3 C 4.48 g/m*3 4.3 C 0 km/h
1790 11-03-2011 22:11:02 3.8 C 4.52 g/m*3 3.8 C 0 km/h
1791 11-03-2011 22:24:04 3.5 C 4.55 g/m*3 3.5 C 0 km/h
1792 11-03-2011 22:36:04 3.4 C 4.58 g/m*3 3.4 C 0 km/h
1793 11-03-2011 22:48:04 3.3 C 4.61 g/m*3 3.3 C 0 km/h
1794 11-03-2011 23:00:04 2.9 C 4.61 g/m*3 2.9 C 0 km/h
1795 11-03-2011 23:12:04 2.4 C 4.45 g/m*3 2.4 C 0 km/h
1796 11-03-2011 23:24:04 2.2 C 4.45 g/m*3 2.2 C 0 km/h
1797 11-03-2011 23:36:04 1.9 C 4.42 g/m*3 1.9 C 0 km/h
1798 11-03-2011 23:48:04 1.8 C 4.44 g/m*3 1.8 C 0 km/h
1799 12-03-2011 00:00:04 1.6 C 4.43 g/m*3 1.6 C 0 km/h
1800 12-03-2011 00:12:04 1.2 C 4.31 g/m*3 1.2 C 0 km/h
Sensor: Nr:Datum:Temp:Abs-Feuchte:Windchill:Wind:
Aussen-T/F 1801 12-03-2011 00:24:04 0.8 C 4.25 g/m*3 0.8 C 0 km/h
1802 12-03-2011 00:36:04 0.5 C 4.16 g/m*3 0.5 C 0 km/h
1803 12-03-2011 00:48:04 0.5 C 4.21 g/m*3 0.5 C 0 km/h
1804 12-03-2011 01:00:04 0.4 C 4.18 g/m*3 0.4 C 0 km/h
1805 12-03-2011 01:12:04 0.3 C 4.16 g/m*3 0.3 C 0 km/h
1806 12-03-2011 01:24:04 0.3 C 4.2 g/m*3 0.3 C 0 km/h
1807 12-03-2011 01:36:05 0.1 C 4.15 g/m*3 0.1 C 0 km/h
1808 12-03-2011 01:48:05 0 C 4.12 g/m*3 0 C 0 km/h
1809 12-03-2011 02:00:05 -0.2 C 4.11 g/m*3 -0.2 C 0 km/h
1810 12-03-2011 02:12:05 -0.2 C 4.11 g/m*3 -0.2 C 0 km/h
1811 12-03-2011 02:24:05 -0.3 C 4.08 g/m*3 -0.3 C 0 km/h
1812 12-03-2011 02:36:05 -0.3 C 4.13 g/m*3 -0.3 C 0 km/h
1813 12-03-2011 02:48:05 -0.6 C 4.04 g/m*3 -0.6 C 0 km/h
1814 12-03-2011 03:00:05 -0.6 C 4.04 g/m*3 -0.6 C 0 km/h
1815 12-03-2011 03:12:05 -0.7 C 4.02 g/m*3 -0.7 C 0 km/h
1816 12-03-2011 03:24:05 -0.9 C 3.96 g/m*3 -0.9 C 0 km/h
1817 12-03-2011 03:36:05 -1 C 3.93 g/m*3 -1 C 0 km/h
1818 12-03-2011 03:48:05 -0.5 C 4.12 g/m*3 -0.5 C 0 km/h
1819 12-03-2011 04:00:05 -1 C 3.93 g/m*3 -1 C 0 km/h
1820 12-03-2011 04:12:05 -1.2 C 3.92 g/m*3 -1.2 C 0 km/h
1821 12-03-2011 04:24:05 -1.3 C 3.9 g/m*3 -1.3 C 0 km/h
1822 12-03-2011 04:36:05 -1.4 C 3.87 g/m*3 -1.4 C 0 km/h
1823 12-03-2011 04:48:05 -1.3 C 3.9 g/m*3 -1.3 C 0 km/h
1824 12-03-2011 05:00:05 -1.4 C 3.87 g/m*3 -1.4 C 0 km/h
1825 12-03-2011 05:12:05 -1.5 C 3.84 g/m*3 -1.5 C 0 km/h
Sensor: Nr:Datum:Temp:Abs-Feuchte:Windchill:Wind:
Aussen-T/F 1826 12-03-2011 05:24:05 -1.5 C 3.84 g/m*3 -1.5 C 0 km/h
1827 12-03-2011 05:36:06 -1.8 C 3.76 g/m*3 -1.8 C 0 km/h
1828 12-03-2011 05:48:06 -1.9 C 3.74 g/m*3 -1.9 C 0 km/h
1829 12-03-2011 06:00:06 -2 C 3.71 g/m*3 -2 C 0 km/h
1830 12-03-2011 06:12:06 -2 C 3.71 g/m*3 -2 C 0 km/h
1831 12-03-2011 06:24:06 -2.1 C 3.68 g/m*3 -2.1 C 0 km/h
1832 12-03-2011 06:36:06 -1.8 C 3.76 g/m*3 -1.8 C 0 km/h
1833 12-03-2011 06:48:06 -1.9 C 3.78 g/m*3 -1.9 C 0 km/h
1834 12-03-2011 07:00:06 -2.2 C 3.7 g/m*3 -2.2 C 0 km/h
1835 12-03-2011 07:12:06 -2.3 C 3.67 g/m*3 -2.3 C 0 km/h
1836 12-03-2011 07:24:06 -2 C 3.75 g/m*3 -2 C 0 km/h
1837 12-03-2011 07:36:04 -1.9 C 3.78 g/m*3 -1.9 C 0 km/h
1838 12-03-2011 07:48:02 -1.6 C 3.86 g/m*3 -1.6 C 0 km/h
1839 12-03-2011 08:00:02 -1.2 C 3.97 g/m*3 -1.2 C 0 km/h
1840 12-03-2011 08:12:02 -0.6 C 4.18 g/m*3 -0.6 C 0 km/h
1841 12-03-2011 08:24:02 -0.2 C 4.3 g/m*3 -0.2 C 0 km/h
1842 12-03-2011 08:36:02 0.1 C 4.39 g/m*3 0.1 C 0 km/h
1843 12-03-2011 08:48:02 0.3 C 4.45 g/m*3 0.3 C 0 km/h
1844 12-03-2011 09:00:02 0.5 C 4.51 g/m*3 0.5 C 0 km/h
1845 12-03-2011 09:12:02 1.2 C 4.68 g/m*3 1.2 C 0 km/h
1846 12-03-2011 09:24:02 1.7 C 4.85 g/m*3 1.7 C 0 km/h
1847 12-03-2011 09:36:02 2.3 C 4.99 g/m*3 2.3 C 0 km/h
1848 12-03-2011 09:48:02 3.1 C 5.15 g/m*3 3.1 C 0 km/h
1849 12-03-2011 10:00:02 3.7 C 5.23 g/m*3 3.7 C 0 km/h
1850 12-03-2011 10:12:02 4.3 C 5.32 g/m*3 4.3 C 0 km/h
Sensor: Nr:Datum:Temp:Abs-Feuchte:Windchill:Wind:
Aussen-T/F 1851 12-03-2011 10:24:02 6 C 5.44 g/m*3 6 C 0 km/h
1852 12-03-2011 10:36:02 7 C 5.27 g/m*3 7 C 0 km/h
1853 12-03-2011 10:48:02 7.6 C 5.08 g/m*3 7.6 C 0 km/h
1854 12-03-2011 11:00:02 8.5 C 5.12 g/m*3 8.5 C 0 km/h
1855 12-03-2011 11:12:01 10 C 4.98 g/m*3 10 C 0 km/h
1856 12-03-2011 11:24:02 10.9 C 4.77 g/m*3 10.9 C 0 km/h
1857 12-03-2011 11:36:02 11.8 C 4.74 g/m*3 11.8 C 0 km/h
1858 12-03-2011 11:48:02 12.5 C 4.62 g/m*3 12.5 C 0 km/h
1859 12-03-2011 12:00:02 13 C 4.31 g/m*3 13 C 0 km/h
1860 12-03-2011 12:12:02 13.7 C 4.5 g/m*3 13.7 C 0 km/h
1861 12-03-2011 12:24:02 14.8 C 4.43 g/m*3 14.8 C 0 km/h
1862 12-03-2011 12:36:02 15.6 C 4.65 g/m*3 15.6 C 0 km/h
1863 12-03-2011 12:48:01 15.9 C 4.33 g/m*3 15.9 C 0 km/h
1864 12-03-2011 13:00:01 15.3 C 4.44 g/m*3 15.3 C 0 km/h
1865 12-03-2011 13:12:01 15.3 C 4.44 g/m*3 15.3 C 0 km/h
1866 12-03-2011 13:24:01 16.8 C 4.58 g/m*3 16.8 C 0 km/h
1867 12-03-2011 13:36:01 16.8 C 4.58 g/m*3 16.8 C 0 km/h
1868 12-03-2011 13:48:01 16.6 C 4.24 g/m*3 16.6 C 0 km/h
1869 12-03-2011 14:00:01 16 C 4.09 g/m*3 16 C 0 km/h
1870 12-03-2011 14:12:01 16.9 C 4.31 g/m*3 16.9 C 0 km/h
1871 12-03-2011 14:24:02 16.7 C 4.41 g/m*3 16.7 C 0 km/h
1872 12-03-2011 14:36:01 16.8 C 4.29 g/m*3 16.8 C 0 km/h
1873 12-03-2011 14:48:03 16.5 C 4.49 g/m*3 16.5 C 0 km/h
1874 12-03-2011 15:00:03 16.4 C 4.47 g/m*3 16.4 C 0 km/h
1875 12-03-2011 15:12:02 15.6 C 4.26 g/m*3 15.6 C 0 km/h
Sensor: Nr:Datum:Temp:Abs-Feuchte:Windchill:Wind:
Aussen-T/F 1876 12-03-2011 15:24:03 16.2 C 4.41 g/m*3 16.2 C 0 km/h
1877 12-03-2011 15:36:02 16.2 C 4.41 g/m*3 16.2 C 0 km/h
1878 12-03-2011 15:48:02 17.1 C 4.37 g/m*3 17.1 C 0 km/h
1879 12-03-2011 16:00:02 17 C 4.49 g/m*3 17 C 0 km/h
1880 12-03-2011 16:12:02 17.4 C 4.45 g/m*3 17.4 C 0 km/h
1881 12-03-2011 16:24:02 18.5 C 4.27 g/m*3 18.5 C 0 km/h
1882 12-03-2011 16:36:03 18.6 C 4.3 g/m*3 18.6 C 0 km/h
1883 12-03-2011 16:48:02 18.6 C 4.3 g/m*3 18.6 C 0 km/h
1884 12-03-2011 17:00:02 17.9 C 4.28 g/m*3 17.9 C 0 km/h
1885 12-03-2011 17:12:01 16.3 C 4.58 g/m*3 16.3 C 0 km/h
1886 12-03-2011 17:24:02 14.7 C 4.91 g/m*3 14.7 C 0 km/h
1887 12-03-2011 17:36:02 13.6 C 5.06 g/m*3 13.6 C 0 km/h
1888 12-03-2011 17:48:02 12.4 C 5.14 g/m*3 12.4 C 0 km/h
1889 12-03-2011 18:00:02 11.4 C 5.13 g/m*3 11.4 C 0 km/h
1890 12-03-2011 18:12:03 11.2 C 5.17 g/m*3 11.2 C 0 km/h
1891 12-03-2011 18:24:02 10.9 C 5.27 g/m*3 10.9 C 0 km/h
1892 12-03-2011 18:36:03 10.8 C 5.24 g/m*3 10.8 C 0 km/h
1893 12-03-2011 18:48:01 10.6 C 5.17 g/m*3 10.6 C 0 km/h
1894 12-03-2011 19:00:01 10.7 C 5.01 g/m*3 10.7 C 0 km/h
1895 12-03-2011 19:12:02 10.7 C 4.71 g/m*3 10.7 C 0 km/h
1896 12-03-2011 19:24:02 10.8 C 4.55 g/m*3 10.8 C 0 km/h
1897 12-03-2011 19:36:02 11 C 4.3 g/m*3 11 C 0 km/h
1898 12-03-2011 19:48:02 11.2 C 4.56 g/m*3 11.2 C 0 km/h
1899 12-03-2011 20:00:02 10.7 C 4.42 g/m*3 10.7 C 0 km/h
1900 12-03-2011 20:12:03 11.1 C 4.23 g/m*3 11.1 C 0 km/h
Sensor: Nr:Datum:Temp:Abs-Feuchte:Windchill:Wind:
Aussen-T/F 1901 12-03-2011 20:24:02 11.4 C 4.21 g/m*3 11.4 C 0 km/h
1902 12-03-2011 20:36:02 11.7 C 4.29 g/m*3 11.7 C 0 km/h
1903 12-03-2011 20:48:01 11.8 C 4.32 g/m*3 11.8 C 0 km/h
1904 12-03-2011 21:00:01 12.3 C 4.13 g/m*3 12.3 C 0 km/h
1905 12-03-2011 21:12:02 12.1 C 4.29 g/m*3 12.1 C 0 km/h
1906 12-03-2011 21:24:01 12.5 C 4.29 g/m*3 12.5 C 0 km/h
1907 12-03-2011 21:36:01 12.4 C 4.37 g/m*3 12.4 C 0 km/h
1908 12-03-2011 21:48:01 11.8 C 4.42 g/m*3 11.8 C 0 km/h
1909 12-03-2011 22:00:01 12.2 C 4.53 g/m*3 12.2 C 0 km/h
1910 12-03-2011 22:13:02 11.8 C 4.53 g/m*3 11.8 C 0 km/h
1911 12-03-2011 22:25:02 12.5 C 4.51 g/m*3 12.5 C 0 km/h
1912 12-03-2011 22:37:02 12.2 C 4.53 g/m*3 12.2 C 0 km/h
1913 12-03-2011 22:49:02 11.8 C 4.63 g/m*3 11.8 C 0 km/h
1914 12-03-2011 23:01:02 11.4 C 4.72 g/m*3 11.4 C 0 km/h
1915 12-03-2011 23:13:02 11.4 C 4.72 g/m*3 11.4 C 0 km/h
1916 12-03-2011 23:25:02 11.2 C 4.66 g/m*3 11.2 C 0 km/h
1917 12-03-2011 23:37:02 11 C 4.8 g/m*3 11 C 0 km/h
1918 12-03-2011 23:49:02 10.7 C 5.01 g/m*3 10.7 C 0 km/h
1919 13-03-2011 00:01:02 10.5 C 5.14 g/m*3 10.5 C 0 km/h
1920 13-03-2011 00:13:02 10 C 5.45 g/m*3 10 C 0 km/h
1921 13-03-2011 00:25:02 10.1 C 5.58 g/m*3 10.1 C 0 km/h
1922 13-03-2011 00:37:02 9.8 C 5.66 g/m*3 9.8 C 0 km/h
1923 13-03-2011 00:49:02 10.1 C 5.58 g/m*3 10.1 C 0 km/h
1924 13-03-2011 01:01:02 9.7 C 5.62 g/m*3 9.7 C 0 km/h
1925 13-03-2011 01:13:02 9.8 C 5.66 g/m*3 9.8 C 0 km/h
Sensor: Nr:Datum:Temp:Abs-Feuchte:Windchill:Wind:
Aussen-T/F 1926 13-03-2011 01:25:02 10.1 C 5.58 g/m*3 10.1 C 0 km/h
1927 13-03-2011 01:37:02 10.8 C 5.63 g/m*3 10.8 C 0 km/h
1928 13-03-2011 01:49:02 10.7 C 5.6 g/m*3 10.7 C 0 km/h
1929 13-03-2011 02:01:02 10.9 C 5.77 g/m*3 10.9 C 0 km/h
1930 13-03-2011 02:13:02 10.7 C 5.7 g/m*3 10.7 C 0 km/h
1931 13-03-2011 02:25:03 10.5 C 5.82 g/m*3 10.5 C 0 km/h
1932 13-03-2011 02:37:03 10.5 C 5.82 g/m*3 10.5 C 0 km/h
1933 13-03-2011 02:49:03 10.4 C 5.88 g/m*3 10.4 C 0 km/h
1934 13-03-2011 03:01:03 10.5 C 5.82 g/m*3 10.5 C 0 km/h
1935 13-03-2011 03:13:03 10 C 5.73 g/m*3 10 C 0 km/h
1936 13-03-2011 03:25:03 9.7 C 5.9 g/m*3 9.7 C 0 km/h
1937 13-03-2011 03:37:03 9.8 C 5.85 g/m*3 9.8 C 0 km/h
1938 13-03-2011 03:49:03 9.9 C 5.98 g/m*3 9.9 C 0 km/h
1939 13-03-2011 04:01:03 9.8 C 5.85 g/m*3 9.8 C 0 km/h
1940 13-03-2011 04:13:03 9.6 C 5.86 g/m*3 9.6 C 0 km/h
1941 13-03-2011 04:25:03 9 C 5.99 g/m*3 9 C 0 km/h
1942 13-03-2011 04:37:03 8.5 C 6.49 g/m*3 8.5 C 0 km/h
1943 13-03-2011 04:49:03 8.4 C 6.79 g/m*3 8.4 C 0 km/h
1944 13-03-2011 05:01:03 8.1 C 6.74 g/m*3 8.1 C 0 km/h
1945 13-03-2011 05:13:03 8 C 6.86 g/m*3 8 C 0 km/h
1946 13-03-2011 05:25:03 7.9 C 6.98 g/m*3 7.9 C 0 km/h
1947 13-03-2011 05:37:03 7.8 C 6.94 g/m*3 7.8 C 0 km/h
1948 13-03-2011 05:49:03 7.7 C 6.97 g/m*3 7.7 C 0 km/h
1949 13-03-2011 06:01:03 7.6 C 6.93 g/m*3 7.6 C 0 km/h
1950 13-03-2011 06:13:03 7.9 C 7.06 g/m*3 7.9 C 0 km/h
Sensor: Nr:Datum:Temp:Abs-Feuchte:Windchill:Wind:
Aussen-T/F 1951 13-03-2011 06:25:03 7.8 C 7.02 g/m*3 7.8 C 0 km/h
1952 13-03-2011 06:37:04 7.6 C 6.93 g/m*3 7.6 C 0 km/h
1953 13-03-2011 06:49:04 7.6 C 6.85 g/m*3 7.6 C 0 km/h
1954 13-03-2011 07:01:02 7.6 C 6.85 g/m*3 7.6 C 0 km/h
1955 13-03-2011 07:13:02 7.8 C 6.94 g/m*3 7.8 C 0 km/h
1956 13-03-2011 07:25:02 7.8 C 6.94 g/m*3 7.8 C 0 km/h
1957 13-03-2011 07:37:02 7.9 C 6.9 g/m*3 7.9 C 0 km/h
1958 13-03-2011 07:49:01 8 C 6.86 g/m*3 8 C 0 km/h
1959 13-03-2011 08:01:02 8.1 C 6.91 g/m*3 8.1 C 0 km/h
1960 13-03-2011 08:13:02 8.4 C 6.96 g/m*3 8.4 C 0 km/h
1961 13-03-2011 08:25:02 8.6 C 6.96 g/m*3 8.6 C 0 km/h
1962 13-03-2011 08:37:02 9.1 C 6.83 g/m*3 9.1 C 0 km/h
1963 13-03-2011 08:49:02 9.4 C 6.78 g/m*3 9.4 C 0 km/h
1964 13-03-2011 09:01:02 9.9 C 6.72 g/m*3 9.9 C 0 km/h
1965 13-03-2011 09:13:02 10.3 C 6.51 g/m*3 10.3 C 0 km/h
1966 13-03-2011 09:25:01 10.8 C 6.52 g/m*3 10.8 C 0 km/h
1967 13-03-2011 09:37:02 11.3 C 6.53 g/m*3 11.3 C 0 km/h
1968 13-03-2011 09:49:01 12 C 6.39 g/m*3 12 C 0 km/h
1969 13-03-2011 10:01:02 12.4 C 6.34 g/m*3 12.4 C 0 km/h
1970 13-03-2011 10:13:02 12.7 C 6.35 g/m*3 12.7 C 0 km/h
1971 13-03-2011 10:25:02 12.5 C 5.83 g/m*3 12.5 C 0 km/h
1972 13-03-2011 10:37:02 12.8 C 5.94 g/m*3 12.8 C 0 km/h
1973 13-03-2011 10:49:02 12.8 C 6.05 g/m*3 12.8 C 0 km/h
1974 13-03-2011 11:01:01 13.3 C 5.89 g/m*3 13.3 C 0 km/h
1975 13-03-2011 11:13:01 14.1 C 5.7 g/m*3 14.1 C 0 km/h
Sensor: Nr:Datum:Temp:Abs-Feuchte:Windchill:Wind:
Aussen-T/F 1976 13-03-2011 11:25:02 14.3 C 5.77 g/m*3 14.3 C 0 km/h
1977 13-03-2011 11:37:01 15.1 C 5.81 g/m*3 15.1 C 0 km/h
1978 13-03-2011 11:49:02 14.9 C 5.61 g/m*3 14.9 C 0 km/h
1979 13-03-2011 12:01:01 14.7 C 5.67 g/m*3 14.7 C 0 km/h
1980 13-03-2011 12:13:01 14.7 C 5.54 g/m*3 14.7 C 0 km/h
1981 13-03-2011 12:25:01 14.3 C 5.53 g/m*3 14.3 C 0 km/h
1982 13-03-2011 12:37:02 14.4 C 5.44 g/m*3 14.4 C 0 km/h
1983 13-03-2011 12:49:02 15.6 C 5.45 g/m*3 15.6 C 0 km/h
1984 13-03-2011 13:01:02 15.2 C 5.32 g/m*3 15.2 C 0 km/h
1985 13-03-2011 13:13:02 15 C 5.13 g/m*3 15 C 0 km/h
1986 13-03-2011 13:25:02 15 C 5.26 g/m*3 15 C 0 km/h
1987 13-03-2011 13:37:02 14.2 C 5.37 g/m*3 14.2 C 0 km/h
1988 13-03-2011 13:49:02 14.1 C 5.58 g/m*3 14.1 C 0 km/h
1989 13-03-2011 14:01:02 14.5 C 5.6 g/m*3 14.5 C 0 km/h
1990 13-03-2011 14:13:02 14.9 C 5.48 g/m*3 14.9 C 0 km/h
1991 13-03-2011 14:25:02 15.2 C 5.19 g/m*3 15.2 C 0 km/h
1992 13-03-2011 14:37:02 15.6 C 5.45 g/m*3 15.6 C 0 km/h
1993 13-03-2011 14:49:02 15.4 C 5.26 g/m*3 15.4 C 0 km/h
1994 13-03-2011 15:01:02 15.5 C 5.42 g/m*3 15.5 C 0 km/h
1995 13-03-2011 15:13:02 16.2 C 5.24 g/m*3 16.2 C 0 km/h
1996 13-03-2011 15:25:03 15.6 C 5.19 g/m*3 15.6 C 0 km/h
1997 13-03-2011 15:37:02 14.8 C 5.32 g/m*3 14.8 C 0 km/h
1998 13-03-2011 15:49:02 14.7 C 5.41 g/m*3 14.7 C 0 km/h
1999 13-03-2011 16:01:02 15 C 5.39 g/m*3 15 C 0 km/h
2000 13-03-2011 16:13:02 14.8 C 5.45 g/m*3 14.8 C 0 km/h
Sensor: Nr:Datum:Temp:Abs-Feuchte:Windchill:Wind:
Aussen-T/F 2001 13-03-2011 16:25:02 14.8 C 5.45 g/m*3 14.8 C 0 km/h
2002 13-03-2011 16:37:02 14.1 C 5.46 g/m*3 14.1 C 0 km/h
2003 13-03-2011 16:49:02 13.8 C 5.6 g/m*3 13.8 C 0 km/h
2004 13-03-2011 17:01:02 13.5 C 5.97 g/m*3 13.5 C 0 km/h
2005 13-03-2011 17:13:02 13.2 C 5.97 g/m*3 13.2 C 0 km/h
2006 13-03-2011 17:25:02 12.8 C 5.94 g/m*3 12.8 C 0 km/h
2007 13-03-2011 17:37:01 12.6 C 6.08 g/m*3 12.6 C 0 km/h
2008 13-03-2011 17:49:02 12.4 C 6.23 g/m*3 12.4 C 0 km/h
2009 13-03-2011 18:01:01 12 C 6.18 g/m*3 12 C 0 km/h
2010 13-03-2011 18:13:01 11.8 C 6.31 g/m*3 11.8 C 0 km/h
2011 13-03-2011 18:25:02 11.4 C 6.36 g/m*3 11.4 C 0 km/h
2012 13-03-2011 18:37:02 11.2 C 6.39 g/m*3 11.2 C 0 km/h
2013 13-03-2011 18:49:02 11.2 C 6.39 g/m*3 11.2 C 0 km/h
2014 13-03-2011 19:01:03 11.2 C 6.39 g/m*3 11.2 C 0 km/h
2015 13-03-2011 19:13:03 11.2 C 6.39 g/m*3 11.2 C 0 km/h
2016 13-03-2011 19:25:02 11 C 6.41 g/m*3 11 C 0 km/h
2017 13-03-2011 19:37:02 10.3 C 6.8 g/m*3 10.3 C 0 km/h
2018 13-03-2011 19:49:01 10.1 C 7.19 g/m*3 10.1 C 0 km/h
2019 13-03-2011 20:01:02 9.9 C 7.56 g/m*3 9.9 C 0 km/h
2020 13-03-2011 20:13:02 9.7 C 7.65 g/m*3 9.7 C 0 km/h
2021 13-03-2011 20:25:01 9.6 C 7.69 g/m*3 9.6 C 0 km/h
2022 13-03-2011 20:37:01 9.5 C 7.74 g/m*3 9.5 C 0 km/h
2023 13-03-2011 20:49:01 9.4 C 7.78 g/m*3 9.4 C 0 km/h
2024 13-03-2011 21:01:02 9.4 C 7.78 g/m*3 9.4 C 0 km/h
2025 13-03-2011 21:13:02 9.3 C 7.73 g/m*3 9.3 C 0 km/h
Sensor: Nr:Datum:Temp:Abs-Feuchte:Windchill:Wind:
Aussen-T/F 2026 13-03-2011 21:25:01 9.3 C 7.82 g/m*3 9.3 C 0 km/h
2027 13-03-2011 21:37:01 9.1 C 7.72 g/m*3 9.1 C 0 km/h
2028 13-03-2011 21:49:01 9 C 7.67 g/m*3 9 C 0 km/h
2029 13-03-2011 22:02:04 8.9 C 7.71 g/m*3 8.9 C 0 km/h
2030 13-03-2011 22:14:04 8.9 C 7.71 g/m*3 8.9 C 0 km/h
2031 13-03-2011 22:26:04 8.9 C 7.71 g/m*3 8.9 C 0 km/h
2032 13-03-2011 22:38:04 8.9 C 7.8 g/m*3 8.9 C 0 km/h
2033 13-03-2011 22:50:04 8.7 C 7.7 g/m*3 8.7 C 0 km/h
2034 13-03-2011 23:02:04 8.7 C 7.7 g/m*3 8.7 C 0 km/h
2035 13-03-2011 23:14:04 8.7 C 7.7 g/m*3 8.7 C 0 km/h
2036 13-03-2011 23:26:05 8.7 C 7.7 g/m*3 8.7 C 0 km/h
2037 13-03-2011 23:38:05 8.6 C 7.65 g/m*3 8.6 C 0 km/h
2038 13-03-2011 23:50:05 8.6 C 7.65 g/m*3 8.6 C 0 km/h
2039 14-03-2011 00:02:05 8.6 C 7.65 g/m*3 8.6 C 0 km/h
2040 14-03-2011 00:14:05 8.6 C 7.65 g/m*3 8.6 C 0 km/h
2041 14-03-2011 00:26:05 8.6 C 7.65 g/m*3 8.6 C 0 km/h
2042 14-03-2011 00:38:05 8.6 C 7.65 g/m*3 8.6 C 0 km/h
2043 14-03-2011 00:50:05 8.6 C 7.73 g/m*3 8.6 C 0 km/h
2044 14-03-2011 01:02:05 8.6 C 7.73 g/m*3 8.6 C 0 km/h
2045 14-03-2011 01:14:05 8.6 C 7.73 g/m*3 8.6 C 0 km/h
2046 14-03-2011 01:26:05 8.6 C 7.73 g/m*3 8.6 C 0 km/h
2047 14-03-2011 01:38:05 8.6 C 7.73 g/m*3 8.6 C 0 km/h
2048 14-03-2011 01:50:05 8.4 C 7.63 g/m*3 8.4 C 0 km/h
2049 14-03-2011 02:02:05 8.5 C 7.68 g/m*3 8.5 C 0 km/h
2050 14-03-2011 02:14:05 8.6 C 7.73 g/m*3 8.6 C 0 km/h
Sensor: Nr:Datum:Temp:Abs-Feuchte:Windchill:Wind:
Aussen-T/F 2051 14-03-2011 02:26:05 8.5 C 7.68 g/m*3 8.5 C 0 km/h
2052 14-03-2011 02:38:05 8.4 C 7.63 g/m*3 8.4 C 0 km/h
2053 14-03-2011 02:50:05 8.4 C 7.63 g/m*3 8.4 C 0 km/h
2054 14-03-2011 03:02:05 8.4 C 7.63 g/m*3 8.4 C 0 km/h
2055 14-03-2011 03:14:05 8.2 C 7.54 g/m*3 8.2 C 0 km/h
2056 14-03-2011 03:26:05 8.2 C 7.54 g/m*3 8.2 C 0 km/h
2057 14-03-2011 03:38:06 8.1 C 7.49 g/m*3 8.1 C 0 km/h
2058 14-03-2011 03:50:06 8.2 C 7.54 g/m*3 8.2 C 0 km/h
2059 14-03-2011 04:02:06 8.2 C 7.54 g/m*3 8.2 C 0 km/h
2060 14-03-2011 04:14:06 8.3 C 7.59 g/m*3 8.3 C 0 km/h
2061 14-03-2011 04:26:06 8.4 C 7.63 g/m*3 8.4 C 0 km/h
2062 14-03-2011 04:38:06 8.4 C 7.63 g/m*3 8.4 C 0 km/h
2063 14-03-2011 04:50:06 8.4 C 7.63 g/m*3 8.4 C 0 km/h
2064 14-03-2011 05:02:06 8.4 C 7.63 g/m*3 8.4 C 0 km/h
2065 14-03-2011 05:14:06 8.4 C 7.72 g/m*3 8.4 C 0 km/h
2066 14-03-2011 05:26:06 8.5 C 7.77 g/m*3 8.5 C 0 km/h
2067 14-03-2011 05:38:06 8.3 C 7.67 g/m*3 8.3 C 0 km/h
2068 14-03-2011 05:50:06 8.1 C 7.57 g/m*3 8.1 C 0 km/h
2069 14-03-2011 06:02:06 8 C 7.52 g/m*3 8 C 0 km/h
2070 14-03-2011 06:14:06 8 C 7.44 g/m*3 8 C 0 km/h
2071 14-03-2011 06:26:06 7.6 C 7.33 g/m*3 7.6 C 0 km/h
2072 14-03-2011 06:38:06 7.6 C 7.33 g/m*3 7.6 C 0 km/h
2073 14-03-2011 06:50:06 7.8 C 7.51 g/m*3 7.8 C 0 km/h
2074 14-03-2011 07:02:06 7.9 C 7.56 g/m*3 7.9 C 0 km/h
2075 14-03-2011 07:14:06 7.9 C 7.56 g/m*3 7.9 C 0 km/h
Sensor: Nr:Datum:Temp:Abs-Feuchte:Windchill:Wind:
Aussen-T/F 2076 14-03-2011 07:26:03 7.9 C 7.56 g/m*3 7.9 C 0 km/h
2077 14-03-2011 07:38:03 8.2 C 7.62 g/m*3 8.2 C 0 km/h
2078 14-03-2011 07:50:02 8.3 C 7.67 g/m*3 8.3 C 0 km/h
2079 14-03-2011 08:02:02 8.4 C 7.72 g/m*3 8.4 C 0 km/h
2080 14-03-2011 08:14:02 8.5 C 7.77 g/m*3 8.5 C 0 km/h
2081 14-03-2011 08:26:01 8.5 C 7.77 g/m*3 8.5 C 0 km/h
2082 14-03-2011 08:38:02 8.7 C 7.87 g/m*3 8.7 C 0 km/h
2083 14-03-2011 08:50:02 8.9 C 7.97 g/m*3 8.9 C 0 km/h
2084 14-03-2011 09:02:02 9.1 C 8.07 g/m*3 9.1 C 0 km/h
2085 14-03-2011 09:14:02 9 C 7.93 g/m*3 9 C 0 km/h
2086 14-03-2011 09:26:01 9.2 C 8.13 g/m*3 9.2 C 0 km/h
2087 14-03-2011 09:38:02 9.4 C 8.23 g/m*3 9.4 C 0 km/h
2088 14-03-2011 09:50:01 10 C 8.36 g/m*3 10 C 0 km/h
2089 14-03-2011 10:02:02 10.7 C 8.74 g/m*3 10.7 C 0 km/h
2090 14-03-2011 10:14:02 10.8 C 8.4 g/m*3 10.8 C 0 km/h
2091 14-03-2011 10:26:01 11 C 7.71 g/m*3 11 C 0 km/h
2092 14-03-2011 10:38:02 12.1 C 7.61 g/m*3 12.1 C 0 km/h
2093 14-03-2011 10:50:01 12 C 7.25 g/m*3 12 C 0 km/h
2094 14-03-2011 11:02:02 12.8 C 7.5 g/m*3 12.8 C 0 km/h
2095 14-03-2011 11:14:02 12.1 C 7.18 g/m*3 12.1 C 0 km/h
2096 14-03-2011 11:26:01 12.9 C 7.55 g/m*3 12.9 C 0 km/h
2097 14-03-2011 11:38:02 12.8 C 7.06 g/m*3 12.8 C 0 km/h
2098 14-03-2011 11:50:02 13 C 7.03 g/m*3 13 C 0 km/h
2099 14-03-2011 12:02:02 12.6 C 6.97 g/m*3 12.6 C 0 km/h
2100 14-03-2011 12:14:02 13.4 C 7.09 g/m*3 13.4 C 0 km/h
Sensor: Nr:Datum:Temp:Abs-Feuchte:Windchill:Wind:
Aussen-T/F 2101 14-03-2011 12:26:02 13 C 6.8 g/m*3 13 C 0 km/h
2102 14-03-2011 12:38:02 13 C 7.14 g/m*3 13 C 0 km/h
2103 14-03-2011 12:50:01 13.6 C 7.18 g/m*3 13.6 C 0 km/h
2104 14-03-2011 13:02:01 14.4 C 7.17 g/m*3 14.4 C 0 km/h
2105 14-03-2011 13:14:02 14.5 C 6.72 g/m*3 14.5 C 0 km/h
2106 14-03-2011 13:26:01 14.4 C 6.68 g/m*3 14.4 C 0 km/h
2107 14-03-2011 13:38:01 14 C 6.63 g/m*3 14 C 0 km/h
2108 14-03-2011 13:50:01 14 C 6.51 g/m*3 14 C 0 km/h
2109 14-03-2011 14:02:02 14.5 C 6.59 g/m*3 14.5 C 0 km/h
2110 14-03-2011 14:14:02 14.1 C 6.31 g/m*3 14.1 C 0 km/h
2111 14-03-2011 14:26:01 13.7 C 6.63 g/m*3 13.7 C 0 km/h
2112 14-03-2011 14:38:01 13.7 C 6.75 g/m*3 13.7 C 0 km/h
2113 14-03-2011 14:50:01 14 C 6.63 g/m*3 14 C 0 km/h
2114 14-03-2011 15:02:01 13.9 C 6.59 g/m*3 13.9 C 0 km/h
2115 14-03-2011 15:14:01 13.4 C 6.51 g/m*3 13.4 C 0 km/h
2116 14-03-2011 15:26:02 13.8 C 6.55 g/m*3 13.8 C 0 km/h
2117 14-03-2011 15:38:01 13.5 C 6.43 g/m*3 13.5 C 0 km/h
2118 14-03-2011 15:50:02 13.8 C 6.43 g/m*3 13.8 C 0 km/h
2119 14-03-2011 16:02:01 15.2 C 6.36 g/m*3 15.2 C 0 km/h
2120 14-03-2011 16:14:01 16.4 C 6 g/m*3 16.4 C 0 km/h
2121 14-03-2011 16:26:02 15.4 C 5.78 g/m*3 15.4 C 0 km/h
2122 14-03-2011 16:38:01 14.6 C 6.01 g/m*3 14.6 C 0 km/h
2123 14-03-2011 16:50:02 14.1 C 6.07 g/m*3 14.1 C 0 km/h
2124 14-03-2011 17:02:02 13.9 C 6.11 g/m*3 13.9 C 0 km/h
2125 14-03-2011 17:14:02 13.7 C 5.8 g/m*3 13.7 C 0 km/h
Sensor: Nr:Datum:Temp:Abs-Feuchte:Windchill:Wind:
Aussen-T/F 2126 14-03-2011 17:26:02 13.1 C 6.39 g/m*3 13.1 C 0 km/h
2127 14-03-2011 17:38:03 12.6 C 6.75 g/m*3 12.6 C 0 km/h
2128 14-03-2011 17:50:02 12.1 C 6.76 g/m*3 12.1 C 0 km/h
2129 14-03-2011 18:02:02 11.7 C 6.9 g/m*3 11.7 C 0 km/h
2130 14-03-2011 18:14:02 11.4 C 6.88 g/m*3 11.4 C 0 km/h
2131 14-03-2011 18:26:02 11.2 C 6.89 g/m*3 11.2 C 0 km/h
2132 14-03-2011 18:38:02 11 C 7.01 g/m*3 11 C 0 km/h
2133 14-03-2011 18:50:02 10.7 C 7.07 g/m*3 10.7 C 0 km/h
2134 14-03-2011 19:02:02 10.4 C 7.04 g/m*3 10.4 C 0 km/h
2135 14-03-2011 19:14:02 10.4 C 7.13 g/m*3 10.4 C 0 km/h
2136 14-03-2011 19:26:02 10.2 C 7.04 g/m*3 10.2 C 0 km/h
2137 14-03-2011 19:38:02 10 C 7.05 g/m*3 10 C 0 km/h
2138 14-03-2011 19:50:01 9.2 C 6.88 g/m*3 9.2 C 0 km/h
2139 14-03-2011 20:02:02 8.5 C 6.74 g/m*3 8.5 C 0 km/h
2140 14-03-2011 20:14:02 8.4 C 6.87 g/m*3 8.4 C 0 km/h
2141 14-03-2011 20:26:01 8.2 C 6.87 g/m*3 8.2 C 0 km/h
2142 14-03-2011 20:38:01 8.3 C 7 g/m*3 8.3 C 0 km/h
2143 14-03-2011 20:50:01 8.6 C 7.22 g/m*3 8.6 C 0 km/h
2144 14-03-2011 21:02:02 8.6 C 7.22 g/m*3 8.6 C 0 km/h
2145 14-03-2011 21:14:02 8.6 C 7.22 g/m*3 8.6 C 0 km/h
2146 14-03-2011 21:26:02 8 C 6.86 g/m*3 8 C 0 km/h
2147 14-03-2011 21:38:01 7.6 C 6.77 g/m*3 7.6 C 0 km/h
2148 14-03-2011 21:50:02 7.1 C 6.55 g/m*3 7.1 C 0 km/h
2149 14-03-2011 22:02:02 7 C 6.59 g/m*3 7 C 0 km/h
2150 14-03-2011 22:14:02 7.6 C 7.01 g/m*3 7.6 C 0 km/h
Sensor: Nr:Datum:Temp:Abs-Feuchte:Windchill:Wind:
Aussen-T/F 2151 14-03-2011 22:27:03 7.4 C 6.92 g/m*3 7.4 C 0 km/h
2152 14-03-2011 22:39:03 7.3 C 6.95 g/m*3 7.3 C 0 km/h
2153 14-03-2011 22:51:03 7 C 6.82 g/m*3 7 C 0 km/h
2154 14-03-2011 23:03:03 6.5 C 6.6 g/m*3 6.5 C 0 km/h
2155 14-03-2011 23:15:03 6 C 6.39 g/m*3 6 C 0 km/h
2156 14-03-2011 23:27:04 5.6 C 6.29 g/m*3 5.6 C 0 km/h
2157 14-03-2011 23:39:04 5.6 C 6.29 g/m*3 5.6 C 0 km/h
2158 14-03-2011 23:51:04 5.6 C 6.29 g/m*3 5.6 C 0 km/h
2159 15-03-2011 00:03:04 5.3 C 6.17 g/m*3 5.3 C 0 km/h
2160 15-03-2011 00:15:04 5.1 C 6.09 g/m*3 5.1 C 0 km/h
2161 15-03-2011 00:27:04 5.5 C 6.32 g/m*3 5.5 C 0 km/h
2162 15-03-2011 00:39:04 5 C 6.12 g/m*3 5 C 0 km/h
2163 15-03-2011 00:51:04 5.1 C 6.16 g/m*3 5.1 C 0 km/h
2164 15-03-2011 01:03:04 4.9 C 6.14 g/m*3 4.9 C 0 km/h
2165 15-03-2011 01:15:04 4.6 C 6.02 g/m*3 4.6 C 0 km/h
2166 15-03-2011 01:27:04 4.6 C 6.02 g/m*3 4.6 C 0 km/h
2167 15-03-2011 01:39:04 4.9 C 6.14 g/m*3 4.9 C 0 km/h
2168 15-03-2011 01:51:04 5.4 C 6.35 g/m*3 5.4 C 0 km/h
2169 15-03-2011 02:03:04 6.1 C 6.58 g/m*3 6.1 C 0 km/h
2170 15-03-2011 02:15:04 6 C 6.53 g/m*3 6 C 0 km/h
2171 15-03-2011 02:27:04 5.9 C 6.63 g/m*3 5.9 C 0 km/h
2172 15-03-2011 02:39:04 6 C 6.6 g/m*3 6 C 0 km/h
2173 15-03-2011 02:51:04 5.8 C 6.59 g/m*3 5.8 C 0 km/h
2174 15-03-2011 03:03:04 5.7 C 6.55 g/m*3 5.7 C 0 km/h
2175 15-03-2011 03:15:04 5.7 C 6.55 g/m*3 5.7 C 0 km/h
Sensor: Nr:Datum:Temp:Abs-Feuchte:Windchill:Wind:
Aussen-T/F 2176 15-03-2011 03:27:04 5.7 C 6.55 g/m*3 5.7 C 0 km/h
2177 15-03-2011 03:39:05 5.7 C 6.55 g/m*3 5.7 C 0 km/h
2178 15-03-2011 03:51:05 5.7 C 6.55 g/m*3 5.7 C 0 km/h
2179 15-03-2011 04:03:05 5.8 C 6.59 g/m*3 5.8 C 0 km/h
2180 15-03-2011 04:15:05 6 C 6.6 g/m*3 6 C 0 km/h
2181 15-03-2011 04:27:05 5.7 C 6.55 g/m*3 5.7 C 0 km/h
2182 15-03-2011 04:39:05 5.7 C 6.55 g/m*3 5.7 C 0 km/h
2183 15-03-2011 04:51:05 5.7 C 6.55 g/m*3 5.7 C 0 km/h
2184 15-03-2011 05:03:05 5.7 C 6.55 g/m*3 5.7 C 0 km/h
2185 15-03-2011 05:15:05 5.5 C 6.46 g/m*3 5.5 C 0 km/h
2186 15-03-2011 05:27:05 5.4 C 6.42 g/m*3 5.4 C 0 km/h
2187 15-03-2011 05:39:05 5.1 C 6.29 g/m*3 5.1 C 0 km/h
2188 15-03-2011 05:51:05 4.8 C 6.17 g/m*3 4.8 C 0 km/h
2189 15-03-2011 06:03:05 4.7 C 6.13 g/m*3 4.7 C 0 km/h
2190 15-03-2011 06:15:05 4.2 C 5.93 g/m*3 4.2 C 0 km/h
2191 15-03-2011 06:27:05 4.5 C 6.05 g/m*3 4.5 C 0 km/h
2192 15-03-2011 06:39:05 4.7 C 6.13 g/m*3 4.7 C 0 km/h
2193 15-03-2011 06:51:01 4.8 C 6.17 g/m*3 4.8 C 0 km/h
2194 15-03-2011 07:03:02 4.8 C 6.17 g/m*3 4.8 C 0 km/h
2195 15-03-2011 07:15:01 4.9 C 6.21 g/m*3 4.9 C 0 km/h
2196 15-03-2011 07:27:01 5 C 6.25 g/m*3 5 C 0 km/h
2197 15-03-2011 07:39:02 5.1 C 6.29 g/m*3 5.1 C 0 km/h
2198 15-03-2011 07:51:01 5.2 C 6.33 g/m*3 5.2 C 0 km/h
2199 15-03-2011 08:03:02 5.2 C 6.33 g/m*3 5.2 C 0 km/h
2200 15-03-2011 08:15:02 5.2 C 6.33 g/m*3 5.2 C 0 km/h
Sensor: Nr:Datum:Temp:Abs-Feuchte:Windchill:Wind:
Aussen-T/F 2201 15-03-2011 08:27:02 5.3 C 6.38 g/m*3 5.3 C 0 km/h
2202 15-03-2011 08:39:02 5.5 C 6.46 g/m*3 5.5 C 0 km/h
2203 15-03-2011 08:51:02 5.5 C 6.46 g/m*3 5.5 C 0 km/h
2204 15-03-2011 09:03:01 5.7 C 6.55 g/m*3 5.7 C 0 km/h
2205 15-03-2011 09:15:02 6.1 C 6.65 g/m*3 6.1 C 0 km/h
2206 15-03-2011 09:27:02 6.5 C 6.82 g/m*3 6.5 C 0 km/h
2207 15-03-2011 09:39:02 6.9 C 7.08 g/m*3 6.9 C 0 km/h
2208 15-03-2011 09:51:02 7.8 C 7.43 g/m*3 7.8 C 0 km/h
2209 15-03-2011 10:03:02 8.3 C 7.59 g/m*3 8.3 C 0 km/h
2210 15-03-2011 10:15:02 9 C 7.85 g/m*3 9 C 0 km/h
2211 15-03-2011 10:27:02 9.5 C 8.1 g/m*3 9.5 C 0 km/h
2212 15-03-2011 10:39:02 10.1 C 8.13 g/m*3 10.1 C 0 km/h
2213 15-03-2011 10:51:01 10.6 C 8.2 g/m*3 10.6 C 0 km/h
2214 15-03-2011 11:03:01 11.5 C 7.95 g/m*3 11.5 C 0 km/h
2215 15-03-2011 11:15:01 12 C 7.67 g/m*3 12 C 0 km/h
2216 15-03-2011 11:27:01 13.2 C 7.35 g/m*3 13.2 C 0 km/h
2217 15-03-2011 11:39:02 14 C 7 g/m*3 14 C 0 km/h
2218 15-03-2011 11:51:02 14.5 C 6.47 g/m*3 14.5 C 0 km/h
2219 15-03-2011 12:03:02 15.6 C 6.25 g/m*3 15.6 C 0 km/h
2220 15-03-2011 12:15:02 16.4 C 6 g/m*3 16.4 C 0 km/h
2221 15-03-2011 12:27:02 18.1 C 6.18 g/m*3 18.1 C 0 km/h
2222 15-03-2011 12:39:02 18.7 C 5.76 g/m*3 18.7 C 0 km/h
2223 15-03-2011 12:51:01 20.3 C 5.45 g/m*3 20.3 C 0 km/h
2224 15-03-2011 13:03:02 20 C 5.53 g/m*3 20 C 0 km/h
2225 15-03-2011 13:15:02 18.9 C 5.67 g/m*3 18.9 C 0 km/h
Sensor: Nr:Datum:Temp:Abs-Feuchte:Windchill:Wind:
Aussen-T/F 2226 15-03-2011 13:27:02 19.2 C 5.77 g/m*3 19.2 C 0 km/h
2227 15-03-2011 13:39:02 18.4 C 5.82 g/m*3 18.4 C 0 km/h
2228 15-03-2011 13:51:02 19.3 C 5.81 g/m*3 19.3 C 0 km/h
2229 15-03-2011 14:03:03 18.5 C 5.54 g/m*3 18.5 C 0 km/h
2230 15-03-2011 14:15:02 18.5 C 5.54 g/m*3 18.5 C 0 km/h
2231 15-03-2011 14:27:02 18.5 C 5.54 g/m*3 18.5 C 0 km/h
2232 15-03-2011 14:39:02 19 C 5.38 g/m*3 19 C 0 km/h
2233 15-03-2011 14:51:01 20 C 5.36 g/m*3 20 C 0 km/h
2234 15-03-2011 15:03:02 21 C 5.5 g/m*3 21 C 0 km/h
2235 15-03-2011 15:15:02 20.9 C 5.1 g/m*3 20.9 C 0 km/h
2236 15-03-2011 15:27:02 19.8 C 5.12 g/m*3 19.8 C 0 km/h
2237 15-03-2011 15:39:02 21.9 C 5.21 g/m*3 21.9 C 0 km/h
2238 15-03-2011 15:51:02 21.7 C 4.96 g/m*3 21.7 C 0 km/h
2239 15-03-2011 16:03:01 19.9 C 5.15 g/m*3 19.9 C 0 km/h
2240 15-03-2011 16:15:02 20.6 C 5.01 g/m*3 20.6 C 0 km/h
2241 15-03-2011 16:27:03 21.8 C 4.99 g/m*3 21.8 C 0 km/h
2242 15-03-2011 16:39:01 20.8 C 4.89 g/m*3 20.8 C 0 km/h
2243 15-03-2011 16:51:02 20.4 C 4.6 g/m*3 20.4 C 0 km/h
2244 15-03-2011 17:03:01 19.5 C 5.2 g/m*3 19.5 C 0 km/h
2245 15-03-2011 17:15:01 18.4 C 5.35 g/m*3 18.4 C 0 km/h
2246 15-03-2011 17:27:01 18 C 5.38 g/m*3 18 C 0 km/h
2247 15-03-2011 17:39:02 17.7 C 5.73 g/m*3 17.7 C 0 km/h
2248 15-03-2011 17:51:02 16.9 C 5.61 g/m*3 16.9 C 0 km/h
2249 15-03-2011 18:03:02 15.9 C 5.96 g/m*3 15.9 C 0 km/h
2250 15-03-2011 18:15:02 15 C 5.9 g/m*3 15 C 0 km/h
Sensor: Nr:Datum:Temp:Abs-Feuchte:Windchill:Wind:
Aussen-T/F 2251 15-03-2011 18:27:02 13.2 C 6.2 g/m*3 13.2 C 0 km/h
2252 15-03-2011 18:39:02 12.6 C 6.31 g/m*3 12.6 C 0 km/h
2253 15-03-2011 18:51:02 12.2 C 6.26 g/m*3 12.2 C 0 km/h
2254 15-03-2011 19:03:03 12 C 6.18 g/m*3 12 C 0 km/h
2255 15-03-2011 19:15:02 12 C 6.29 g/m*3 12 C 0 km/h
2256 15-03-2011 19:27:02 11.9 C 6.46 g/m*3 11.9 C 0 km/h
2257 15-03-2011 19:39:02 12.2 C 6.58 g/m*3 12.2 C 0 km/h
2258 15-03-2011 19:51:01 12.4 C 6.45 g/m*3 12.4 C 0 km/h
2259 15-03-2011 20:03:02 12.2 C 6.37 g/m*3 12.2 C 0 km/h
2260 15-03-2011 20:15:01 11.2 C 6.39 g/m*3 11.2 C 0 km/h
2261 15-03-2011 20:27:01 10.7 C 6.48 g/m*3 10.7 C 0 km/h
2262 15-03-2011 20:39:01 10.8 C 6.72 g/m*3 10.8 C 0 km/h
2263 15-03-2011 20:51:01 10.2 C 6.38 g/m*3 10.2 C 0 km/h
2264 15-03-2011 21:03:01 9.6 C 6.5 g/m*3 9.6 C 0 km/h
2265 15-03-2011 21:15:02 9.7 C 6.55 g/m*3 9.7 C 0 km/h
2266 15-03-2011 21:27:02 10.2 C 6.76 g/m*3 10.2 C 0 km/h
2267 15-03-2011 21:39:01 9.7 C 6.55 g/m*3 9.7 C 0 km/h
2268 15-03-2011 21:51:01 9.7 C 6.55 g/m*3 9.7 C 0 km/h
2269 15-03-2011 22:03:02 9.2 C 6.43 g/m*3 9.2 C 0 km/h
2270 15-03-2011 22:16:01 8.7 C 6.4 g/m*3 8.7 C 0 km/h
2271 15-03-2011 22:28:01 9 C 6.44 g/m*3 9 C 0 km/h
2272 15-03-2011 22:40:01 9.2 C 6.43 g/m*3 9.2 C 0 km/h
2273 15-03-2011 22:52:01 10.1 C 6.62 g/m*3 10.1 C 0 km/h
2274 15-03-2011 23:04:02 9.2 C 6.16 g/m*3 9.2 C 0 km/h
2275 15-03-2011 23:16:02 9.2 C 6.16 g/m*3 9.2 C 0 km/h
Sensor: Nr:Datum:Temp:Abs-Feuchte:Windchill:Wind:
Aussen-T/F 2276 15-03-2011 23:28:02 9.1 C 6.21 g/m*3 9.1 C 0 km/h
2277 15-03-2011 23:40:02 9.1 C 6.12 g/m*3 9.1 C 0 km/h
2278 15-03-2011 23:52:02 9.4 C 6.15 g/m*3 9.4 C 0 km/h
2279 16-03-2011 00:04:02 9.5 C 6.1 g/m*3 9.5 C 0 km/h
2280 16-03-2011 00:16:02 8.8 C 6.09 g/m*3 8.8 C 0 km/h
2281 16-03-2011 00:28:02 8.4 C 6.19 g/m*3 8.4 C 0 km/h
2282 16-03-2011 00:40:02 8.2 C 6.11 g/m*3 8.2 C 0 km/h
2283 16-03-2011 00:52:02 8.1 C 6.16 g/m*3 8.1 C 0 km/h
2284 16-03-2011 01:04:02 7.4 C 5.96 g/m*3 7.4 C 0 km/h
2285 16-03-2011 01:16:02 7 C 6.04 g/m*3 7 C 0 km/h
2286 16-03-2011 01:28:02 6.5 C 6 g/m*3 6.5 C 0 km/h
2287 16-03-2011 01:40:02 7 C 6.28 g/m*3 7 C 0 km/h
2288 16-03-2011 01:52:02 6.5 C 6.15 g/m*3 6.5 C 0 km/h
2289 16-03-2011 02:04:02 6.7 C 6.31 g/m*3 6.7 C 0 km/h
2290 16-03-2011 02:16:02 6.9 C 6.39 g/m*3 6.9 C 0 km/h
2291 16-03-2011 02:28:02 6.4 C 6.11 g/m*3 6.4 C 0 km/h
2292 16-03-2011 02:40:02 6.4 C 6.18 g/m*3 6.4 C 0 km/h
2293 16-03-2011 02:52:02 6.8 C 6.35 g/m*3 6.8 C 0 km/h
2294 16-03-2011 03:04:02 6.7 C 6.23 g/m*3 6.7 C 0 km/h
2295 16-03-2011 03:16:03 6.4 C 6.11 g/m*3 6.4 C 0 km/h
2296 16-03-2011 03:28:03 6.7 C 6.23 g/m*3 6.7 C 0 km/h
2297 16-03-2011 03:40:03 7.4 C 6.28 g/m*3 7.4 C 0 km/h
2298 16-03-2011 03:52:03 7.1 C 6.01 g/m*3 7.1 C 0 km/h
2299 16-03-2011 04:04:03 7.3 C 6.08 g/m*3 7.3 C 0 km/h
2300 16-03-2011 04:16:03 7 C 5.97 g/m*3 7 C 0 km/h
Sensor: Nr:Datum:Temp:Abs-Feuchte:Windchill:Wind:
Aussen-T/F 2301 16-03-2011 04:28:03 7.1 C 5.93 g/m*3 7.1 C 0 km/h
2302 16-03-2011 04:40:03 7.2 C 5.97 g/m*3 7.2 C 0 km/h
2303 16-03-2011 04:52:03 7.4 C 6.04 g/m*3 7.4 C 0 km/h
2304 16-03-2011 05:04:03 7.3 C 5.93 g/m*3 7.3 C 0 km/h
2305 16-03-2011 05:16:03 7.1 C 5.85 g/m*3 7.1 C 0 km/h
2306 16-03-2011 05:28:03 7 C 5.81 g/m*3 7 C 0 km/h
2307 16-03-2011 05:40:03 7 C 5.81 g/m*3 7 C 0 km/h
2308 16-03-2011 05:52:03 6.8 C 5.89 g/m*3 6.8 C 0 km/h
2309 16-03-2011 06:04:03 7 C 5.97 g/m*3 7 C 0 km/h
2310 16-03-2011 06:16:03 7.1 C 5.93 g/m*3 7.1 C 0 km/h
2311 16-03-2011 06:28:03 6.9 C 5.93 g/m*3 6.9 C 0 km/h
2312 16-03-2011 06:40:03 7.4 C 6.04 g/m*3 7.4 C 0 km/h
2313 16-03-2011 06:52:03 7.3 C 5.93 g/m*3 7.3 C 0 km/h
2314 16-03-2011 07:04:03 7.1 C 5.93 g/m*3 7.1 C 0 km/h
2315 16-03-2011 07:16:04 7.6 C 6.04 g/m*3 7.6 C 0 km/h
2316 16-03-2011 07:28:04 7.8 C 6.04 g/m*3 7.8 C 0 km/h
2317 16-03-2011 07:40:04 8.1 C 5.91 g/m*3 8.1 C 0 km/h
2318 16-03-2011 07:52:04 8.3 C 5.98 g/m*3 8.3 C 0 km/h
2319 16-03-2011 08:04:01 8.7 C 5.97 g/m*3 8.7 C 0 km/h
2320 16-03-2011 08:16:01 8.9 C 5.96 g/m*3 8.9 C 0 km/h
2321 16-03-2011 08:28:01 9.2 C 5.89 g/m*3 9.2 C 0 km/h
2322 16-03-2011 08:40:01 9.3 C 5.75 g/m*3 9.3 C 0 km/h
2323 16-03-2011 08:52:02 9.4 C 5.79 g/m*3 9.4 C 0 km/h
2324 16-03-2011 09:04:03 9.5 C 5.73 g/m*3 9.5 C 0 km/h
2325 16-03-2011 09:16:02 9.8 C 5.85 g/m*3 9.8 C 0 km/h
Sensor: Nr:Datum:Temp:Abs-Feuchte:Windchill:Wind:
Aussen-T/F 2326 16-03-2011 09:28:02 9.8 C 5.75 g/m*3 9.8 C 0 km/h
2327 16-03-2011 09:40:02 10.2 C 5.71 g/m*3 10.2 C 0 km/h
2328 16-03-2011 09:52:01 10.1 C 5.67 g/m*3 10.1 C 0 km/h
2329 16-03-2011 10:04:02 10 C 5.64 g/m*3 10 C 0 km/h
2330 16-03-2011 10:16:02 10.2 C 5.61 g/m*3 10.2 C 0 km/h
2331 16-03-2011 10:28:02 10.3 C 5.65 g/m*3 10.3 C 0 km/h
2332 16-03-2011 10:40:01 10.4 C 5.59 g/m*3 10.4 C 0 km/h
2333 16-03-2011 10:52:01 10.5 C 5.63 g/m*3 10.5 C 0 km/h
2334 16-03-2011 11:04:01 11.1 C 5.54 g/m*3 11.1 C 0 km/h
2335 16-03-2011 11:16:02 11.1 C 5.44 g/m*3 11.1 C 0 km/h
2336 16-03-2011 11:28:02 11.4 C 5.44 g/m*3 11.4 C 0 km/h
2337 16-03-2011 11:40:01 11.8 C 5.58 g/m*3 11.8 C 0 km/h
2338 16-03-2011 11:52:03 11.3 C 5.51 g/m*3 11.3 C 0 km/h
2339 16-03-2011 12:04:02 11 C 5.41 g/m*3 11 C 0 km/h
2340 16-03-2011 12:16:02 10.9 C 5.47 g/m*3 10.9 C 0 km/h
2341 16-03-2011 12:28:02 11 C 5.41 g/m*3 11 C 0 km/h
2342 16-03-2011 12:40:02 11.7 C 5.54 g/m*3 11.7 C 0 km/h
2343 16-03-2011 12:52:02 11.4 C 5.44 g/m*3 11.4 C 0 km/h
2344 16-03-2011 13:04:02 11.5 C 5.37 g/m*3 11.5 C 0 km/h
2345 16-03-2011 13:16:02 11.8 C 5.47 g/m*3 11.8 C 0 km/h
2346 16-03-2011 13:28:02 11.6 C 5.51 g/m*3 11.6 C 0 km/h
2347 16-03-2011 13:40:02 11.5 C 5.58 g/m*3 11.5 C 0 km/h
2348 16-03-2011 13:52:01 11.5 C 5.47 g/m*3 11.5 C 0 km/h
2349 16-03-2011 14:04:02 11.6 C 5.51 g/m*3 11.6 C 0 km/h
2350 16-03-2011 14:16:01 11.7 C 5.44 g/m*3 11.7 C 0 km/h
Sensor: Nr:Datum:Temp:Abs-Feuchte:Windchill:Wind:
Aussen-T/F 2351 16-03-2011 14:28:01 11.6 C 5.51 g/m*3 11.6 C 0 km/h
2352 16-03-2011 14:40:02 11.5 C 5.47 g/m*3 11.5 C 0 km/h
2353 16-03-2011 14:52:02 11.5 C 5.47 g/m*3 11.5 C 0 km/h
2354 16-03-2011 15:04:02 11.2 C 5.47 g/m*3 11.2 C 0 km/h
2355 16-03-2011 15:16:01 11 C 5.51 g/m*3 11 C 0 km/h
2356 16-03-2011 15:28:01 10.7 C 5.5 g/m*3 10.7 C 0 km/h
2357 16-03-2011 15:40:02 10.5 C 5.53 g/m*3 10.5 C 0 km/h
2358 16-03-2011 15:52:01 10.4 C 5.49 g/m*3 10.4 C 0 km/h
2359 16-03-2011 16:04:02 10.4 C 5.49 g/m*3 10.4 C 0 km/h
2360 16-03-2011 16:16:02 10.1 C 5.39 g/m*3 10.1 C 0 km/h
2361 16-03-2011 16:28:02 10.1 C 5.39 g/m*3 10.1 C 0 km/h
2362 16-03-2011 16:40:02 9.9 C 5.42 g/m*3 9.9 C 0 km/h
2363 16-03-2011 16:52:01 9.8 C 5.38 g/m*3 9.8 C 0 km/h
2364 16-03-2011 17:04:03 9.7 C 5.44 g/m*3 9.7 C 0 km/h
2365 16-03-2011 17:16:03 9.7 C 5.53 g/m*3 9.7 C 0 km/h
2366 16-03-2011 17:28:03 9.5 C 5.46 g/m*3 9.5 C 0 km/h
2367 16-03-2011 17:40:03 9.4 C 5.43 g/m*3 9.4 C 0 km/h
2368 16-03-2011 17:52:03 9.3 C 5.48 g/m*3 9.3 C 0 km/h
2369 16-03-2011 18:04:03 9.1 C 5.41 g/m*3 9.1 C 0 km/h
2370 16-03-2011 18:16:02 8.9 C 5.52 g/m*3 8.9 C 0 km/h
2371 16-03-2011 18:28:02 8.6 C 5.41 g/m*3 8.6 C 0 km/h
2372 16-03-2011 18:40:02 8.4 C 5.43 g/m*3 8.4 C 0 km/h
2373 16-03-2011 18:52:02 8.4 C 5.43 g/m*3 8.4 C 0 km/h
2374 16-03-2011 19:04:02 8.3 C 5.39 g/m*3 8.3 C 0 km/h
2375 16-03-2011 19:16:02 8.2 C 5.36 g/m*3 8.2 C 0 km/h
Sensor: Nr:Datum:Temp:Abs-Feuchte:Windchill:Wind:
Aussen-T/F 2376 16-03-2011 19:28:02 8.2 C 5.44 g/m*3 8.2 C 0 km/h
2377 16-03-2011 19:40:03 8 C 5.37 g/m*3 8 C 0 km/h
2378 16-03-2011 19:52:02 8.1 C 5.41 g/m*3 8.1 C 0 km/h
2379 16-03-2011 20:04:03 8.1 C 5.41 g/m*3 8.1 C 0 km/h
2380 16-03-2011 20:16:02 8 C 5.37 g/m*3 8 C 0 km/h
2381 16-03-2011 20:28:02 7.9 C 5.42 g/m*3 7.9 C 0 km/h
2382 16-03-2011 20:40:03 7.8 C 5.39 g/m*3 7.8 C 0 km/h
2383 16-03-2011 20:52:02 7.7 C 5.43 g/m*3 7.7 C 0 km/h
2384 16-03-2011 21:04:02 7.5 C 5.36 g/m*3 7.5 C 0 km/h
2385 16-03-2011 21:16:02 7.5 C 5.36 g/m*3 7.5 C 0 km/h
2386 16-03-2011 21:28:02 7.4 C 5.33 g/m*3 7.4 C 0 km/h
2387 16-03-2011 21:40:02 7.3 C 5.29 g/m*3 7.3 C 0 km/h
2388 16-03-2011 21:52:01 7.3 C 5.37 g/m*3 7.3 C 0 km/h
2389 16-03-2011 22:04:01 7.2 C 5.34 g/m*3 7.2 C 0 km/h
2390 16-03-2011 22:17:02 7.1 C 5.3 g/m*3 7.1 C 0 km/h
2391 16-03-2011 22:29:02 7.2 C 5.42 g/m*3 7.2 C 0 km/h
2392 16-03-2011 22:41:02 7.1 C 5.38 g/m*3 7.1 C 0 km/h
2393 16-03-2011 22:53:02 7 C 5.35 g/m*3 7 C 0 km/h
2394 16-03-2011 23:05:02 7 C 5.42 g/m*3 7 C 0 km/h
2395 16-03-2011 23:17:02 7 C 5.42 g/m*3 7 C 0 km/h
2396 16-03-2011 23:29:02 7 C 5.42 g/m*3 7 C 0 km/h
2397 16-03-2011 23:41:02 6.9 C 5.47 g/m*3 6.9 C 0 km/h
2398 16-03-2011 23:53:02 6.9 C 5.54 g/m*3 6.9 C 0 km/h
2399 17-03-2011 00:05:02 6.9 C 5.54 g/m*3 6.9 C 0 km/h
2400 17-03-2011 00:17:02 6.9 C 5.54 g/m*3 6.9 C 0 km/h
Sensor: Nr:Datum:Temp:Abs-Feuchte:Windchill:Wind:
Aussen-T/F 2401 17-03-2011 00:29:02 6.8 C 5.51 g/m*3 6.8 C 0 km/h
2402 17-03-2011 00:41:02 6.8 C 5.51 g/m*3 6.8 C 0 km/h
2403 17-03-2011 00:53:02 6.8 C 5.51 g/m*3 6.8 C 0 km/h
2404 17-03-2011 01:05:02 6.8 C 5.51 g/m*3 6.8 C 0 km/h
2405 17-03-2011 01:17:02 6.8 C 5.51 g/m*3 6.8 C 0 km/h
2406 17-03-2011 01:29:02 6.8 C 5.51 g/m*3 6.8 C 0 km/h
2407 17-03-2011 01:41:02 6.8 C 5.58 g/m*3 6.8 C 0 km/h
2408 17-03-2011 01:53:02 6.8 C 5.51 g/m*3 6.8 C 0 km/h
2409 17-03-2011 02:05:03 6.8 C 5.58 g/m*3 6.8 C 0 km/h
2410 17-03-2011 02:17:03 6.8 C 5.58 g/m*3 6.8 C 0 km/h
2411 17-03-2011 02:29:03 6.8 C 5.58 g/m*3 6.8 C 0 km/h
2412 17-03-2011 02:41:03 6.8 C 5.58 g/m*3 6.8 C 0 km/h
2413 17-03-2011 02:53:03 6.7 C 5.62 g/m*3 6.7 C 0 km/h
2414 17-03-2011 03:05:03 6.7 C 5.62 g/m*3 6.7 C 0 km/h
2415 17-03-2011 03:17:03 6.7 C 5.62 g/m*3 6.7 C 0 km/h
2416 17-03-2011 03:29:03 6.8 C 5.74 g/m*3 6.8 C 0 km/h
2417 17-03-2011 03:41:03 6.8 C 5.66 g/m*3 6.8 C 0 km/h
2418 17-03-2011 03:53:03 6.8 C 5.58 g/m*3 6.8 C 0 km/h
2419 17-03-2011 04:05:03 6.8 C 5.66 g/m*3 6.8 C 0 km/h
2420 17-03-2011 04:17:03 6.8 C 5.66 g/m*3 6.8 C 0 km/h
2421 17-03-2011 04:29:03 6.8 C 5.66 g/m*3 6.8 C 0 km/h
2422 17-03-2011 04:41:03 6.8 C 5.66 g/m*3 6.8 C 0 km/h
2423 17-03-2011 04:53:03 6.7 C 5.62 g/m*3 6.7 C 0 km/h
2424 17-03-2011 05:05:03 6.7 C 5.62 g/m*3 6.7 C 0 km/h
2425 17-03-2011 05:17:03 6.7 C 5.7 g/m*3 6.7 C 0 km/h
Sensor: Nr:Datum:Temp:Abs-Feuchte:Windchill:Wind:
Aussen-T/F 2426 17-03-2011 05:29:03 6.8 C 5.74 g/m*3 6.8 C 0 km/h
2427 17-03-2011 05:41:03 6.8 C 5.74 g/m*3 6.8 C 0 km/h
2428 17-03-2011 05:53:03 6.8 C 5.66 g/m*3 6.8 C 0 km/h
2429 17-03-2011 06:05:04 6.8 C 5.66 g/m*3 6.8 C 0 km/h
2430 17-03-2011 06:17:04 6.8 C 5.66 g/m*3 6.8 C 0 km/h
2431 17-03-2011 06:29:04 6.8 C 5.74 g/m*3 6.8 C 0 km/h
2432 17-03-2011 06:41:04 6.8 C 5.74 g/m*3 6.8 C 0 km/h
2433 17-03-2011 06:53:04 6.7 C 5.7 g/m*3 6.7 C 0 km/h
2434 17-03-2011 07:05:02 6.7 C 5.77 g/m*3 6.7 C 0 km/h
2435 17-03-2011 07:17:01 6.5 C 5.77 g/m*3 6.5 C 0 km/h
2436 17-03-2011 07:29:01 6.4 C 5.81 g/m*3 6.4 C 0 km/h
2437 17-03-2011 07:41:02 6.3 C 5.77 g/m*3 6.3 C 0 km/h
2438 17-03-2011 07:53:01 6.3 C 5.77 g/m*3 6.3 C 0 km/h
2439 17-03-2011 08:05:02 6.4 C 5.74 g/m*3 6.4 C 0 km/h
2440 17-03-2011 08:17:02 6.3 C 5.63 g/m*3 6.3 C 0 km/h
2441 17-03-2011 08:29:02 6.4 C 5.66 g/m*3 6.4 C 0 km/h
2442 17-03-2011 08:41:02 6.3 C 5.63 g/m*3 6.3 C 0 km/h
2443 17-03-2011 08:53:02 6.2 C 5.59 g/m*3 6.2 C 0 km/h
2444 17-03-2011 09:05:01 6 C 5.59 g/m*3 6 C 0 km/h
2445 17-03-2011 09:17:02 5.9 C 5.7 g/m*3 5.9 C 0 km/h
2446 17-03-2011 09:29:02 6 C 5.73 g/m*3 6 C 0 km/h
2447 17-03-2011 09:41:02 6 C 5.73 g/m*3 6 C 0 km/h
2448 17-03-2011 09:53:02 5.8 C 5.8 g/m*3 5.8 C 0 km/h
2449 17-03-2011 10:05:03 5.7 C 5.91 g/m*3 5.7 C 0 km/h
2450 17-03-2011 10:17:02 6.1 C 6.06 g/m*3 6.1 C 0 km/h
Sensor: Nr:Datum:Temp:Abs-Feuchte:Windchill:Wind:
Aussen-T/F 2451 17-03-2011 10:29:02 5.7 C 5.98 g/m*3 5.7 C 0 km/h
2452 17-03-2011 10:41:02 5.8 C 6.02 g/m*3 5.8 C 0 km/h
2453 17-03-2011 10:53:01 5.9 C 5.98 g/m*3 5.9 C 0 km/h
2454 17-03-2011 11:05:02 5.9 C 5.98 g/m*3 5.9 C 0 km/h
2455 17-03-2011 11:17:01 5.9 C 5.98 g/m*3 5.9 C 0 km/h
2456 17-03-2011 11:29:01 6 C 5.95 g/m*3 6 C 0 km/h
2457 17-03-2011 11:41:02 6 C 5.95 g/m*3 6 C 0 km/h
2458 17-03-2011 11:53:02 6.1 C 5.92 g/m*3 6.1 C 0 km/h
2459 17-03-2011 12:05:02 6.2 C 5.96 g/m*3 6.2 C 0 km/h
2460 17-03-2011 12:17:02 5.9 C 5.91 g/m*3 5.9 C 0 km/h
2461 17-03-2011 12:29:02 6.1 C 5.99 g/m*3 6.1 C 0 km/h
2462 17-03-2011 12:41:02 6.2 C 6.03 g/m*3 6.2 C 0 km/h
2463 17-03-2011 12:53:02 6.2 C 6.03 g/m*3 6.2 C 0 km/h
2464 17-03-2011 13:05:02 6.1 C 5.99 g/m*3 6.1 C 0 km/h
2465 17-03-2011 13:17:02 6.2 C 6.03 g/m*3 6.2 C 0 km/h
2466 17-03-2011 13:29:02 6.2 C 6.03 g/m*3 6.2 C 0 km/h
2467 17-03-2011 13:41:02 6 C 5.95 g/m*3 6 C 0 km/h
2468 17-03-2011 13:53:01 6 C 6.02 g/m*3 6 C 0 km/h
2469 17-03-2011 14:05:02 6 C 6.02 g/m*3 6 C 0 km/h
2470 17-03-2011 14:17:01 6 C 6.02 g/m*3 6 C 0 km/h
2471 17-03-2011 14:29:01 6 C 6.02 g/m*3 6 C 0 km/h
2472 17-03-2011 14:41:01 5.8 C 6.02 g/m*3 5.8 C 0 km/h
2473 17-03-2011 14:53:01 5.9 C 6.13 g/m*3 5.9 C 0 km/h
2474 17-03-2011 15:05:02 6.1 C 6.14 g/m*3 6.1 C 0 km/h
2475 17-03-2011 15:17:01 5.8 C 6.09 g/m*3 5.8 C 0 km/h
Sensor: Nr:Datum:Temp:Abs-Feuchte:Windchill:Wind:
Aussen-T/F 2476 17-03-2011 15:29:01 5.7 C 6.05 g/m*3 5.7 C 0 km/h
2477 17-03-2011 15:41:02 5.9 C 6.13 g/m*3 5.9 C 0 km/h
2478 17-03-2011 15:53:02 6.1 C 6.06 g/m*3 6.1 C 0 km/h
2479 17-03-2011 16:05:02 6 C 6.02 g/m*3 6 C 0 km/h
2480 17-03-2011 16:17:02 6.1 C 6.06 g/m*3 6.1 C 0 km/h
2481 17-03-2011 16:29:02 5.9 C 5.98 g/m*3 5.9 C 0 km/h
2482 17-03-2011 16:41:03 6 C 6.02 g/m*3 6 C 0 km/h
2483 17-03-2011 16:53:02 6 C 5.95 g/m*3 6 C 0 km/h
2484 17-03-2011 17:05:02 6 C 5.95 g/m*3 6 C 0 km/h
2485 17-03-2011 17:17:01 6 C 6.02 g/m*3 6 C 0 km/h
2486 17-03-2011 17:29:01 6 C 6.02 g/m*3 6 C 0 km/h
2487 17-03-2011 17:41:02 5.9 C 6.06 g/m*3 5.9 C 0 km/h
2488 17-03-2011 17:53:02 5.8 C 6.09 g/m*3 5.8 C 0 km/h
2489 17-03-2011 18:05:01 5.8 C 6.09 g/m*3 5.8 C 0 km/h
2490 17-03-2011 18:17:02 5.9 C 6.13 g/m*3 5.9 C 0 km/h
2491 17-03-2011 18:29:02 6 C 6.1 g/m*3 6 C 0 km/h
2492 17-03-2011 18:41:01 6.1 C 6.14 g/m*3 6.1 C 0 km/h
2493 17-03-2011 18:53:02 6.1 C 6.06 g/m*3 6.1 C 0 km/h
2494 17-03-2011 19:05:01 6.2 C 6.1 g/m*3 6.2 C 0 km/h
2495 17-03-2011 19:17:02 6.2 C 6.1 g/m*3 6.2 C 0 km/h
2496 17-03-2011 19:29:02 6.2 C 6.1 g/m*3 6.2 C 0 km/h
2497 17-03-2011 19:41:01 6.2 C 6.1 g/m*3 6.2 C 0 km/h
2498 17-03-2011 19:53:02 6.3 C 6.14 g/m*3 6.3 C 0 km/h
2499 17-03-2011 20:05:02 6.3 C 6.14 g/m*3 6.3 C 0 km/h
2500 17-03-2011 20:18:55 6.3 C 6.07 g/m*3 6.3 C 0 km/h
Sensor: Nr:Datum:Temp:Abs-Feuchte:Windchill:Wind:
Aussen-T/F 2501 17-03-2011 20:30:55 6.3 C 6.14 g/m*3 6.3 C 0 km/h
2502 17-03-2011 20:42:56 6.3 C 6.14 g/m*3 6.3 C 0 km/h
2503 17-03-2011 20:54:56 6.4 C 6.11 g/m*3 6.4 C 0 km/h
2504 17-03-2011 21:06:56 6.3 C 6.07 g/m*3 6.3 C 0 km/h
2505 17-03-2011 21:18:56 6.3 C 6.07 g/m*3 6.3 C 0 km/h
2506 17-03-2011 21:30:56 6.3 C 6.07 g/m*3 6.3 C 0 km/h
2507 17-03-2011 21:42:56 6.4 C 6.11 g/m*3 6.4 C 0 km/h
2508 17-03-2011 21:54:56 6.3 C 6 g/m*3 6.3 C 0 km/h
2509 17-03-2011 22:06:56 6.3 C 6 g/m*3 6.3 C 0 km/h
2510 17-03-2011 22:18:56 6.3 C 6 g/m*3 6.3 C 0 km/h
2511 17-03-2011 22:30:56 6.2 C 5.88 g/m*3 6.2 C 0 km/h
2512 17-03-2011 22:42:56 6.2 C 5.88 g/m*3 6.2 C 0 km/h
2513 17-03-2011 22:54:56 6.1 C 5.92 g/m*3 6.1 C 0 km/h
2514 17-03-2011 23:06:56 6 C 5.88 g/m*3 6 C 0 km/h
2515 17-03-2011 23:18:56 6 C 5.88 g/m*3 6 C 0 km/h
2516 17-03-2011 23:30:56 6 C 5.81 g/m*3 6 C 0 km/h
2517 17-03-2011 23:42:56 6 C 5.81 g/m*3 6 C 0 km/h
2518 17-03-2011 23:54:56 5.9 C 5.77 g/m*3 5.9 C 0 km/h
2519 18-03-2011 00:06:56 6 C 5.73 g/m*3 6 C 0 km/h
2520 18-03-2011 00:18:57 5.9 C 5.7 g/m*3 5.9 C 0 km/h
2521 18-03-2011 00:30:57 6.1 C 5.63 g/m*3 6.1 C 0 km/h
2522 18-03-2011 00:42:57 6 C 5.52 g/m*3 6 C 0 km/h
2523 18-03-2011 00:54:57 5.9 C 5.55 g/m*3 5.9 C 0 km/h
2524 18-03-2011 01:06:57 6 C 5.59 g/m*3 6 C 0 km/h
2525 18-03-2011 01:18:57 5.7 C 5.55 g/m*3 5.7 C 0 km/h
Sensor: Nr:Datum:Temp:Abs-Feuchte:Windchill:Wind:
Aussen-T/F 2526 18-03-2011 01:30:57 5.7 C 5.62 g/m*3 5.7 C 0 km/h
2527 18-03-2011 01:42:57 5.6 C 5.66 g/m*3 5.6 C 0 km/h
2528 18-03-2011 01:54:57 5.5 C 5.69 g/m*3 5.5 C 0 km/h
2529 18-03-2011 02:06:57 5.5 C 5.69 g/m*3 5.5 C 0 km/h
2530 18-03-2011 02:18:57 5.5 C 5.69 g/m*3 5.5 C 0 km/h
2531 18-03-2011 02:30:57 5.5 C 5.69 g/m*3 5.5 C 0 km/h
2532 18-03-2011 02:42:57 5.4 C 5.72 g/m*3 5.4 C 0 km/h
2533 18-03-2011 02:54:57 5.3 C 5.75 g/m*3 5.3 C 0 km/h
2534 18-03-2011 03:06:57 5.2 C 5.78 g/m*3 5.2 C 0 km/h
2535 18-03-2011 03:18:58 5.1 C 5.81 g/m*3 5.1 C 0 km/h
2536 18-03-2011 03:30:58 5.1 C 5.81 g/m*3 5.1 C 0 km/h
2537 18-03-2011 03:42:58 5.1 C 5.81 g/m*3 5.1 C 0 km/h
2538 18-03-2011 03:54:58 5.1 C 5.75 g/m*3 5.1 C 0 km/h
2539 18-03-2011 04:06:58 5.2 C 5.78 g/m*3 5.2 C 0 km/h
2540 18-03-2011 04:18:58 5.2 C 5.71 g/m*3 5.2 C 0 km/h
2541 18-03-2011 04:30:58 5.2 C 5.65 g/m*3 5.2 C 0 km/h
2542 18-03-2011 04:42:58 5.1 C 5.61 g/m*3 5.1 C 0 km/h
2543 18-03-2011 04:54:58 5.1 C 5.68 g/m*3 5.1 C 0 km/h
2544 18-03-2011 05:06:58 5.1 C 5.68 g/m*3 5.1 C 0 km/h
2545 18-03-2011 05:18:58 5.1 C 5.68 g/m*3 5.1 C 0 km/h
2546 18-03-2011 05:30:58 5 C 5.57 g/m*3 5 C 0 km/h
2547 18-03-2011 05:42:58 5 C 5.64 g/m*3 5 C 0 km/h
2548 18-03-2011 05:54:58 5 C 5.64 g/m*3 5 C 0 km/h
2549 18-03-2011 06:06:58 5 C 5.64 g/m*3 5 C 0 km/h
2550 18-03-2011 06:18:58 4.8 C 5.57 g/m*3 4.8 C 0 km/h
Sensor: Nr:Datum:Temp:Abs-Feuchte:Windchill:Wind:
Aussen-T/F 2551 18-03-2011 06:30:58 4.7 C 5.53 g/m*3 4.7 C 0 km/h
2552 18-03-2011 06:42:58 4.9 C 5.54 g/m*3 4.9 C 0 km/h
2553 18-03-2011 06:54:58 4.8 C 5.43 g/m*3 4.8 C 0 km/h
2554 18-03-2011 07:06:58 4.8 C 5.43 g/m*3 4.8 C 0 km/h
2555 18-03-2011 07:18:04 4.7 C 5.4 g/m*3 4.7 C 0 km/h
2556 18-03-2011 07:30:04 4.7 C 5.4 g/m*3 4.7 C 0 km/h
2557 18-03-2011 07:42:03 4.8 C 5.36 g/m*3 4.8 C 0 km/h
2558 18-03-2011 07:54:02 5.1 C 5.2 g/m*3 5.1 C 0 km/h
2559 18-03-2011 08:06:02 5.1 C 5.06 g/m*3 5.1 C 0 km/h
2560 18-03-2011 08:18:03 5.2 C 5.03 g/m*3 5.2 C 0 km/h
2561 18-03-2011 08:30:03 5.2 C 5.03 g/m*3 5.2 C 0 km/h
2562 18-03-2011 08:42:02 5.3 C 5.06 g/m*3 5.3 C 0 km/h
2563 18-03-2011 08:54:03 5.2 C 5.03 g/m*3 5.2 C 0 km/h
2564 18-03-2011 09:06:02 5.3 C 5.13 g/m*3 5.3 C 0 km/h
2565 18-03-2011 09:18:02 5.5 C 5.06 g/m*3 5.5 C 0 km/h
2566 18-03-2011 09:30:02 5.7 C 4.7 g/m*3 5.7 C 0 km/h
2567 18-03-2011 09:42:02 6 C 4.5 g/m*3 6 C 0 km/h
2568 18-03-2011 09:54:02 6.1 C 4.53 g/m*3 6.1 C 0 km/h
2569 18-03-2011 10:06:02 6 C 4.43 g/m*3 6 C 0 km/h
2570 18-03-2011 10:18:02 6.1 C 4.53 g/m*3 6.1 C 0 km/h
2571 18-03-2011 10:30:02 6.6 C 4.6 g/m*3 6.6 C 0 km/h
2572 18-03-2011 10:42:02 6.5 C 4.5 g/m*3 6.5 C 0 km/h
2573 18-03-2011 10:54:01 6.3 C 4.59 g/m*3 6.3 C 0 km/h
2574 18-03-2011 11:06:01 6.4 C 4.69 g/m*3 6.4 C 0 km/h
2575 18-03-2011 11:18:01 6.5 C 4.72 g/m*3 6.5 C 0 km/h
Sensor: Nr:Datum:Temp:Abs-Feuchte:Windchill:Wind:
Aussen-T/F 2576 18-03-2011 11:30:01 6.5 C 4.72 g/m*3 6.5 C 0 km/h
2577 18-03-2011 11:42:01 7.1 C 4.84 g/m*3 7.1 C 0 km/h
2578 18-03-2011 11:54:01 7.4 C 4.77 g/m*3 7.4 C 0 km/h
2579 18-03-2011 12:06:02 7.3 C 4.58 g/m*3 7.3 C 0 km/h
2580 18-03-2011 12:18:01 7.6 C 4.75 g/m*3 7.6 C 0 km/h
2581 18-03-2011 12:30:01 7.5 C 4.64 g/m*3 7.5 C 0 km/h
2582 18-03-2011 12:42:02 7.5 C 4.72 g/m*3 7.5 C 0 km/h
2583 18-03-2011 12:54:02 7.6 C 4.67 g/m*3 7.6 C 0 km/h
2584 18-03-2011 13:06:03 8.5 C 4.78 g/m*3 8.5 C 0 km/h
2585 18-03-2011 13:18:02 8.4 C 4.5 g/m*3 8.4 C 0 km/h
2586 18-03-2011 13:30:02 8.8 C 4.53 g/m*3 8.8 C 0 km/h
2587 18-03-2011 13:42:02 9.2 C 4.55 g/m*3 9.2 C 0 km/h
2588 18-03-2011 13:54:02 8.9 C 4.56 g/m*3 8.9 C 0 km/h
2589 18-03-2011 14:06:02 8.6 C 4.47 g/m*3 8.6 C 0 km/h
2590 18-03-2011 14:18:01 8.6 C 4.55 g/m*3 8.6 C 0 km/h
2591 18-03-2011 14:30:01 8.7 C 4.5 g/m*3 8.7 C 0 km/h
2592 18-03-2011 14:42:02 9.1 C 4.53 g/m*3 9.1 C 0 km/h
2593 18-03-2011 14:54:04 8.9 C 4.56 g/m*3 8.9 C 0 km/h
2594 18-03-2011 15:06:02 8.9 C 4.47 g/m*3 8.9 C 0 km/h
2595 18-03-2011 15:18:02 8.5 C 4.44 g/m*3 8.5 C 0 km/h
2596 18-03-2011 15:30:02 8.7 C 4.5 g/m*3 8.7 C 0 km/h
2597 18-03-2011 15:42:01 9.1 C 4.53 g/m*3 9.1 C 0 km/h
2598 18-03-2011 15:54:02 9.3 C 4.49 g/m*3 9.3 C 0 km/h
2599 18-03-2011 16:06:02 9.2 C 4.46 g/m*3 9.2 C 0 km/h
2600 18-03-2011 16:18:02 8.9 C 4.56 g/m*3 8.9 C 0 km/h
Sensor: Nr:Datum:Temp:Abs-Feuchte:Windchill:Wind:
Aussen-T/F 2601 18-03-2011 16:30:02 8.7 C 4.5 g/m*3 8.7 C 0 km/h
2602 18-03-2011 16:42:01 8.5 C 4.44 g/m*3 8.5 C 0 km/h
2603 18-03-2011 16:54:02 8.4 C 4.5 g/m*3 8.4 C 0 km/h
2604 18-03-2011 17:06:01 8.2 C 4.61 g/m*3 8.2 C 0 km/h
2605 18-03-2011 17:18:02 8 C 4.71 g/m*3 8 C 0 km/h
2606 18-03-2011 17:30:02 7.9 C 4.93 g/m*3 7.9 C 0 km/h
2607 18-03-2011 17:42:01 7.9 C 5.01 g/m*3 7.9 C 0 km/h
2608 18-03-2011 17:54:01 7.7 C 4.87 g/m*3 7.7 C 0 km/h
2609 18-03-2011 18:06:01 7.6 C 4.99 g/m*3 7.6 C 0 km/h
2610 18-03-2011 18:18:02 7.4 C 5.01 g/m*3 7.4 C 0 km/h
2611 18-03-2011 18:30:02 7.3 C 5.06 g/m*3 7.3 C 0 km/h
2612 18-03-2011 18:42:01 7.2 C 5.18 g/m*3 7.2 C 0 km/h
2613 18-03-2011 18:54:02 7.2 C 5.26 g/m*3 7.2 C 0 km/h
2614 18-03-2011 19:06:01 7.1 C 5.23 g/m*3 7.1 C 0 km/h
2615 18-03-2011 19:18:02 7 C 5.19 g/m*3 7 C 0 km/h
2616 18-03-2011 19:30:02 6.8 C 5.2 g/m*3 6.8 C 0 km/h
2617 18-03-2011 19:42:01 6.8 C 5.2 g/m*3 6.8 C 0 km/h
2618 18-03-2011 19:54:02 6.6 C 5.28 g/m*3 6.6 C 0 km/h
2619 18-03-2011 20:06:02 6.6 C 5.36 g/m*3 6.6 C 0 km/h
2620 18-03-2011 20:18:02 6.4 C 5.29 g/m*3 6.4 C 0 km/h
2621 18-03-2011 20:30:02 6.4 C 5.29 g/m*3 6.4 C 0 km/h
2622 18-03-2011 20:42:02 6.3 C 5.26 g/m*3 6.3 C 0 km/h
2623 18-03-2011 20:54:02 6.3 C 5.33 g/m*3 6.3 C 0 km/h
2624 18-03-2011 21:06:02 6.4 C 5.29 g/m*3 6.4 C 0 km/h
2625 18-03-2011 21:18:02 6.4 C 5.29 g/m*3 6.4 C 0 km/h
Sensor: Nr:Datum:Temp:Abs-Feuchte:Windchill:Wind:
Aussen-T/F 2626 18-03-2011 21:30:02 6.2 C 5.22 g/m*3 6.2 C 0 km/h
2627 18-03-2011 21:42:01 6 C 5.37 g/m*3 6 C 0 km/h
2628 18-03-2011 21:54:02 6 C 5.52 g/m*3 6 C 0 km/h
2629 18-03-2011 22:06:01 5.7 C 5.62 g/m*3 5.7 C 0 km/h
2630 18-03-2011 22:19:02 5.6 C 5.73 g/m*3 5.6 C 0 km/h
2631 18-03-2011 22:31:02 5.4 C 5.79 g/m*3 5.4 C 0 km/h
2632 18-03-2011 22:43:03 5.3 C 5.82 g/m*3 5.3 C 0 km/h
2633 18-03-2011 22:55:03 5.2 C 5.85 g/m*3 5.2 C 0 km/h
2634 18-03-2011 23:07:03 5.2 C 5.92 g/m*3 5.2 C 0 km/h
2635 18-03-2011 23:19:03 5.1 C 5.95 g/m*3 5.1 C 0 km/h
2636 18-03-2011 23:31:03 5.1 C 6.02 g/m*3 5.1 C 0 km/h
2637 18-03-2011 23:43:03 5 C 5.98 g/m*3 5 C 0 km/h
2638 18-03-2011 23:55:03 5 C 5.98 g/m*3 5 C 0 km/h
2639 19-03-2011 00:07:03 4.9 C 6.01 g/m*3 4.9 C 0 km/h
2640 19-03-2011 00:19:03 4.8 C 5.97 g/m*3 4.8 C 0 km/h
2641 19-03-2011 00:31:03 4.7 C 6 g/m*3 4.7 C 0 km/h
2642 19-03-2011 00:43:03 4.6 C 5.96 g/m*3 4.6 C 0 km/h
2643 19-03-2011 00:55:03 4.6 C 5.96 g/m*3 4.6 C 0 km/h
2644 19-03-2011 01:07:03 4.6 C 5.96 g/m*3 4.6 C 0 km/h
2645 19-03-2011 01:19:03 4.6 C 5.96 g/m*3 4.6 C 0 km/h
2646 19-03-2011 01:31:03 4.5 C 5.92 g/m*3 4.5 C 0 km/h
2647 19-03-2011 01:43:03 4.5 C 5.98 g/m*3 4.5 C 0 km/h
2648 19-03-2011 01:55:03 4.4 C 5.94 g/m*3 4.4 C 0 km/h
2649 19-03-2011 02:07:03 4.4 C 5.94 g/m*3 4.4 C 0 km/h
2650 19-03-2011 02:19:03 4.3 C 5.9 g/m*3 4.3 C 0 km/h
Sensor: Nr:Datum:Temp:Abs-Feuchte:Windchill:Wind:
Aussen-T/F 2651 19-03-2011 02:31:03 4.4 C 5.94 g/m*3 4.4 C 0 km/h
2652 19-03-2011 02:43:03 4.4 C 5.94 g/m*3 4.4 C 0 km/h
2653 19-03-2011 02:55:04 4.4 C 5.94 g/m*3 4.4 C 0 km/h
2654 19-03-2011 03:07:04 4.4 C 5.94 g/m*3 4.4 C 0 km/h
2655 19-03-2011 03:19:04 4.4 C 5.94 g/m*3 4.4 C 0 km/h
2656 19-03-2011 03:31:04 4.5 C 5.98 g/m*3 4.5 C 0 km/h
2657 19-03-2011 03:43:04 4.5 C 5.98 g/m*3 4.5 C 0 km/h
2658 19-03-2011 03:55:04 4.6 C 6.02 g/m*3 4.6 C 0 km/h
2659 19-03-2011 04:07:04 4.7 C 6.06 g/m*3 4.7 C 0 km/h
2660 19-03-2011 04:19:04 4.7 C 6.13 g/m*3 4.7 C 0 km/h
2661 19-03-2011 04:31:04 4.7 C 6.13 g/m*3 4.7 C 0 km/h
2662 19-03-2011 04:43:04 4.7 C 6.13 g/m*3 4.7 C 0 km/h
2663 19-03-2011 04:55:04 4.6 C 6.09 g/m*3 4.6 C 0 km/h
2664 19-03-2011 05:07:04 4.6 C 6.09 g/m*3 4.6 C 0 km/h
2665 19-03-2011 05:19:04 4.7 C 6.13 g/m*3 4.7 C 0 km/h
2666 19-03-2011 05:31:04 4.7 C 6.13 g/m*3 4.7 C 0 km/h
2667 19-03-2011 05:43:04 4.7 C 6.13 g/m*3 4.7 C 0 km/h
2668 19-03-2011 05:55:04 4.7 C 6.13 g/m*3 4.7 C 0 km/h
2669 19-03-2011 06:07:04 4.7 C 6.13 g/m*3 4.7 C 0 km/h
2670 19-03-2011 06:19:04 4.6 C 6.09 g/m*3 4.6 C 0 km/h
2671 19-03-2011 06:31:04 4.5 C 6.05 g/m*3 4.5 C 0 km/h
2672 19-03-2011 06:43:04 4.5 C 6.05 g/m*3 4.5 C 0 km/h
2673 19-03-2011 06:55:05 4.4 C 6.01 g/m*3 4.4 C 0 km/h
2674 19-03-2011 07:07:05 4.4 C 6.01 g/m*3 4.4 C 0 km/h
2675 19-03-2011 07:19:05 4.4 C 6.01 g/m*3 4.4 C 0 km/h
Sensor: Nr:Datum:Temp:Abs-Feuchte:Windchill:Wind:
Aussen-T/F 2676 19-03-2011 07:31:05 4.4 C 6.01 g/m*3 4.4 C 0 km/h
2677 19-03-2011 07:43:05 4.3 C 5.97 g/m*3 4.3 C 0 km/h
2678 19-03-2011 07:55:05 4.4 C 6.01 g/m*3 4.4 C 0 km/h
2679 19-03-2011 08:07:03 4.5 C 6.05 g/m*3 4.5 C 0 km/h
2680 19-03-2011 08:19:02 4.6 C 6.09 g/m*3 4.6 C 0 km/h
2681 19-03-2011 08:31:02 4.8 C 6.1 g/m*3 4.8 C 0 km/h
2682 19-03-2011 08:43:03 4.8 C 6.04 g/m*3 4.8 C 0 km/h
2683 19-03-2011 08:55:01 5 C 5.98 g/m*3 5 C 0 km/h
2684 19-03-2011 09:07:02 5.2 C 5.92 g/m*3 5.2 C 0 km/h
2685 19-03-2011 09:19:01 5.3 C 5.82 g/m*3 5.3 C 0 km/h
2686 19-03-2011 09:31:02 6 C 5.88 g/m*3 6 C 0 km/h
2687 19-03-2011 09:43:02 6.6 C 5.66 g/m*3 6.6 C 0 km/h
2688 19-03-2011 09:55:02 5.8 C 5.37 g/m*3 5.8 C 0 km/h
2689 19-03-2011 10:07:02 6.5 C 5.47 g/m*3 6.5 C 0 km/h
2690 19-03-2011 10:19:02 7 C 5.42 g/m*3 7 C 0 km/h
2691 19-03-2011 10:31:02 6.9 C 5.16 g/m*3 6.9 C 0 km/h
2692 19-03-2011 10:43:02 6.8 C 5.28 g/m*3 6.8 C 0 km/h
2693 19-03-2011 10:55:02 6.8 C 5.12 g/m*3 6.8 C 0 km/h
2694 19-03-2011 11:07:01 6.7 C 5.09 g/m*3 6.7 C 0 km/h
2695 19-03-2011 11:19:01 6.4 C 5.22 g/m*3 6.4 C 0 km/h
2696 19-03-2011 11:31:02 6.9 C 5.16 g/m*3 6.9 C 0 km/h
2697 19-03-2011 11:43:02 7.9 C 4.6 g/m*3 7.9 C 0 km/h
2698 19-03-2011 11:55:02 8.9 C 4.56 g/m*3 8.9 C 0 km/h
2699 19-03-2011 12:07:02 9.1 C 3.99 g/m*3 9.1 C 0 km/h
2700 19-03-2011 12:19:02 10 C 3.76 g/m*3 10 C 0 km/h
Sensor: Nr:Datum:Temp:Abs-Feuchte:Windchill:Wind:
Aussen-T/F 2701 19-03-2011 12:31:02 10.8 C 3.56 g/m*3 10.8 C 0 km/h
2702 19-03-2011 12:43:02 12.4 C 3.06 g/m*3 12.4 C 0 km/h
2703 19-03-2011 12:55:02 14.3 C 3.07 g/m*3 14.3 C 0 km/h
2704 19-03-2011 13:07:02 11.8 C 2.84 g/m*3 11.8 C 0 km/h
2705 19-03-2011 13:19:01 12.6 C 2.88 g/m*3 12.6 C 0 km/h
2706 19-03-2011 13:31:02 12.1 C 3.11 g/m*3 12.1 C 0 km/h
2707 19-03-2011 13:43:02 11.9 C 3.18 g/m*3 11.9 C 0 km/h
2708 19-03-2011 13:55:02 12 C 2.66 g/m*3 12 C 0 km/h
2709 19-03-2011 14:07:02 11.2 C 2.64 g/m*3 11.2 C 0 km/h
2710 19-03-2011 14:19:02 11.8 C 2.74 g/m*3 11.8 C 0 km/h
2711 19-03-2011 14:31:02 11.8 C 2.63 g/m*3 11.8 C 0 km/h
2712 19-03-2011 14:43:02 13 C 2.38 g/m*3 13 C 0 km/h
2713 19-03-2011 14:55:01 15.2 C 2.6 g/m*3 15.2 C 0 km/h
2714 19-03-2011 15:07:02 14.3 C 2.46 g/m*3 14.3 C 0 km/h
2715 19-03-2011 15:19:01 14.9 C 2.55 g/m*3 14.9 C 0 km/h
2716 19-03-2011 15:31:01 15.4 C 2.63 g/m*3 15.4 C 0 km/h
2717 19-03-2011 15:43:02 18 C 3.07 g/m*3 18 C 0 km/h
2718 19-03-2011 15:55:02 17.4 C 2.96 g/m*3 17.4 C 0 km/h
2719 19-03-2011 16:07:02 18.2 C 3.11 g/m*3 18.2 C 0 km/h
2720 19-03-2011 16:19:01 17.3 C 2.95 g/m*3 17.3 C 0 km/h
2721 19-03-2011 16:31:02 17.3 C 2.95 g/m*3 17.3 C 0 km/h
2722 19-03-2011 16:43:02 17.6 C 3 g/m*3 17.6 C 0 km/h
2723 19-03-2011 16:55:02 16.9 C 2.88 g/m*3 16.9 C 0 km/h
2724 19-03-2011 17:07:02 16.8 C 2.86 g/m*3 16.8 C 0 km/h
2725 19-03-2011 17:19:01 15.5 C 2.64 g/m*3 15.5 C 0 km/h
Sensor: Nr:Datum:Temp:Abs-Feuchte:Windchill:Wind:
Aussen-T/F 2726 19-03-2011 17:31:02 15.4 C 2.63 g/m*3 15.4 C 0 km/h
2727 19-03-2011 17:43:02 14.7 C 2.52 g/m*3 14.7 C 0 km/h
2728 19-03-2011 17:55:02 14.5 C 2.49 g/m*3 14.5 C 0 km/h
2729 19-03-2011 18:07:02 12.7 C 2.89 g/m*3 12.7 C 0 km/h
2730 19-03-2011 18:19:02 10.8 C 3.36 g/m*3 10.8 C 0 km/h
2731 19-03-2011 18:31:02 7.8 C 3.26 g/m*3 7.8 C 0 km/h
2732 19-03-2011 18:43:02 6 C 3.41 g/m*3 6 C 0 km/h
2733 19-03-2011 18:55:02 5.2 C 3.31 g/m*3 5.2 C 0 km/h
2734 19-03-2011 19:07:02 4.6 C 3.44 g/m*3 4.6 C 0 km/h
2735 19-03-2011 19:19:03 3.9 C 3.54 g/m*3 3.9 C 0 km/h
2736 19-03-2011 19:31:02 4 C 3.5 g/m*3 4 C 0 km/h
2737 19-03-2011 19:43:02 3.6 C 3.4 g/m*3 3.6 C 0 km/h
2738 19-03-2011 19:55:02 3.2 C 3.43 g/m*3 3.2 C 0 km/h
2739 19-03-2011 20:07:02 3.4 C 3.66 g/m*3 3.4 C 0 km/h
2740 19-03-2011 20:19:03 3 C 3.69 g/m*3 3 C 0 km/h
2741 19-03-2011 20:31:02 2.3 C 3.57 g/m*3 2.3 C 0 km/h
2742 19-03-2011 20:43:02 2.2 C 3.72 g/m*3 2.2 C 0 km/h
2743 19-03-2011 20:55:02 2 C 3.72 g/m*3 2 C 0 km/h
2744 19-03-2011 21:07:02 2.2 C 3.77 g/m*3 2.2 C 0 km/h
2745 19-03-2011 21:19:02 1.4 C 3.63 g/m*3 1.4 C 0 km/h
2746 19-03-2011 21:31:02 0.5 C 3.61 g/m*3 0.5 C 0 km/h
2747 19-03-2011 21:43:02 0.3 C 3.66 g/m*3 0.3 C 0 km/h
2748 19-03-2011 21:55:03 0 C 3.68 g/m*3 0 C 0 km/h
2749 19-03-2011 22:07:03 0 C 3.73 g/m*3 0 C 0 km/h
2750 19-03-2011 22:20:04 -0.4 C 3.68 g/m*3 -0.4 C 0 km/h
Sensor: Nr:Datum:Temp:Abs-Feuchte:Windchill:Wind:
Aussen-T/F 2751 19-03-2011 22:32:04 -0.9 C 3.55 g/m*3 -0.9 C 0 km/h
2752 19-03-2011 22:44:04 -1.1 C 3.5 g/m*3 -1.1 C 0 km/h
2753 19-03-2011 22:56:04 -1.4 C 3.43 g/m*3 -1.4 C 0 km/h
2754 19-03-2011 23:08:04 -1.6 C 3.42 g/m*3 -1.6 C 0 km/h
2755 19-03-2011 23:20:04 -1.7 C 3.4 g/m*3 -1.7 C 0 km/h
2756 19-03-2011 23:32:04 -1.8 C 3.38 g/m*3 -1.8 C 0 km/h
2757 19-03-2011 23:44:04 -2 C 3.37 g/m*3 -2 C 0 km/h
2758 19-03-2011 23:56:04 -2.1 C 3.35 g/m*3 -2.1 C 0 km/h
2759 20-03-2011 00:08:04 -2.1 C 3.35 g/m*3 -2.1 C 0 km/h
2760 20-03-2011 00:20:04 -2.4 C 3.36 g/m*3 -2.4 C 0 km/h
2761 20-03-2011 00:32:04 -2.3 C 3.38 g/m*3 -2.3 C 0 km/h
2762 20-03-2011 00:44:04 -2.6 C 3.35 g/m*3 -2.6 C 0 km/h
2763 20-03-2011 00:56:04 -2.8 C 3.31 g/m*3 -2.8 C 0 km/h
2764 20-03-2011 01:08:04 -2.6 C 3.35 g/m*3 -2.6 C 0 km/h
2765 20-03-2011 01:20:04 -2.8 C 3.31 g/m*3 -2.8 C 0 km/h
2766 20-03-2011 01:32:05 -2.9 C 3.32 g/m*3 -2.9 C 0 km/h
2767 20-03-2011 01:44:05 -3.1 C 3.28 g/m*3 -3.1 C 0 km/h
2768 20-03-2011 01:56:05 -2.9 C 3.36 g/m*3 -2.9 C 0 km/h
2769 20-03-2011 02:08:05 -3.1 C 3.32 g/m*3 -3.1 C 0 km/h
2770 20-03-2011 02:20:05 -3.2 C 3.29 g/m*3 -3.2 C 0 km/h
2771 20-03-2011 02:32:05 -3.4 C 3.25 g/m*3 -3.4 C 0 km/h
2772 20-03-2011 02:44:05 -3.4 C 3.25 g/m*3 -3.4 C 0 km/h
2773 20-03-2011 02:56:05 -3.4 C 3.25 g/m*3 -3.4 C 0 km/h
2774 20-03-2011 03:08:05 -3.5 C 3.26 g/m*3 -3.5 C 0 km/h
2775 20-03-2011 03:20:05 -3.5 C 3.26 g/m*3 -3.5 C 0 km/h
Sensor: Nr:Datum:Temp:Abs-Feuchte:Windchill:Wind:
Aussen-T/F 2776 20-03-2011 03:32:05 -3.5 C 3.26 g/m*3 -3.5 C 0 km/h
2777 20-03-2011 03:44:05 -3.8 C 3.19 g/m*3 -3.8 C 0 km/h
2778 20-03-2011 03:56:05 -3.8 C 3.19 g/m*3 -3.8 C 0 km/h
2779 20-03-2011 04:08:05 -3.8 C 3.19 g/m*3 -3.8 C 0 km/h
2780 20-03-2011 04:20:05 -3.8 C 3.19 g/m*3 -3.8 C 0 km/h
2781 20-03-2011 04:32:05 -4 C 3.15 g/m*3 -4 C 0 km/h
2782 20-03-2011 04:44:05 -4 C 3.15 g/m*3 -4 C 0 km/h
2783 20-03-2011 04:56:05 -3.7 C 3.25 g/m*3 -3.7 C 0 km/h
2784 20-03-2011 05:08:05 -4.1 C 3.16 g/m*3 -4.1 C 0 km/h
2785 20-03-2011 05:20:05 -3.9 C 3.21 g/m*3 -3.9 C 0 km/h
2786 20-03-2011 05:32:06 -3.9 C 3.21 g/m*3 -3.9 C 0 km/h
2787 20-03-2011 05:44:06 -3.3 C 3.38 g/m*3 -3.3 C 0 km/h
2788 20-03-2011 05:56:06 -3.7 C 3.29 g/m*3 -3.7 C 0 km/h
2789 20-03-2011 06:08:06 -3.9 C 3.24 g/m*3 -3.9 C 0 km/h
2790 20-03-2011 06:20:06 -4.1 C 3.2 g/m*3 -4.1 C 0 km/h
2791 20-03-2011 06:32:06 -4.1 C 3.2 g/m*3 -4.1 C 0 km/h
2792 20-03-2011 06:44:06 -3 C 3.5 g/m*3 -3 C 0 km/h
2793 20-03-2011 06:56:06 -3.5 C 3.37 g/m*3 -3.5 C 0 km/h
2794 20-03-2011 07:08:06 -3.6 C 3.35 g/m*3 -3.6 C 0 km/h
2795 20-03-2011 07:20:06 -3.8 C 3.3 g/m*3 -3.8 C 0 km/h
2796 20-03-2011 07:32:06 -3.9 C 3.24 g/m*3 -3.9 C 0 km/h
2797 20-03-2011 07:44:06 -3.8 C 3.3 g/m*3 -3.8 C 0 km/h
2798 20-03-2011 07:56:06 -3.7 C 3.33 g/m*3 -3.7 C 0 km/h
2799 20-03-2011 08:08:06 -3.4 C 3.4 g/m*3 -3.4 C 0 km/h
2800 20-03-2011 08:20:06 -2.7 C 3.57 g/m*3 -2.7 C 0 km/h
Sensor: Nr:Datum:Temp:Abs-Feuchte:Windchill:Wind:
Aussen-T/F 2801 20-03-2011 08:32:03 -2.7 C 3.57 g/m*3 -2.7 C 0 km/h
2802 20-03-2011 08:44:03 -2 C 3.79 g/m*3 -2 C 0 km/h
2803 20-03-2011 08:56:01 -1.8 C 3.85 g/m*3 -1.8 C 0 km/h
2804 20-03-2011 09:08:01 -1.3 C 3.94 g/m*3 -1.3 C 0 km/h
2805 20-03-2011 09:20:02 -1.1 C 4 g/m*3 -1.1 C 0 km/h
2806 20-03-2011 09:32:01 -0.9 C 4.05 g/m*3 -0.9 C 0 km/h
2807 20-03-2011 09:44:01 -0.4 C 4.19 g/m*3 -0.4 C 0 km/h
2808 20-03-2011 09:56:03 0.7 C 4.47 g/m*3 0.7 C 0 km/h
2809 20-03-2011 10:08:02 1.3 C 4.45 g/m*3 1.3 C 0 km/h
2810 20-03-2011 10:20:02 1.8 C 4.49 g/m*3 1.8 C 0 km/h
2811 20-03-2011 10:32:02 2.6 C 4.4 g/m*3 2.6 C 0 km/h
2812 20-03-2011 10:44:02 3.5 C 4.18 g/m*3 3.5 C 0 km/h
2813 20-03-2011 10:56:02 4.1 C 4.22 g/m*3 4.1 C 0 km/h
2814 20-03-2011 11:08:02 4 C 3.88 g/m*3 4 C 0 km/h
2815 20-03-2011 11:20:02 4.9 C 3.85 g/m*3 4.9 C 0 km/h
2816 20-03-2011 11:32:02 5.3 C 3.88 g/m*3 5.3 C 0 km/h
2817 20-03-2011 11:44:02 6.2 C 3.75 g/m*3 6.2 C 0 km/h
2818 20-03-2011 11:56:02 7.2 C 3.53 g/m*3 7.2 C 0 km/h
2819 20-03-2011 12:08:02 10.1 C 3.31 g/m*3 10.1 C 0 km/h
2820 20-03-2011 12:20:02 10.9 C 2.98 g/m*3 10.9 C 0 km/h
2821 20-03-2011 12:32:01 10.8 C 2.17 g/m*3 10.8 C 0 km/h
2822 20-03-2011 12:44:01 12.8 C 2.24 g/m*3 12.8 C 0 km/h
2823 20-03-2011 12:56:01 14.1 C 2.43 g/m*3 14.1 C 0 km/h
2824 20-03-2011 13:08:02 12.4 C 2.19 g/m*3 12.4 C 0 km/h
2825 20-03-2011 13:20:02 13 C 2.27 g/m*3 13 C 0 km/h
Sensor: Nr:Datum:Temp:Abs-Feuchte:Windchill:Wind:
Aussen-T/F 2826 20-03-2011 13:32:01 11.9 C 2.12 g/m*3 11.9 C 0 km/h
2827 20-03-2011 13:44:01 12.9 C 2.25 g/m*3 12.9 C 0 km/h
2828 20-03-2011 13:56:01 12.7 C 2.23 g/m*3 12.7 C 0 km/h
2829 20-03-2011 14:08:02 11.8 C 2.1 g/m*3 11.8 C 0 km/h
2830 20-03-2011 14:20:02 11.8 C 2.1 g/m*3 11.8 C 0 km/h
2831 20-03-2011 14:32:01 12.1 C 2.14 g/m*3 12.1 C 0 km/h
2832 20-03-2011 14:44:01 13.8 C 2.38 g/m*3 13.8 C 0 km/h
2833 20-03-2011 14:56:02 15.6 C 2.66 g/m*3 15.6 C 0 km/h
2834 20-03-2011 15:08:01 15.8 C 2.69 g/m*3 15.8 C 0 km/h
2835 20-03-2011 15:20:02 16.1 C 2.74 g/m*3 16.1 C 0 km/h
2836 20-03-2011 15:32:01 16.9 C 2.88 g/m*3 16.9 C 0 km/h
2837 20-03-2011 15:44:01 19.2 C 3.3 g/m*3 19.2 C 0 km/h
2838 20-03-2011 15:56:01 19.2 C 3.3 g/m*3 19.2 C 0 km/h
2839 20-03-2011 16:08:01 19.5 C 3.36 g/m*3 19.5 C 0 km/h
2840 20-03-2011 16:20:02 18.7 C 3.2 g/m*3 18.7 C 0 km/h
2841 20-03-2011 16:32:01 19.8 C 3.42 g/m*3 19.8 C 0 km/h
2842 20-03-2011 16:44:01 18.1 C 3.09 g/m*3 18.1 C 0 km/h
2843 20-03-2011 16:56:01 18.8 C 3.22 g/m*3 18.8 C 0 km/h
2844 20-03-2011 17:08:01 17.9 C 3.05 g/m*3 17.9 C 0 km/h
2845 20-03-2011 17:20:02 16.2 C 2.76 g/m*3 16.2 C 0 km/h
2846 20-03-2011 17:32:01 16 C 2.72 g/m*3 16 C 0 km/h
2847 20-03-2011 17:44:01 15.6 C 2.66 g/m*3 15.6 C 0 km/h
2848 20-03-2011 17:56:03 14 C 2.41 g/m*3 14 C 0 km/h
2849 20-03-2011 18:08:02 11.9 C 3.18 g/m*3 11.9 C 0 km/h
2850 20-03-2011 18:20:03 9.4 C 3.44 g/m*3 9.4 C 0 km/h
Sensor: Nr:Datum:Temp:Abs-Feuchte:Windchill:Wind:
Aussen-T/F 2851 20-03-2011 18:32:02 7 C 3.49 g/m*3 7 C 0 km/h
2852 20-03-2011 18:44:02 5.9 C 3.68 g/m*3 5.9 C 0 km/h
2853 20-03-2011 18:56:02 5.4 C 3.56 g/m*3 5.4 C 0 km/h
2854 20-03-2011 19:08:02 4.8 C 3.55 g/m*3 4.8 C 0 km/h
2855 20-03-2011 19:20:02 4.4 C 3.59 g/m*3 4.4 C 0 km/h
2856 20-03-2011 19:32:02 4.6 C 3.84 g/m*3 4.6 C 0 km/h
2857 20-03-2011 19:44:02 4 C 3.56 g/m*3 4 C 0 km/h
2858 20-03-2011 19:56:02 4 C 3.69 g/m*3 4 C 0 km/h
2859 20-03-2011 20:08:02 3.4 C 3.73 g/m*3 3.4 C 0 km/h
2860 20-03-2011 20:20:02 3.3 C 3.64 g/m*3 3.3 C 0 km/h
2861 20-03-2011 20:32:02 2.9 C 3.54 g/m*3 2.9 C 0 km/h
2862 20-03-2011 20:44:02 2 C 3.28 g/m*3 2 C 0 km/h
2863 20-03-2011 20:56:02 1.6 C 3.3 g/m*3 1.6 C 0 km/h
2864 20-03-2011 21:08:02 1.3 C 3.39 g/m*3 1.3 C 0 km/h
2865 20-03-2011 21:20:02 1.2 C 3.47 g/m*3 1.2 C 0 km/h
2866 20-03-2011 21:32:01 0.7 C 3.3 g/m*3 0.7 C 0 km/h
2867 20-03-2011 21:44:01 0.5 C 3.31 g/m*3 0.5 C 0 km/h
2868 20-03-2011 21:56:02 0.1 C 3.27 g/m*3 0.1 C 0 km/h
2869 20-03-2011 22:08:02 0 C 3.2 g/m*3 0 C 0 km/h
2870 20-03-2011 22:20:01 -0.5 C 3.18 g/m*3 -0.5 C 0 km/h
2871 20-03-2011 22:33:04 -0.9 C 3.14 g/m*3 -0.9 C 0 km/h
2872 20-03-2011 22:45:04 -0.2 C 3.44 g/m*3 -0.2 C 0 km/h
2873 20-03-2011 22:57:04 -0.6 C 3.3 g/m*3 -0.6 C 0 km/h
2874 20-03-2011 23:09:04 -0.7 C 3.32 g/m*3 -0.7 C 0 km/h
2875 20-03-2011 23:21:04 -1.1 C 3.19 g/m*3 -1.1 C 0 km/h
Sensor: Nr:Datum:Temp:Abs-Feuchte:Windchill:Wind:
Aussen-T/F 2876 20-03-2011 23:33:04 -1.3 C 3.14 g/m*3 -1.3 C 0 km/h
2877 20-03-2011 23:45:04 -1.5 C 3.14 g/m*3 -1.5 C 0 km/h
2878 20-03-2011 23:57:04 -1.7 C 3.1 g/m*3 -1.7 C 0 km/h
2879 21-03-2011 00:09:04 -1.6 C 3.16 g/m*3 -1.6 C 0 km/h
2880 21-03-2011 00:21:04 -1.5 C 3.19 g/m*3 -1.5 C 0 km/h
2881 21-03-2011 00:33:04 -1.6 C 3.21 g/m*3 -1.6 C 0 km/h
2882 21-03-2011 00:45:04 -1.5 C 3.32 g/m*3 -1.5 C 0 km/h
2883 21-03-2011 00:57:04 -2 C 3.16 g/m*3 -2 C 0 km/h
2884 21-03-2011 01:09:04 -2.3 C 3.1 g/m*3 -2.3 C 0 km/h
2885 21-03-2011 01:21:04 -2.4 C 3.11 g/m*3 -2.4 C 0 km/h
2886 21-03-2011 01:33:04 -2.5 C 3.17 g/m*3 -2.5 C 0 km/h
2887 21-03-2011 01:45:04 -2.6 C 3.19 g/m*3 -2.6 C 0 km/h
2888 21-03-2011 01:57:04 -2.7 C 3.17 g/m*3 -2.7 C 0 km/h
2889 21-03-2011 02:09:05 -2.1 C 3.39 g/m*3 -2.1 C 0 km/h
2890 21-03-2011 02:21:05 -2.5 C 3.3 g/m*3 -2.5 C 0 km/h
2891 21-03-2011 02:33:05 -2.7 C 3.25 g/m*3 -2.7 C 0 km/h
2892 21-03-2011 02:45:05 -2.7 C 3.29 g/m*3 -2.7 C 0 km/h
2893 21-03-2011 02:57:05 -3.1 C 3.2 g/m*3 -3.1 C 0 km/h
2894 21-03-2011 03:09:05 -3 C 3.26 g/m*3 -3 C 0 km/h
2895 21-03-2011 03:21:05 -3 C 3.26 g/m*3 -3 C 0 km/h
2896 21-03-2011 03:33:05 -3 C 3.26 g/m*3 -3 C 0 km/h
2897 21-03-2011 03:45:05 -3.2 C 3.21 g/m*3 -3.2 C 0 km/h
2898 21-03-2011 03:57:05 -3.2 C 3.25 g/m*3 -3.2 C 0 km/h
2899 21-03-2011 04:09:05 -3.4 C 3.21 g/m*3 -3.4 C 0 km/h
2900 21-03-2011 04:21:05 -3.3 C 3.23 g/m*3 -3.3 C 0 km/h
Sensor: Nr:Datum:Temp:Abs-Feuchte:Windchill:Wind:
Aussen-T/F 2901 21-03-2011 04:33:05 -3.4 C 3.21 g/m*3 -3.4 C 0 km/h
2902 21-03-2011 04:45:05 -3.7 C 3.18 g/m*3 -3.7 C 0 km/h
2903 21-03-2011 04:57:05 -3.7 C 3.18 g/m*3 -3.7 C 0 km/h
2904 21-03-2011 05:09:05 -3.7 C 3.18 g/m*3 -3.7 C 0 km/h
2905 21-03-2011 05:21:05 -3.8 C 3.15 g/m*3 -3.8 C 0 km/h
2906 21-03-2011 05:33:05 -3.9 C 3.13 g/m*3 -3.9 C 0 km/h
2907 21-03-2011 05:45:05 -4 C 3.11 g/m*3 -4 C 0 km/h
2908 21-03-2011 05:57:05 -3.9 C 3.17 g/m*3 -3.9 C 0 km/h
2909 21-03-2011 06:09:05 -4.1 C 3.12 g/m*3 -4.1 C 0 km/h
2910 21-03-2011 06:21:06 -3.7 C 3.21 g/m*3 -3.7 C 0 km/h
2911 21-03-2011 06:33:06 -4 C 3.15 g/m*3 -4 C 0 km/h
2912 21-03-2011 06:45:06 -4 C 3.15 g/m*3 -4 C 0 km/h
2913 21-03-2011 06:57:06 -3.9 C 3.17 g/m*3 -3.9 C 0 km/h
2914 21-03-2011 07:09:06 -3.8 C 3.19 g/m*3 -3.8 C 0 km/h
2915 21-03-2011 07:21:03 -3.5 C 3.3 g/m*3 -3.5 C 0 km/h
2916 21-03-2011 07:33:03 -3.1 C 3.39 g/m*3 -3.1 C 0 km/h
2917 21-03-2011 07:45:02 -3 C 3.42 g/m*3 -3 C 0 km/h
2918 21-03-2011 07:57:02 -2.7 C 3.49 g/m*3 -2.7 C 0 km/h
2919 21-03-2011 08:09:02 -2.9 C 3.44 g/m*3 -2.9 C 0 km/h
2920 21-03-2011 08:21:03 -2.6 C 3.52 g/m*3 -2.6 C 0 km/h
2921 21-03-2011 08:33:02 -2 C 3.67 g/m*3 -2 C 0 km/h
2922 21-03-2011 08:45:02 -1.6 C 3.77 g/m*3 -1.6 C 0 km/h
2923 21-03-2011 08:57:02 -1.5 C 3.75 g/m*3 -1.5 C 0 km/h
2924 21-03-2011 09:09:02 -1.3 C 3.76 g/m*3 -1.3 C 0 km/h
2925 21-03-2011 09:21:02 -1 C 3.8 g/m*3 -1 C 0 km/h
Sensor: Nr:Datum:Temp:Abs-Feuchte:Windchill:Wind:
Aussen-T/F 2926 21-03-2011 09:33:02 -1 C 3.75 g/m*3 -1 C 0 km/h
2927 21-03-2011 09:45:02 -0.4 C 3.91 g/m*3 -0.4 C 0 km/h
2928 21-03-2011 09:57:02 0.5 C 4.11 g/m*3 0.5 C 0 km/h
2929 21-03-2011 10:09:02 0.9 C 4.12 g/m*3 0.9 C 0 km/h
2930 21-03-2011 10:21:02 1.5 C 4.24 g/m*3 1.5 C 0 km/h
2931 21-03-2011 10:33:02 2.4 C 4.4 g/m*3 2.4 C 0 km/h
2932 21-03-2011 10:45:01 3.6 C 4.27 g/m*3 3.6 C 0 km/h
2933 21-03-2011 10:57:01 4.4 C 3.98 g/m*3 4.4 C 0 km/h
2934 21-03-2011 11:09:02 5.9 C 3.82 g/m*3 5.9 C 0 km/h
2935 21-03-2011 11:21:01 6.6 C 3.77 g/m*3 6.6 C 0 km/h
2936 21-03-2011 11:33:01 7.1 C 3.67 g/m*3 7.1 C 0 km/h
2937 21-03-2011 11:45:01 7.9 C 3.7 g/m*3 7.9 C 0 km/h
2938 21-03-2011 11:57:01 9.4 C 3.53 g/m*3 9.4 C 0 km/h
2939 21-03-2011 12:09:02 12.2 C 3.78 g/m*3 12.2 C 0 km/h
2940 21-03-2011 12:21:01 12.8 C 3.36 g/m*3 12.8 C 0 km/h
2941 21-03-2011 12:33:01 12.7 C 3.12 g/m*3 12.7 C 0 km/h
2942 21-03-2011 12:45:01 14.5 C 2.74 g/m*3 14.5 C 0 km/h
2943 21-03-2011 12:57:01 15.8 C 2.69 g/m*3 15.8 C 0 km/h
2944 21-03-2011 13:09:02 14.8 C 2.53 g/m*3 14.8 C 0 km/h
2945 21-03-2011 13:21:01 14.4 C 2.47 g/m*3 14.4 C 0 km/h
2946 21-03-2011 13:33:01 13.5 C 2.34 g/m*3 13.5 C 0 km/h
2947 21-03-2011 13:45:01 14.4 C 2.47 g/m*3 14.4 C 0 km/h
2948 21-03-2011 13:57:01 14.6 C 2.5 g/m*3 14.6 C 0 km/h
2949 21-03-2011 14:09:01 14.5 C 2.49 g/m*3 14.5 C 0 km/h
2950 21-03-2011 14:21:02 14.7 C 2.52 g/m*3 14.7 C 0 km/h
Sensor: Nr:Datum:Temp:Abs-Feuchte:Windchill:Wind:
Aussen-T/F 2951 21-03-2011 14:33:01 15.2 C 2.6 g/m*3 15.2 C 0 km/h
2952 21-03-2011 14:45:01 16.3 C 2.77 g/m*3 16.3 C 0 km/h
2953 21-03-2011 14:57:01 19.5 C 3.36 g/m*3 19.5 C 0 km/h
2954 21-03-2011 15:09:01 19.3 C 3.32 g/m*3 19.3 C 0 km/h
2955 21-03-2011 15:21:02 18.5 C 3.16 g/m*3 18.5 C 0 km/h
2956 21-03-2011 15:33:01 20.1 C 3.48 g/m*3 20.1 C 0 km/h
2957 21-03-2011 15:45:03 20.6 C 3.58 g/m*3 20.6 C 0 km/h
2958 21-03-2011 15:57:03 20 C 3.46 g/m*3 20 C 0 km/h
2959 21-03-2011 16:09:02 20.2 C 3.5 g/m*3 20.2 C 0 km/h
2960 21-03-2011 16:21:02 19.1 C 3.28 g/m*3 19.1 C 0 km/h
2961 21-03-2011 16:33:02 20.8 C 3.62 g/m*3 20.8 C 0 km/h
2962 21-03-2011 16:45:02 19.9 C 3.44 g/m*3 19.9 C 0 km/h
2963 21-03-2011 16:57:02 19.9 C 3.44 g/m*3 19.9 C 0 km/h
2964 21-03-2011 17:09:02 19.4 C 3.34 g/m*3 19.4 C 0 km/h
2965 21-03-2011 17:21:02 18.9 C 3.24 g/m*3 18.9 C 0 km/h
2966 21-03-2011 17:33:02 17.3 C 2.95 g/m*3 17.3 C 0 km/h
2967 21-03-2011 17:45:02 16.5 C 2.81 g/m*3 16.5 C 0 km/h
2968 21-03-2011 17:57:02 16.2 C 3.03 g/m*3 16.2 C 0 km/h
2969 21-03-2011 18:09:01 15.5 C 2.64 g/m*3 15.5 C 0 km/h
2970 21-03-2011 18:21:02 11.8 C 3.47 g/m*3 11.8 C 0 km/h
2971 21-03-2011 18:33:01 9.6 C 3.76 g/m*3 9.6 C 0 km/h
2972 21-03-2011 18:45:02 8.3 C 3.79 g/m*3 8.3 C 0 km/h
2973 21-03-2011 18:57:02 7.7 C 3.89 g/m*3 7.7 C 0 km/h
2974 21-03-2011 19:09:01 7.3 C 3.95 g/m*3 7.3 C 0 km/h
2975 21-03-2011 19:21:01 7 C 3.87 g/m*3 7 C 0 km/h
Sensor: Nr:Datum:Temp:Abs-Feuchte:Windchill:Wind:
Aussen-T/F 2976 21-03-2011 19:33:01 6.7 C 3.95 g/m*3 6.7 C 0 km/h
2977 21-03-2011 19:45:02 6.3 C 3.92 g/m*3 6.3 C 0 km/h
2978 21-03-2011 19:57:02 6 C 4.14 g/m*3 6 C 0 km/h
2979 21-03-2011 20:09:02 5.4 C 3.98 g/m*3 5.4 C 0 km/h
2980 21-03-2011 20:21:02 5.6 C 4.24 g/m*3 5.6 C 0 km/h
2981 21-03-2011 20:33:02 4.9 C 4.12 g/m*3 4.9 C 0 km/h
2982 21-03-2011 20:45:02 5 C 4.14 g/m*3 5 C 0 km/h
2983 21-03-2011 20:57:02 4.4 C 3.98 g/m*3 4.4 C 0 km/h
2984 21-03-2011 21:09:01 4.1 C 4.16 g/m*3 4.1 C 0 km/h
2985 21-03-2011 21:21:01 3.5 C 4.06 g/m*3 3.5 C 0 km/h
2986 21-03-2011 21:33:02 3.2 C 4.16 g/m*3 3.2 C 0 km/h
2987 21-03-2011 21:46:02 2.5 C 3.91 g/m*3 2.5 C 0 km/h
2988 21-03-2011 21:58:02 2.4 C 3.94 g/m*3 2.4 C 0 km/h
2989 21-03-2011 22:10:02 2.1 C 3.86 g/m*3 2.1 C 0 km/h
2990 21-03-2011 22:22:02 2.3 C 4.03 g/m*3 2.3 C 0 km/h
2991 21-03-2011 22:34:02 1.6 C 3.95 g/m*3 1.6 C 0 km/h
2992 21-03-2011 22:46:02 1.5 C 3.92 g/m*3 1.5 C 0 km/h
2993 21-03-2011 22:58:02 1.2 C 3.95 g/m*3 1.2 C 0 km/h
2994 21-03-2011 23:10:02 0.9 C 3.97 g/m*3 0.9 C 0 km/h
2995 21-03-2011 23:22:02 0.7 C 3.92 g/m*3 0.7 C 0 km/h
2996 21-03-2011 23:34:02 0.6 C 3.89 g/m*3 0.6 C 0 km/h
2997 21-03-2011 23:46:02 0.5 C 3.86 g/m*3 0.5 C 0 km/h
2998 21-03-2011 23:58:02 0.3 C 3.81 g/m*3 0.3 C 0 km/h
2999 22-03-2011 00:10:02 0.2 C 3.83 g/m*3 0.2 C 0 km/h
3000 22-03-2011 00:22:02 0.1 C 3.81 g/m*3 0.1 C 0 km/h
Sensor: Nr:Datum:Temp:Abs-Feuchte:Windchill:Wind:
Aussen-T/F 3001 22-03-2011 00:34:02 -0.2 C 3.78 g/m*3 -0.2 C 0 km/h
3002 22-03-2011 00:46:02 -0.5 C 3.7 g/m*3 -0.5 C 0 km/h
3003 22-03-2011 00:58:02 -0.4 C 3.77 g/m*3 -0.4 C 0 km/h
3004 22-03-2011 01:10:02 -0.5 C 3.79 g/m*3 -0.5 C 0 km/h
3005 22-03-2011 01:22:02 -0.6 C 3.81 g/m*3 -0.6 C 0 km/h
3006 22-03-2011 01:34:02 -1 C 3.71 g/m*3 -1 C 0 km/h
3007 22-03-2011 01:46:03 -1.1 C 3.73 g/m*3 -1.1 C 0 km/h
3008 22-03-2011 01:58:03 -1.1 C 3.73 g/m*3 -1.1 C 0 km/h
3009 22-03-2011 02:10:03 -1.1 C 3.77 g/m*3 -1.1 C 0 km/h
3010 22-03-2011 02:22:03 -1.3 C 3.72 g/m*3 -1.3 C 0 km/h
3011 22-03-2011 02:34:03 -1.5 C 3.67 g/m*3 -1.5 C 0 km/h
3012 22-03-2011 02:46:03 -1.4 C 3.74 g/m*3 -1.4 C 0 km/h
3013 22-03-2011 02:58:03 -1.5 C 3.71 g/m*3 -1.5 C 0 km/h
3014 22-03-2011 03:10:03 -1.4 C 3.74 g/m*3 -1.4 C 0 km/h
3015 22-03-2011 03:22:03 -1.7 C 3.66 g/m*3 -1.7 C 0 km/h
3016 22-03-2011 03:34:03 -2 C 3.58 g/m*3 -2 C 0 km/h
3017 22-03-2011 03:46:03 -2.1 C 3.56 g/m*3 -2.1 C 0 km/h
3018 22-03-2011 03:58:03 -2.1 C 3.56 g/m*3 -2.1 C 0 km/h
3019 22-03-2011 04:10:03 -2.1 C 3.56 g/m*3 -2.1 C 0 km/h
3020 22-03-2011 04:22:03 -2.1 C 3.56 g/m*3 -2.1 C 0 km/h
3021 22-03-2011 04:34:03 -2.3 C 3.55 g/m*3 -2.3 C 0 km/h
3022 22-03-2011 04:46:03 -2.4 C 3.52 g/m*3 -2.4 C 0 km/h
3023 22-03-2011 04:58:03 -2.3 C 3.55 g/m*3 -2.3 C 0 km/h
3024 22-03-2011 05:10:03 -2.4 C 3.57 g/m*3 -2.4 C 0 km/h
3025 22-03-2011 05:22:03 -2.4 C 3.57 g/m*3 -2.4 C 0 km/h
Sensor: Nr:Datum:Temp:Abs-Feuchte:Windchill:Wind:
Aussen-T/F 3026 22-03-2011 05:34:03 -2.7 C 3.49 g/m*3 -2.7 C 0 km/h
3027 22-03-2011 05:46:04 -2.7 C 3.49 g/m*3 -2.7 C 0 km/h
3028 22-03-2011 05:58:04 -2.6 C 3.52 g/m*3 -2.6 C 0 km/h
3029 22-03-2011 06:10:04 -2.4 C 3.61 g/m*3 -2.4 C 0 km/h
3030 22-03-2011 06:22:04 -2.5 C 3.58 g/m*3 -2.5 C 0 km/h
3031 22-03-2011 06:34:04 -2.1 C 3.68 g/m*3 -2.1 C 0 km/h
3032 22-03-2011 06:46:04 -2 C 3.75 g/m*3 -2 C 0 km/h
3033 22-03-2011 06:58:04 -2.1 C 3.73 g/m*3 -2.1 C 0 km/h
3034 22-03-2011 07:10:03 -2.4 C 3.65 g/m*3 -2.4 C 0 km/h
3035 22-03-2011 07:22:02 -2.2 C 3.7 g/m*3 -2.2 C 0 km/h
3036 22-03-2011 07:34:02 -1.9 C 3.78 g/m*3 -1.9 C 0 km/h
3037 22-03-2011 07:46:01 -2 C 3.75 g/m*3 -2 C 0 km/h
3038 22-03-2011 07:58:01 -2.1 C 3.73 g/m*3 -2.1 C 0 km/h
3039 22-03-2011 08:10:02 -1.5 C 3.89 g/m*3 -1.5 C 0 km/h
3040 22-03-2011 08:22:01 -1 C 4.07 g/m*3 -1 C 0 km/h
3041 22-03-2011 08:34:01 -0.9 C 4.1 g/m*3 -0.9 C 0 km/h
3042 22-03-2011 08:46:02 -0.7 C 4.15 g/m*3 -0.7 C 0 km/h
3043 22-03-2011 08:58:02 -0.6 C 4.18 g/m*3 -0.6 C 0 km/h
3044 22-03-2011 09:10:01 -0.3 C 4.27 g/m*3 -0.3 C 0 km/h
3045 22-03-2011 09:22:02 0.1 C 4.39 g/m*3 0.1 C 0 km/h
3046 22-03-2011 09:34:01 0.5 C 4.51 g/m*3 0.5 C 0 km/h
3047 22-03-2011 09:46:01 1.5 C 4.83 g/m*3 1.5 C 0 km/h
3048 22-03-2011 09:58:01 2.2 C 4.96 g/m*3 2.2 C 0 km/h
3049 22-03-2011 10:10:01 3 C 4.93 g/m*3 3 C 0 km/h
3050 22-03-2011 10:22:02 3.8 C 5.02 g/m*3 3.8 C 0 km/h
Sensor: Nr:Datum:Temp:Abs-Feuchte:Windchill:Wind:
Aussen-T/F 3051 22-03-2011 10:34:01 5 C 4.89 g/m*3 5 C 0 km/h
3052 22-03-2011 10:46:03 6 C 4.65 g/m*3 6 C 0 km/h
3053 22-03-2011 10:58:03 6.4 C 4.4 g/m*3 6.4 C 0 km/h
3054 22-03-2011 11:10:02 6.9 C 4.46 g/m*3 6.9 C 0 km/h
3055 22-03-2011 11:22:02 8 C 4.13 g/m*3 8 C 0 km/h
3056 22-03-2011 11:34:02 8.6 C 4.21 g/m*3 8.6 C 0 km/h
3057 22-03-2011 11:46:02 9.8 C 3.99 g/m*3 9.8 C 0 km/h
3058 22-03-2011 11:58:02 10.8 C 3.95 g/m*3 10.8 C 0 km/h
3059 22-03-2011 12:10:02 12.4 C 3.93 g/m*3 12.4 C 0 km/h
3060 22-03-2011 12:22:02 14.5 C 3.48 g/m*3 14.5 C 0 km/h
3061 22-03-2011 12:34:02 14.7 C 3.4 g/m*3 14.7 C 0 km/h
3062 22-03-2011 12:46:02 17.6 C 3.15 g/m*3 17.6 C 0 km/h
3063 22-03-2011 12:58:02 19.1 C 3.28 g/m*3 19.1 C 0 km/h
3064 22-03-2011 13:10:02 17 C 2.89 g/m*3 17 C 0 km/h
3065 22-03-2011 13:22:01 16.8 C 2.86 g/m*3 16.8 C 0 km/h
3066 22-03-2011 13:34:02 16.4 C 2.79 g/m*3 16.4 C 0 km/h
3067 22-03-2011 13:46:02 16.8 C 2.86 g/m*3 16.8 C 0 km/h
3068 22-03-2011 13:58:02 17.5 C 2.98 g/m*3 17.5 C 0 km/h
3069 22-03-2011 14:10:02 17.4 C 2.96 g/m*3 17.4 C 0 km/h
3070 22-03-2011 14:22:01 17.9 C 3.05 g/m*3 17.9 C 0 km/h
3071 22-03-2011 14:34:02 18 C 3.07 g/m*3 18 C 0 km/h
3072 22-03-2011 14:46:02 19.7 C 3.4 g/m*3 19.7 C 0 km/h
3073 22-03-2011 14:58:02 21.4 C 3.75 g/m*3 21.4 C 0 km/h
3074 22-03-2011 15:10:03 22.6 C 4.02 g/m*3 22.6 C 0 km/h
3075 22-03-2011 15:22:02 21.7 C 3.82 g/m*3 21.7 C 0 km/h
Sensor: Nr:Datum:Temp:Abs-Feuchte:Windchill:Wind:
Aussen-T/F 3076 22-03-2011 15:34:02 21.8 C 3.84 g/m*3 21.8 C 0 km/h
3077 22-03-2011 15:46:01 22.4 C 3.97 g/m*3 22.4 C 0 km/h
3078 22-03-2011 15:58:01 22.8 C 4.06 g/m*3 22.8 C 0 km/h
3079 22-03-2011 16:10:02 21.6 C 3.79 g/m*3 21.6 C 0 km/h
3080 22-03-2011 16:22:01 22.1 C 3.9 g/m*3 22.1 C 0 km/h
3081 22-03-2011 16:34:02 22.6 C 4.02 g/m*3 22.6 C 0 km/h
3082 22-03-2011 16:46:02 20.9 C 3.64 g/m*3 20.9 C 0 km/h
3083 22-03-2011 16:58:02 21.5 C 3.77 g/m*3 21.5 C 0 km/h
3084 22-03-2011 17:10:02 19.4 C 3.34 g/m*3 19.4 C 0 km/h
3085 22-03-2011 17:22:01 19.6 C 3.38 g/m*3 19.6 C 0 km/h
3086 22-03-2011 17:34:02 19.6 C 3.38 g/m*3 19.6 C 0 km/h
3087 22-03-2011 17:46:02 18.9 C 3.24 g/m*3 18.9 C 0 km/h
3088 22-03-2011 17:58:02 17.7 C 3.02 g/m*3 17.7 C 0 km/h
3089 22-03-2011 18:10:02 16.2 C 2.9 g/m*3 16.2 C 0 km/h
3090 22-03-2011 18:22:01 14.7 C 2.52 g/m*3 14.7 C 0 km/h
3091 22-03-2011 18:34:02 12.9 C 3.27 g/m*3 12.9 C 0 km/h
3092 22-03-2011 18:46:02 11.6 C 3.43 g/m*3 11.6 C 0 km/h
3093 22-03-2011 18:58:02 11 C 3.6 g/m*3 11 C 0 km/h
3094 22-03-2011 19:10:02 10.2 C 3.62 g/m*3 10.2 C 0 km/h
3095 22-03-2011 19:22:02 9.7 C 3.87 g/m*3 9.7 C 0 km/h
3096 22-03-2011 19:34:02 9.4 C 3.98 g/m*3 9.4 C 0 km/h
3097 22-03-2011 19:46:01 9.8 C 3.9 g/m*3 9.8 C 0 km/h
3098 22-03-2011 19:58:01 9.3 C 4.04 g/m*3 9.3 C 0 km/h
3099 22-03-2011 20:10:02 9.3 C 4.04 g/m*3 9.3 C 0 km/h
3100 22-03-2011 20:22:01 9.5 C 4.01 g/m*3 9.5 C 0 km/h
Sensor: Nr:Datum:Temp:Abs-Feuchte:Windchill:Wind:
Aussen-T/F 3101 22-03-2011 20:34:01 9.2 C 4.11 g/m*3 9.2 C 0 km/h
3102 22-03-2011 20:46:01 9 C 4.14 g/m*3 9 C 0 km/h
3103 22-03-2011 20:58:01 8.7 C 4.24 g/m*3 8.7 C 0 km/h
3104 22-03-2011 21:10:02 8.4 C 4.41 g/m*3 8.4 C 0 km/h
3105 22-03-2011 21:22:01 7.8 C 4.57 g/m*3 7.8 C 0 km/h
3106 22-03-2011 21:34:01 7.6 C 4.67 g/m*3 7.6 C 0 km/h
3107 22-03-2011 21:46:01 7 C 4.65 g/m*3 7 C 0 km/h
3108 22-03-2011 21:58:01 6.7 C 4.79 g/m*3 6.7 C 0 km/h
3109 22-03-2011 22:10:02 6.3 C 4.66 g/m*3 6.3 C 0 km/h
3110 22-03-2011 22:22:01 6.5 C 4.95 g/m*3 6.5 C 0 km/h
3111 22-03-2011 22:34:02 6 C 4.86 g/m*3 6 C 0 km/h
3112 22-03-2011 22:46:02 5.6 C 4.88 g/m*3 5.6 C 0 km/h
3113 22-03-2011 22:58:02 5 C 4.76 g/m*3 5 C 0 km/h
3114 22-03-2011 23:10:02 4.6 C 4.83 g/m*3 4.6 C 0 km/h
3115 22-03-2011 23:22:02 4.2 C 4.83 g/m*3 4.2 C 0 km/h
3116 22-03-2011 23:34:02 4 C 4.83 g/m*3 4 C 0 km/h
3117 22-03-2011 23:46:01 3.5 C 4.8 g/m*3 3.5 C 0 km/h
3118 22-03-2011 23:58:01 3.2 C 4.7 g/m*3 3.2 C 0 km/h
3119 23-03-2011 00:10:02 2.8 C 4.58 g/m*3 2.8 C 0 km/h
3120 23-03-2011 00:22:02 2.5 C 4.54 g/m*3 2.5 C 0 km/h
3121 23-03-2011 00:34:01 2.8 C 4.75 g/m*3 2.8 C 0 km/h
3122 23-03-2011 00:46:03 2.6 C 4.69 g/m*3 2.6 C 0 km/h
3123 23-03-2011 00:58:03 2.7 C 4.78 g/m*3 2.7 C 0 km/h
3124 23-03-2011 01:10:02 2.6 C 4.8 g/m*3 2.6 C 0 km/h
3125 23-03-2011 01:22:02 2.6 C 4.8 g/m*3 2.6 C 0 km/h
Sensor: Nr:Datum:Temp:Abs-Feuchte:Windchill:Wind:
Aussen-T/F 3126 23-03-2011 01:34:02 2.1 C 4.64 g/m*3 2.1 C 0 km/h
3127 23-03-2011 01:46:02 2 C 4.67 g/m*3 2 C 0 km/h
3128 23-03-2011 01:58:02 1.8 C 4.66 g/m*3 1.8 C 0 km/h
3129 23-03-2011 02:10:01 1.5 C 4.57 g/m*3 1.5 C 0 km/h
3130 23-03-2011 02:22:02 1.6 C 4.65 g/m*3 1.6 C 0 km/h
3131 23-03-2011 02:34:02 1.4 C 4.59 g/m*3 1.4 C 0 km/h
3132 23-03-2011 02:47:03 2.2 C 4.9 g/m*3 2.2 C 0 km/h
3133 23-03-2011 02:59:03 1.8 C 4.77 g/m*3 1.8 C 0 km/h
3134 23-03-2011 03:11:02 0.9 C 4.48 g/m*3 0.9 C 0 km/h
3135 23-03-2011 03:23:02 0.7 C 4.42 g/m*3 0.7 C 0 km/h
3136 23-03-2011 03:35:02 0.5 C 4.36 g/m*3 0.5 C 0 km/h
3137 23-03-2011 03:47:02 0.5 C 4.36 g/m*3 0.5 C 0 km/h
3138 23-03-2011 03:59:02 0.3 C 4.3 g/m*3 0.3 C 0 km/h
3139 23-03-2011 04:11:01 0.4 C 4.38 g/m*3 0.4 C 0 km/h
3140 23-03-2011 04:23:02 0.3 C 4.35 g/m*3 0.3 C 0 km/h
3141 23-03-2011 04:35:01 0.2 C 4.37 g/m*3 0.2 C 0 km/h
3142 23-03-2011 04:47:02 0.1 C 4.34 g/m*3 0.1 C 0 km/h
3143 23-03-2011 04:59:02 0.5 C 4.46 g/m*3 0.5 C 0 km/h
3144 23-03-2011 05:11:01 0 C 4.31 g/m*3 0 C 0 km/h
3145 23-03-2011 05:23:01 0.4 C 4.48 g/m*3 0.4 C 0 km/h
3146 23-03-2011 05:35:02 0.2 C 4.42 g/m*3 0.2 C 0 km/h
3147 23-03-2011 05:47:02 -0.1 C 4.33 g/m*3 -0.1 C 0 km/h
3148 23-03-2011 05:59:02 -0.2 C 4.3 g/m*3 -0.2 C 0 km/h
3149 23-03-2011 06:11:01 -0.2 C 4.3 g/m*3 -0.2 C 0 km/h
3150 23-03-2011 06:23:02 0 C 4.41 g/m*3 0 C 0 km/h
Sensor: Nr:Datum:Temp:Abs-Feuchte:Windchill:Wind:
Aussen-T/F 3151 23-03-2011 06:35:02 -0.1 C 4.38 g/m*3 -0.1 C 0 km/h
3152 23-03-2011 06:47:01 0 C 4.41 g/m*3 0 C 0 km/h
3153 23-03-2011 06:59:01 -0.2 C 4.35 g/m*3 -0.2 C 0 km/h
3154 23-03-2011 07:11:02 -0.1 C 4.38 g/m*3 -0.1 C 0 km/h
3155 23-03-2011 07:23:01 0.4 C 4.58 g/m*3 0.4 C 0 km/h
3156 23-03-2011 07:35:02 0.6 C 4.65 g/m*3 0.6 C 0 km/h
3157 23-03-2011 07:47:01 0.8 C 4.71 g/m*3 0.8 C 0 km/h
3158 23-03-2011 07:59:01 1 C 4.72 g/m*3 1 C 0 km/h
3159 23-03-2011 08:11:02 1.4 C 4.85 g/m*3 1.4 C 0 km/h
3160 23-03-2011 08:23:02 1.7 C 4.95 g/m*3 1.7 C 0 km/h
3161 23-03-2011 08:35:02 1.9 C 4.97 g/m*3 1.9 C 0 km/h
3162 23-03-2011 08:47:02 2.3 C 5.1 g/m*3 2.3 C 0 km/h
3163 23-03-2011 08:59:02 2.9 C 5.32 g/m*3 2.9 C 0 km/h
3164 23-03-2011 09:11:02 3.1 C 5.27 g/m*3 3.1 C 0 km/h
3165 23-03-2011 09:23:02 3.6 C 5.45 g/m*3 3.6 C 0 km/h
3166 23-03-2011 09:35:02 4.6 C 5.76 g/m*3 4.6 C 0 km/h
3167 23-03-2011 09:47:02 5.5 C 5.83 g/m*3 5.5 C 0 km/h
3168 23-03-2011 09:59:02 5.9 C 5.7 g/m*3 5.9 C 0 km/h
3169 23-03-2011 10:11:02 6.4 C 5.74 g/m*3 6.4 C 0 km/h
3170 23-03-2011 10:23:02 7.5 C 5.52 g/m*3 7.5 C 0 km/h
3171 23-03-2011 10:35:02 8.1 C 5.49 g/m*3 8.1 C 0 km/h
3172 23-03-2011 10:47:02 8.6 C 5.33 g/m*3 8.6 C 0 km/h
3173 23-03-2011 10:59:02 9.5 C 5.46 g/m*3 9.5 C 0 km/h
3174 23-03-2011 11:11:03 10.1 C 5.48 g/m*3 10.1 C 0 km/h
3175 23-03-2011 11:23:02 10.8 C 5.54 g/m*3 10.8 C 0 km/h
Sensor: Nr:Datum:Temp:Abs-Feuchte:Windchill:Wind:
Aussen-T/F 3176 23-03-2011 11:35:02 11.4 C 5.44 g/m*3 11.4 C 0 km/h
3177 23-03-2011 11:47:01 13 C 5.22 g/m*3 13 C 0 km/h
3178 23-03-2011 11:59:01 14.2 C 5.13 g/m*3 14.2 C 0 km/h
3179 23-03-2011 12:11:02 15.6 C 5.32 g/m*3 15.6 C 0 km/h
3180 23-03-2011 12:23:01 15 C 4.62 g/m*3 15 C 0 km/h
3181 23-03-2011 12:35:01 15.6 C 4.92 g/m*3 15.6 C 0 km/h
3182 23-03-2011 12:47:02 18.3 C 5 g/m*3 18.3 C 0 km/h
3183 23-03-2011 12:59:02 20.4 C 4.78 g/m*3 20.4 C 0 km/h
3184 23-03-2011 13:11:02 17.9 C 4.58 g/m*3 17.9 C 0 km/h
3185 23-03-2011 13:23:01 17.8 C 4.55 g/m*3 17.8 C 0 km/h
3186 23-03-2011 13:35:02 17.2 C 4.54 g/m*3 17.2 C 0 km/h
3187 23-03-2011 13:47:02 17.8 C 4.25 g/m*3 17.8 C 0 km/h
3188 23-03-2011 13:59:02 17.9 C 4.28 g/m*3 17.9 C 0 km/h
3189 23-03-2011 14:11:02 17.6 C 4.35 g/m*3 17.6 C 0 km/h
3190 23-03-2011 14:23:01 18.9 C 4.37 g/m*3 18.9 C 0 km/h
3191 23-03-2011 14:35:02 20.1 C 4.35 g/m*3 20.1 C 0 km/h
3192 23-03-2011 14:47:02 21.3 C 4.1 g/m*3 21.3 C 0 km/h
3193 23-03-2011 14:59:02 22.9 C 4.09 g/m*3 22.9 C 0 km/h
3194 23-03-2011 15:11:02 20 C 3.63 g/m*3 20 C 0 km/h
3195 23-03-2011 15:23:02 23.5 C 4.23 g/m*3 23.5 C 0 km/h
3196 23-03-2011 15:35:02 22.5 C 3.99 g/m*3 22.5 C 0 km/h
3197 23-03-2011 15:47:02 24.1 C 4.38 g/m*3 24.1 C 0 km/h
3198 23-03-2011 15:59:02 22.8 C 4.06 g/m*3 22.8 C 0 km/h
3199 23-03-2011 16:11:02 22.6 C 4.02 g/m*3 22.6 C 0 km/h
3200 23-03-2011 16:23:02 21.6 C 4.36 g/m*3 21.6 C 0 km/h
Sensor: Nr:Datum:Temp:Abs-Feuchte:Windchill:Wind:
Aussen-T/F 3201 23-03-2011 16:35:02 21.5 C 4.71 g/m*3 21.5 C 0 km/h
3202 23-03-2011 16:47:01 23 C 4.11 g/m*3 23 C 0 km/h
3203 23-03-2011 16:59:01 22.5 C 4.19 g/m*3 22.5 C 0 km/h
3204 23-03-2011 17:11:02 20.9 C 4.37 g/m*3 20.9 C 0 km/h
3205 23-03-2011 17:23:01 19.1 C 4.43 g/m*3 19.1 C 0 km/h
3206 23-03-2011 17:35:01 18.4 C 5.03 g/m*3 18.4 C 0 km/h
3207 23-03-2011 17:47:01 19.1 C 5.08 g/m*3 19.1 C 0 km/h
3208 23-03-2011 17:59:01 18.2 C 5.28 g/m*3 18.2 C 0 km/h
3209 23-03-2011 18:11:02 16.2 C 5.38 g/m*3 16.2 C 0 km/h
3210 23-03-2011 18:23:02 13.8 C 5.6 g/m*3 13.8 C 0 km/h
3211 23-03-2011 18:35:02 13.4 C 5.7 g/m*3 13.4 C 0 km/h
3212 23-03-2011 18:47:02 12 C 5.75 g/m*3 12 C 0 km/h
3213 23-03-2011 18:59:02 11.4 C 5.75 g/m*3 11.4 C 0 km/h
3214 23-03-2011 19:11:02 11.1 C 5.84 g/m*3 11.1 C 0 km/h
3215 23-03-2011 19:23:02 10.7 C 5.89 g/m*3 10.7 C 0 km/h
3216 23-03-2011 19:35:03 10.5 C 5.92 g/m*3 10.5 C 0 km/h
3217 23-03-2011 19:47:02 10.9 C 6.07 g/m*3 10.9 C 0 km/h
3218 23-03-2011 19:59:03 10.4 C 5.88 g/m*3 10.4 C 0 km/h
3219 23-03-2011 20:11:01 10.1 C 5.96 g/m*3 10.1 C 0 km/h
3220 23-03-2011 20:23:02 9.7 C 5.99 g/m*3 9.7 C 0 km/h
3221 23-03-2011 20:35:02 9.7 C 6.08 g/m*3 9.7 C 0 km/h
3222 23-03-2011 20:47:02 9.2 C 5.89 g/m*3 9.2 C 0 km/h
3223 23-03-2011 20:59:02 9.3 C 6.02 g/m*3 9.3 C 0 km/h
3224 23-03-2011 21:11:03 9.1 C 6.03 g/m*3 9.1 C 0 km/h
3225 23-03-2011 21:23:02 8.4 C 5.94 g/m*3 8.4 C 0 km/h
Sensor: Nr:Datum:Temp:Abs-Feuchte:Windchill:Wind:
Aussen-T/F 3226 23-03-2011 21:35:02 7.8 C 5.96 g/m*3 7.8 C 0 km/h
3227 23-03-2011 21:47:02 7.8 C 6.12 g/m*3 7.8 C 0 km/h
3228 23-03-2011 21:59:02 7.3 C 5.93 g/m*3 7.3 C 0 km/h
3229 23-03-2011 22:11:02 7.1 C 6.01 g/m*3 7.1 C 0 km/h
3230 23-03-2011 22:23:01 6.6 C 5.96 g/m*3 6.6 C 0 km/h
3231 23-03-2011 22:35:02 6 C 5.73 g/m*3 6 C 0 km/h
3232 23-03-2011 22:47:02 5.7 C 5.76 g/m*3 5.7 C 0 km/h
3233 23-03-2011 22:59:02 5.7 C 5.84 g/m*3 5.7 C 0 km/h
3234 23-03-2011 23:11:02 5.3 C 5.75 g/m*3 5.3 C 0 km/h
3235 23-03-2011 23:23:03 5.1 C 5.75 g/m*3 5.1 C 0 km/h
3236 23-03-2011 23:35:02 4.9 C 5.74 g/m*3 4.9 C 0 km/h
3237 23-03-2011 23:47:02 4.9 C 5.74 g/m*3 4.9 C 0 km/h
3238 23-03-2011 23:59:02 4.6 C 5.62 g/m*3 4.6 C 0 km/h
3239 24-03-2011 00:11:02 4.4 C 5.55 g/m*3 4.4 C 0 km/h
3240 24-03-2011 00:23:02 4.5 C 5.59 g/m*3 4.5 C 0 km/h
3241 24-03-2011 00:35:02 4.3 C 5.58 g/m*3 4.3 C 0 km/h
3242 24-03-2011 00:47:02 4.1 C 5.5 g/m*3 4.1 C 0 km/h
3243 24-03-2011 00:59:02 4 C 5.47 g/m*3 4 C 0 km/h
3244 24-03-2011 01:11:02 3.5 C 5.35 g/m*3 3.5 C 0 km/h